<?xml version="1.0" encoding="UTF-8" standalone="no" ?>
<gpx xmlns="http://www.topografix.com/GPX/1/1" xmlns:xsi="http://www.w3.org/2001/XMLSchema-instance" xsi:schemaLocation="http://www.topografix.com/GPX/1/1 http://www.topografix.com/GPX/1/1/gpx.xsd" version="1.1" creator="VisuGPX - https://www.visugpx.com">
  <metadata>
    <name>Saint NAZAIRE les eymes-Saint hilaire du touvet</name>
    <desc><![CDATA[File with points/tracks from Locus Map/3.44.2]]></desc>
  </metadata>
  <trk>
    <name><![CDATA[2020-03-15 11:07:09]]></name>
    <desc><![CDATA[St hil]]></desc>
    <extensions>
      <line xmlns="http://www.topografix.com/GPX/gpx_style/0/2">
        <color>0000FF</color>
        <opacity>0.59</opacity>
        <width>6.0</width>
      </line>
    </extensions>
    <trkseg>
      <trkpt lat="45.25626" lon="5.84717">
        <ele>351.3</ele>
        <time>2020-03-15T10:07:10.000Z</time>
      </trkpt>
      <trkpt lat="45.25634" lon="5.84709">
        <ele>347.31</ele>
        <time>2020-03-15T10:08:03.000Z</time>
      </trkpt>
      <trkpt lat="45.25642" lon="5.847">
        <ele>349.75</ele>
        <time>2020-03-15T10:08:20.000Z</time>
      </trkpt>
      <trkpt lat="45.25651" lon="5.84689">
        <ele>349.47</ele>
        <time>2020-03-15T10:08:25.000Z</time>
      </trkpt>
      <trkpt lat="45.25664" lon="5.84685">
        <ele>351.53</ele>
        <time>2020-03-15T10:08:30.000Z</time>
      </trkpt>
      <trkpt lat="45.25677" lon="5.84684">
        <ele>351.07</ele>
        <time>2020-03-15T10:08:35.000Z</time>
      </trkpt>
      <trkpt lat="45.25689" lon="5.84688">
        <ele>348.75</ele>
        <time>2020-03-15T10:08:40.000Z</time>
      </trkpt>
      <trkpt lat="45.25704" lon="5.84694">
        <ele>352.5</ele>
        <time>2020-03-15T10:08:45.000Z</time>
      </trkpt>
      <trkpt lat="45.25717" lon="5.84701">
        <ele>355.23</ele>
        <time>2020-03-15T10:08:50.000Z</time>
      </trkpt>
      <trkpt lat="45.25729" lon="5.84708">
        <ele>359</ele>
        <time>2020-03-15T10:08:55.000Z</time>
      </trkpt>
      <trkpt lat="45.25744" lon="5.8471">
        <ele>360.67</ele>
        <time>2020-03-15T10:09:00.000Z</time>
      </trkpt>
      <trkpt lat="45.25759" lon="5.84711">
        <ele>361.01</ele>
        <time>2020-03-15T10:09:05.000Z</time>
      </trkpt>
      <trkpt lat="45.25773" lon="5.84709">
        <ele>361.94</ele>
        <time>2020-03-15T10:09:10.000Z</time>
      </trkpt>
      <trkpt lat="45.2579" lon="5.84704">
        <ele>364.98</ele>
        <time>2020-03-15T10:09:15.000Z</time>
      </trkpt>
      <trkpt lat="45.25803" lon="5.84702">
        <ele>364</ele>
        <time>2020-03-15T10:09:20.000Z</time>
      </trkpt>
      <trkpt lat="45.25816" lon="5.847">
        <ele>361.68</ele>
        <time>2020-03-15T10:09:25.000Z</time>
      </trkpt>
      <trkpt lat="45.2583" lon="5.84695">
        <ele>364.46</ele>
        <time>2020-03-15T10:09:30.000Z</time>
      </trkpt>
      <trkpt lat="45.25844" lon="5.8469">
        <ele>365.52</ele>
        <time>2020-03-15T10:09:35.000Z</time>
      </trkpt>
      <trkpt lat="45.25858" lon="5.8468">
        <ele>369.34</ele>
        <time>2020-03-15T10:09:40.000Z</time>
      </trkpt>
      <trkpt lat="45.2587" lon="5.84668">
        <ele>370.55</ele>
        <time>2020-03-15T10:09:45.000Z</time>
      </trkpt>
      <trkpt lat="45.25882" lon="5.84658">
        <ele>370.56</ele>
        <time>2020-03-15T10:09:50.000Z</time>
      </trkpt>
      <trkpt lat="45.25895" lon="5.84652">
        <ele>368.6</ele>
        <time>2020-03-15T10:09:55.000Z</time>
      </trkpt>
      <trkpt lat="45.25907" lon="5.84647">
        <ele>367.39</ele>
        <time>2020-03-15T10:10:00.000Z</time>
      </trkpt>
      <trkpt lat="45.25918" lon="5.84635">
        <ele>373.73</ele>
        <time>2020-03-15T10:10:05.000Z</time>
      </trkpt>
      <trkpt lat="45.25927" lon="5.84622">
        <ele>377.21</ele>
        <time>2020-03-15T10:10:10.000Z</time>
      </trkpt>
      <trkpt lat="45.25937" lon="5.84611">
        <ele>376.65</ele>
        <time>2020-03-15T10:10:15.000Z</time>
      </trkpt>
      <trkpt lat="45.25948" lon="5.84601">
        <ele>378.47</ele>
        <time>2020-03-15T10:10:20.000Z</time>
      </trkpt>
      <trkpt lat="45.25958" lon="5.84586">
        <ele>381.96</ele>
        <time>2020-03-15T10:10:25.000Z</time>
      </trkpt>
      <trkpt lat="45.25968" lon="5.84574">
        <ele>381.4</ele>
        <time>2020-03-15T10:10:30.000Z</time>
      </trkpt>
      <trkpt lat="45.25979" lon="5.84563">
        <ele>381.09</ele>
        <time>2020-03-15T10:10:35.000Z</time>
      </trkpt>
      <trkpt lat="45.25991" lon="5.84552">
        <ele>381.48</ele>
        <time>2020-03-15T10:10:40.000Z</time>
      </trkpt>
      <trkpt lat="45.26002" lon="5.84538">
        <ele>385.02</ele>
        <time>2020-03-15T10:10:45.000Z</time>
      </trkpt>
      <trkpt lat="45.26015" lon="5.84529">
        <ele>386.13</ele>
        <time>2020-03-15T10:10:50.000Z</time>
      </trkpt>
      <trkpt lat="45.26026" lon="5.84518">
        <ele>387.21</ele>
        <time>2020-03-15T10:10:55.000Z</time>
      </trkpt>
      <trkpt lat="45.26038" lon="5.84506">
        <ele>388.54</ele>
        <time>2020-03-15T10:11:00.000Z</time>
      </trkpt>
      <trkpt lat="45.26048" lon="5.8449">
        <ele>392.81</ele>
        <time>2020-03-15T10:11:05.000Z</time>
      </trkpt>
      <trkpt lat="45.26062" lon="5.84478">
        <ele>393.58</ele>
        <time>2020-03-15T10:11:10.000Z</time>
      </trkpt>
      <trkpt lat="45.26071" lon="5.84463">
        <ele>397.95</ele>
        <time>2020-03-15T10:11:15.000Z</time>
      </trkpt>
      <trkpt lat="45.26082" lon="5.84451">
        <ele>398.86</ele>
        <time>2020-03-15T10:11:20.000Z</time>
      </trkpt>
      <trkpt lat="45.26095" lon="5.8444">
        <ele>400.08</ele>
        <time>2020-03-15T10:11:25.000Z</time>
      </trkpt>
      <trkpt lat="45.26105" lon="5.84431">
        <ele>400.17</ele>
        <time>2020-03-15T10:11:30.000Z</time>
      </trkpt>
      <trkpt lat="45.26111" lon="5.84416">
        <ele>402.24</ele>
        <time>2020-03-15T10:11:35.000Z</time>
      </trkpt>
      <trkpt lat="45.26122" lon="5.84404">
        <ele>403.08</ele>
        <time>2020-03-15T10:11:40.000Z</time>
      </trkpt>
      <trkpt lat="45.26135" lon="5.84394">
        <ele>403.72</ele>
        <time>2020-03-15T10:11:45.000Z</time>
      </trkpt>
      <trkpt lat="45.26146" lon="5.8438">
        <ele>409.06</ele>
        <time>2020-03-15T10:11:50.000Z</time>
      </trkpt>
      <trkpt lat="45.26159" lon="5.8437">
        <ele>409.46</ele>
        <time>2020-03-15T10:11:55.000Z</time>
      </trkpt>
      <trkpt lat="45.2617" lon="5.84358">
        <ele>412.61</ele>
        <time>2020-03-15T10:12:00.000Z</time>
      </trkpt>
      <trkpt lat="45.26182" lon="5.84347">
        <ele>411.72</ele>
        <time>2020-03-15T10:12:05.000Z</time>
      </trkpt>
      <trkpt lat="45.26193" lon="5.84336">
        <ele>414.36</ele>
        <time>2020-03-15T10:12:10.000Z</time>
      </trkpt>
      <trkpt lat="45.26204" lon="5.84322">
        <ele>419.2</ele>
        <time>2020-03-15T10:12:15.000Z</time>
      </trkpt>
      <trkpt lat="45.26214" lon="5.84312">
        <ele>418.55</ele>
        <time>2020-03-15T10:12:20.000Z</time>
      </trkpt>
      <trkpt lat="45.26226" lon="5.84302">
        <ele>420.6</ele>
        <time>2020-03-15T10:12:25.000Z</time>
      </trkpt>
      <trkpt lat="45.26237" lon="5.8429">
        <ele>421.73</ele>
        <time>2020-03-15T10:12:30.000Z</time>
      </trkpt>
      <trkpt lat="45.26247" lon="5.84278">
        <ele>424</ele>
        <time>2020-03-15T10:12:35.000Z</time>
      </trkpt>
      <trkpt lat="45.26258" lon="5.84267">
        <ele>424.58</ele>
        <time>2020-03-15T10:12:40.000Z</time>
      </trkpt>
      <trkpt lat="45.2627" lon="5.84257">
        <ele>427.13</ele>
        <time>2020-03-15T10:12:45.000Z</time>
      </trkpt>
      <trkpt lat="45.26281" lon="5.84245">
        <ele>430.61</ele>
        <time>2020-03-15T10:12:50.000Z</time>
      </trkpt>
      <trkpt lat="45.26291" lon="5.84232">
        <ele>432.45</ele>
        <time>2020-03-15T10:12:55.000Z</time>
      </trkpt>
      <trkpt lat="45.263" lon="5.8422">
        <ele>434.71</ele>
        <time>2020-03-15T10:13:00.000Z</time>
      </trkpt>
      <trkpt lat="45.26311" lon="5.84206">
        <ele>438.14</ele>
        <time>2020-03-15T10:13:05.000Z</time>
      </trkpt>
      <trkpt lat="45.26323" lon="5.84195">
        <ele>441.38</ele>
        <time>2020-03-15T10:13:10.000Z</time>
      </trkpt>
      <trkpt lat="45.26335" lon="5.84183">
        <ele>443.98</ele>
        <time>2020-03-15T10:13:15.000Z</time>
      </trkpt>
      <trkpt lat="45.26346" lon="5.84172">
        <ele>445.17</ele>
        <time>2020-03-15T10:13:20.000Z</time>
      </trkpt>
      <trkpt lat="45.26357" lon="5.8416">
        <ele>445.44</ele>
        <time>2020-03-15T10:13:25.000Z</time>
      </trkpt>
      <trkpt lat="45.26369" lon="5.84147">
        <ele>447.28</ele>
        <time>2020-03-15T10:13:30.000Z</time>
      </trkpt>
      <trkpt lat="45.2638" lon="5.84135">
        <ele>448.19</ele>
        <time>2020-03-15T10:13:35.000Z</time>
      </trkpt>
      <trkpt lat="45.26392" lon="5.84123">
        <ele>449.68</ele>
        <time>2020-03-15T10:13:40.000Z</time>
      </trkpt>
      <trkpt lat="45.26403" lon="5.84111">
        <ele>451.52</ele>
        <time>2020-03-15T10:13:45.000Z</time>
      </trkpt>
      <trkpt lat="45.26415" lon="5.84101">
        <ele>453.2</ele>
        <time>2020-03-15T10:13:50.000Z</time>
      </trkpt>
      <trkpt lat="45.26427" lon="5.84089">
        <ele>454.34</ele>
        <time>2020-03-15T10:13:55.000Z</time>
      </trkpt>
      <trkpt lat="45.26439" lon="5.8408">
        <ele>454.69</ele>
        <time>2020-03-15T10:14:00.000Z</time>
      </trkpt>
      <trkpt lat="45.26451" lon="5.84068">
        <ele>456.08</ele>
        <time>2020-03-15T10:14:05.000Z</time>
      </trkpt>
      <trkpt lat="45.26463" lon="5.84056">
        <ele>455.95</ele>
        <time>2020-03-15T10:14:10.000Z</time>
      </trkpt>
      <trkpt lat="45.26479" lon="5.8405">
        <ele>456.58</ele>
        <time>2020-03-15T10:14:15.000Z</time>
      </trkpt>
      <trkpt lat="45.26497" lon="5.84044">
        <ele>457.4</ele>
        <time>2020-03-15T10:14:20.000Z</time>
      </trkpt>
      <trkpt lat="45.26509" lon="5.84042">
        <ele>458.64</ele>
        <time>2020-03-15T10:14:25.000Z</time>
      </trkpt>
      <trkpt lat="45.26522" lon="5.84049">
        <ele>456.46</ele>
        <time>2020-03-15T10:14:30.000Z</time>
      </trkpt>
      <trkpt lat="45.26534" lon="5.84055">
        <ele>458.3</ele>
        <time>2020-03-15T10:14:35.000Z</time>
      </trkpt>
      <trkpt lat="45.26547" lon="5.84059">
        <ele>458.18</ele>
        <time>2020-03-15T10:14:40.000Z</time>
      </trkpt>
      <trkpt lat="45.26559" lon="5.84062">
        <ele>456.69</ele>
        <time>2020-03-15T10:14:45.000Z</time>
      </trkpt>
      <trkpt lat="45.26573" lon="5.84064">
        <ele>457.18</ele>
        <time>2020-03-15T10:14:50.000Z</time>
      </trkpt>
      <trkpt lat="45.26587" lon="5.84068">
        <ele>459.59</ele>
        <time>2020-03-15T10:14:55.000Z</time>
      </trkpt>
      <trkpt lat="45.26602" lon="5.84073">
        <ele>462.4</ele>
        <time>2020-03-15T10:15:00.000Z</time>
      </trkpt>
      <trkpt lat="45.26617" lon="5.84076">
        <ele>463.22</ele>
        <time>2020-03-15T10:15:05.000Z</time>
      </trkpt>
      <trkpt lat="45.26632" lon="5.84081">
        <ele>467.1</ele>
        <time>2020-03-15T10:15:10.000Z</time>
      </trkpt>
      <trkpt lat="45.26648" lon="5.84083">
        <ele>468.16</ele>
        <time>2020-03-15T10:15:15.000Z</time>
      </trkpt>
      <trkpt lat="45.26661" lon="5.84085">
        <ele>467.6</ele>
        <time>2020-03-15T10:15:20.000Z</time>
      </trkpt>
      <trkpt lat="45.26675" lon="5.8409">
        <ele>468.41</ele>
        <time>2020-03-15T10:15:25.000Z</time>
      </trkpt>
      <trkpt lat="45.26691" lon="5.84095">
        <ele>472.55</ele>
        <time>2020-03-15T10:15:30.000Z</time>
      </trkpt>
      <trkpt lat="45.26704" lon="5.84098">
        <ele>475</ele>
        <time>2020-03-15T10:15:35.000Z</time>
      </trkpt>
      <trkpt lat="45.2672" lon="5.84101">
        <ele>476.14</ele>
        <time>2020-03-15T10:15:40.000Z</time>
      </trkpt>
      <trkpt lat="45.26735" lon="5.84101">
        <ele>476.2</ele>
        <time>2020-03-15T10:15:45.000Z</time>
      </trkpt>
      <trkpt lat="45.26751" lon="5.84103">
        <ele>477.22</ele>
        <time>2020-03-15T10:15:50.000Z</time>
      </trkpt>
      <trkpt lat="45.26768" lon="5.84103">
        <ele>482.68</ele>
        <time>2020-03-15T10:15:55.000Z</time>
      </trkpt>
      <trkpt lat="45.26784" lon="5.84107">
        <ele>485.64</ele>
        <time>2020-03-15T10:16:00.000Z</time>
      </trkpt>
      <trkpt lat="45.26799" lon="5.8411">
        <ele>487.06</ele>
        <time>2020-03-15T10:16:05.000Z</time>
      </trkpt>
      <trkpt lat="45.26814" lon="5.84113">
        <ele>490.12</ele>
        <time>2020-03-15T10:16:10.000Z</time>
      </trkpt>
      <trkpt lat="45.26829" lon="5.84114">
        <ele>491.21</ele>
        <time>2020-03-15T10:16:15.000Z</time>
      </trkpt>
      <trkpt lat="45.26844" lon="5.84118">
        <ele>491.83</ele>
        <time>2020-03-15T10:16:20.000Z</time>
      </trkpt>
      <trkpt lat="45.26861" lon="5.84126">
        <ele>494.4</ele>
        <time>2020-03-15T10:16:25.000Z</time>
      </trkpt>
      <trkpt lat="45.26877" lon="5.8412">
        <ele>500.53</ele>
        <time>2020-03-15T10:16:30.000Z</time>
      </trkpt>
      <trkpt lat="45.26892" lon="5.84118">
        <ele>499.01</ele>
        <time>2020-03-15T10:16:35.000Z</time>
      </trkpt>
      <trkpt lat="45.26907" lon="5.84115">
        <ele>498.68</ele>
        <time>2020-03-15T10:16:40.000Z</time>
      </trkpt>
      <trkpt lat="45.26923" lon="5.84113">
        <ele>498.08</ele>
        <time>2020-03-15T10:16:45.000Z</time>
      </trkpt>
      <trkpt lat="45.26941" lon="5.84112">
        <ele>500.63</ele>
        <time>2020-03-15T10:16:50.000Z</time>
      </trkpt>
      <trkpt lat="45.26961" lon="5.84116">
        <ele>500.12</ele>
        <time>2020-03-15T10:16:55.000Z</time>
      </trkpt>
      <trkpt lat="45.26979" lon="5.84118">
        <ele>502.29</ele>
        <time>2020-03-15T10:17:00.000Z</time>
      </trkpt>
      <trkpt lat="45.26995" lon="5.84119">
        <ele>502.42</ele>
        <time>2020-03-15T10:17:05.000Z</time>
      </trkpt>
      <trkpt lat="45.27011" lon="5.84119">
        <ele>499.27</ele>
        <time>2020-03-15T10:17:10.000Z</time>
      </trkpt>
      <trkpt lat="45.27027" lon="5.84117">
        <ele>504.92</ele>
        <time>2020-03-15T10:17:15.000Z</time>
      </trkpt>
      <trkpt lat="45.27045" lon="5.84116">
        <ele>504.77</ele>
        <time>2020-03-15T10:17:20.000Z</time>
      </trkpt>
      <trkpt lat="45.27061" lon="5.84115">
        <ele>503.47</ele>
        <time>2020-03-15T10:17:25.000Z</time>
      </trkpt>
      <trkpt lat="45.27078" lon="5.84111">
        <ele>503.35</ele>
        <time>2020-03-15T10:17:30.000Z</time>
      </trkpt>
      <trkpt lat="45.27092" lon="5.84108">
        <ele>505.84</ele>
        <time>2020-03-15T10:17:35.000Z</time>
      </trkpt>
      <trkpt lat="45.27112" lon="5.84118">
        <ele>508.32</ele>
        <time>2020-03-15T10:17:40.000Z</time>
      </trkpt>
      <trkpt lat="45.27131" lon="5.84134">
        <ele>506.62</ele>
        <time>2020-03-15T10:17:45.000Z</time>
      </trkpt>
      <trkpt lat="45.27139" lon="5.84154">
        <ele>502.77</ele>
        <time>2020-03-15T10:17:50.000Z</time>
      </trkpt>
      <trkpt lat="45.27148" lon="5.84176">
        <ele>503.27</ele>
        <time>2020-03-15T10:17:55.000Z</time>
      </trkpt>
      <trkpt lat="45.27156" lon="5.84198">
        <ele>507.32</ele>
        <time>2020-03-15T10:18:00.000Z</time>
      </trkpt>
      <trkpt lat="45.27165" lon="5.84227">
        <ele>510.46</ele>
        <time>2020-03-15T10:18:05.000Z</time>
      </trkpt>
      <trkpt lat="45.27174" lon="5.84251">
        <ele>507.62</ele>
        <time>2020-03-15T10:18:10.000Z</time>
      </trkpt>
      <trkpt lat="45.27183" lon="5.84275">
        <ele>504.57</ele>
        <time>2020-03-15T10:18:15.000Z</time>
      </trkpt>
      <trkpt lat="45.27193" lon="5.84292">
        <ele>505.38</ele>
        <time>2020-03-15T10:18:20.000Z</time>
      </trkpt>
      <trkpt lat="45.27204" lon="5.84308">
        <ele>504.82</ele>
        <time>2020-03-15T10:18:25.000Z</time>
      </trkpt>
      <trkpt lat="45.27215" lon="5.84323">
        <ele>503.87</ele>
        <time>2020-03-15T10:18:30.000Z</time>
      </trkpt>
      <trkpt lat="45.27227" lon="5.8434">
        <ele>504.17</ele>
        <time>2020-03-15T10:18:35.000Z</time>
      </trkpt>
      <trkpt lat="45.27237" lon="5.84359">
        <ele>506.03</ele>
        <time>2020-03-15T10:18:40.000Z</time>
      </trkpt>
      <trkpt lat="45.27248" lon="5.84376">
        <ele>507.88</ele>
        <time>2020-03-15T10:18:45.000Z</time>
      </trkpt>
      <trkpt lat="45.27262" lon="5.84389">
        <ele>508.7</ele>
        <time>2020-03-15T10:18:50.000Z</time>
      </trkpt>
      <trkpt lat="45.27274" lon="5.84404">
        <ele>506.7</ele>
        <time>2020-03-15T10:18:55.000Z</time>
      </trkpt>
      <trkpt lat="45.27287" lon="5.84421">
        <ele>508.49</ele>
        <time>2020-03-15T10:19:00.000Z</time>
      </trkpt>
      <trkpt lat="45.27301" lon="5.84436">
        <ele>511.52</ele>
        <time>2020-03-15T10:19:05.000Z</time>
      </trkpt>
      <trkpt lat="45.27318" lon="5.84447">
        <ele>513.68</ele>
        <time>2020-03-15T10:19:10.000Z</time>
      </trkpt>
      <trkpt lat="45.27333" lon="5.84463">
        <ele>515.86</ele>
        <time>2020-03-15T10:19:15.000Z</time>
      </trkpt>
      <trkpt lat="45.27345" lon="5.84478">
        <ele>517.01</ele>
        <time>2020-03-15T10:19:20.000Z</time>
      </trkpt>
      <trkpt lat="45.27358" lon="5.84489">
        <ele>515.79</ele>
        <time>2020-03-15T10:19:25.000Z</time>
      </trkpt>
      <trkpt lat="45.27375" lon="5.84498">
        <ele>518.16</ele>
        <time>2020-03-15T10:19:30.000Z</time>
      </trkpt>
      <trkpt lat="45.27389" lon="5.84508">
        <ele>521.43</ele>
        <time>2020-03-15T10:19:35.000Z</time>
      </trkpt>
      <trkpt lat="45.27401" lon="5.8452">
        <ele>519.8</ele>
        <time>2020-03-15T10:19:40.000Z</time>
      </trkpt>
      <trkpt lat="45.27412" lon="5.84537">
        <ele>519.3</ele>
        <time>2020-03-15T10:19:45.000Z</time>
      </trkpt>
      <trkpt lat="45.27421" lon="5.84555">
        <ele>522.76</ele>
        <time>2020-03-15T10:19:50.000Z</time>
      </trkpt>
      <trkpt lat="45.27431" lon="5.84569">
        <ele>525</ele>
        <time>2020-03-15T10:19:55.000Z</time>
      </trkpt>
      <trkpt lat="45.27446" lon="5.84581">
        <ele>528.81</ele>
        <time>2020-03-15T10:20:00.000Z</time>
      </trkpt>
      <trkpt lat="45.27461" lon="5.84592">
        <ele>532.33</ele>
        <time>2020-03-15T10:20:05.000Z</time>
      </trkpt>
      <trkpt lat="45.27474" lon="5.84602">
        <ele>534.13</ele>
        <time>2020-03-15T10:20:10.000Z</time>
      </trkpt>
      <trkpt lat="45.27486" lon="5.84611">
        <ele>532.28</ele>
        <time>2020-03-15T10:20:15.000Z</time>
      </trkpt>
      <trkpt lat="45.27498" lon="5.84619">
        <ele>533.73</ele>
        <time>2020-03-15T10:20:20.000Z</time>
      </trkpt>
      <trkpt lat="45.27513" lon="5.84627">
        <ele>535.68</ele>
        <time>2020-03-15T10:20:25.000Z</time>
      </trkpt>
      <trkpt lat="45.2753" lon="5.84629">
        <ele>539.3</ele>
        <time>2020-03-15T10:20:30.000Z</time>
      </trkpt>
      <trkpt lat="45.27551" lon="5.84631">
        <ele>540.85</ele>
        <time>2020-03-15T10:20:35.000Z</time>
      </trkpt>
      <trkpt lat="45.27564" lon="5.84643">
        <ele>542.04</ele>
        <time>2020-03-15T10:20:40.000Z</time>
      </trkpt>
      <trkpt lat="45.27575" lon="5.8465">
        <ele>541.52</ele>
        <time>2020-03-15T10:20:45.000Z</time>
      </trkpt>
      <trkpt lat="45.27584" lon="5.84662">
        <ele>545.74</ele>
        <time>2020-03-15T10:20:50.000Z</time>
      </trkpt>
      <trkpt lat="45.27599" lon="5.84675">
        <ele>548.88</ele>
        <time>2020-03-15T10:20:55.000Z</time>
      </trkpt>
      <trkpt lat="45.27616" lon="5.84685">
        <ele>555.61</ele>
        <time>2020-03-15T10:21:00.000Z</time>
      </trkpt>
      <trkpt lat="45.27629" lon="5.84699">
        <ele>557.55</ele>
        <time>2020-03-15T10:21:05.000Z</time>
      </trkpt>
      <trkpt lat="45.27641" lon="5.84712">
        <ele>562.04</ele>
        <time>2020-03-15T10:21:10.000Z</time>
      </trkpt>
      <trkpt lat="45.27655" lon="5.84703">
        <ele>564.66</ele>
        <time>2020-03-15T10:21:15.000Z</time>
      </trkpt>
      <trkpt lat="45.27648" lon="5.84685">
        <ele>567.24</ele>
        <time>2020-03-15T10:21:20.000Z</time>
      </trkpt>
      <trkpt lat="45.27629" lon="5.84678">
        <ele>572.04</ele>
        <time>2020-03-15T10:21:25.000Z</time>
      </trkpt>
      <trkpt lat="45.27615" lon="5.84666">
        <ele>570.91</ele>
        <time>2020-03-15T10:21:30.000Z</time>
      </trkpt>
      <trkpt lat="45.27609" lon="5.84645">
        <ele>567.88</ele>
        <time>2020-03-15T10:21:35.000Z</time>
      </trkpt>
      <trkpt lat="45.27606" lon="5.84627">
        <ele>570.01</ele>
        <time>2020-03-15T10:21:40.000Z</time>
      </trkpt>
      <trkpt lat="45.27593" lon="5.84614">
        <ele>570.02</ele>
        <time>2020-03-15T10:21:45.000Z</time>
      </trkpt>
      <trkpt lat="45.27579" lon="5.84601">
        <ele>575.62</ele>
        <time>2020-03-15T10:21:50.000Z</time>
      </trkpt>
      <trkpt lat="45.27564" lon="5.8459">
        <ele>574.95</ele>
        <time>2020-03-15T10:21:55.000Z</time>
      </trkpt>
      <trkpt lat="45.27554" lon="5.84574">
        <ele>573.86</ele>
        <time>2020-03-15T10:22:00.000Z</time>
      </trkpt>
      <trkpt lat="45.27543" lon="5.8456">
        <ele>575.71</ele>
        <time>2020-03-15T10:22:05.000Z</time>
      </trkpt>
      <trkpt lat="45.27533" lon="5.84546">
        <ele>575.84</ele>
        <time>2020-03-15T10:22:10.000Z</time>
      </trkpt>
      <trkpt lat="45.27531" lon="5.84526">
        <ele>579.14</ele>
        <time>2020-03-15T10:22:15.000Z</time>
      </trkpt>
      <trkpt lat="45.27516" lon="5.84512">
        <ele>581.33</ele>
        <time>2020-03-15T10:22:20.000Z</time>
      </trkpt>
      <trkpt lat="45.27501" lon="5.84499">
        <ele>582.19</ele>
        <time>2020-03-15T10:22:25.000Z</time>
      </trkpt>
      <trkpt lat="45.27484" lon="5.84487">
        <ele>580.53</ele>
        <time>2020-03-15T10:22:30.000Z</time>
      </trkpt>
      <trkpt lat="45.2747" lon="5.84475">
        <ele>582.94</ele>
        <time>2020-03-15T10:22:35.000Z</time>
      </trkpt>
      <trkpt lat="45.27457" lon="5.8446">
        <ele>584.25</ele>
        <time>2020-03-15T10:22:40.000Z</time>
      </trkpt>
      <trkpt lat="45.27441" lon="5.84447">
        <ele>586.48</ele>
        <time>2020-03-15T10:22:45.000Z</time>
      </trkpt>
      <trkpt lat="45.27427" lon="5.84433">
        <ele>589.15</ele>
        <time>2020-03-15T10:22:50.000Z</time>
      </trkpt>
      <trkpt lat="45.27413" lon="5.84422">
        <ele>593.22</ele>
        <time>2020-03-15T10:22:55.000Z</time>
      </trkpt>
      <trkpt lat="45.27396" lon="5.84416">
        <ele>593.11</ele>
        <time>2020-03-15T10:23:00.000Z</time>
      </trkpt>
      <trkpt lat="45.27384" lon="5.84401">
        <ele>598.57</ele>
        <time>2020-03-15T10:23:05.000Z</time>
      </trkpt>
      <trkpt lat="45.27371" lon="5.84384">
        <ele>599.02</ele>
        <time>2020-03-15T10:23:10.000Z</time>
      </trkpt>
      <trkpt lat="45.27362" lon="5.84364">
        <ele>600.84</ele>
        <time>2020-03-15T10:23:15.000Z</time>
      </trkpt>
      <trkpt lat="45.27354" lon="5.84345">
        <ele>601.64</ele>
        <time>2020-03-15T10:23:20.000Z</time>
      </trkpt>
      <trkpt lat="45.27349" lon="5.84322">
        <ele>605.53</ele>
        <time>2020-03-15T10:23:25.000Z</time>
      </trkpt>
      <trkpt lat="45.27343" lon="5.843">
        <ele>607.47</ele>
        <time>2020-03-15T10:23:30.000Z</time>
      </trkpt>
      <trkpt lat="45.27334" lon="5.8428">
        <ele>611.67</ele>
        <time>2020-03-15T10:23:35.000Z</time>
      </trkpt>
      <trkpt lat="45.27326" lon="5.8426">
        <ele>616.24</ele>
        <time>2020-03-15T10:23:40.000Z</time>
      </trkpt>
      <trkpt lat="45.2732" lon="5.84237">
        <ele>616.43</ele>
        <time>2020-03-15T10:23:45.000Z</time>
      </trkpt>
      <trkpt lat="45.27304" lon="5.8422">
        <ele>615.82</ele>
        <time>2020-03-15T10:23:50.000Z</time>
      </trkpt>
      <trkpt lat="45.27297" lon="5.84197">
        <ele>616.08</ele>
        <time>2020-03-15T10:23:55.000Z</time>
      </trkpt>
      <trkpt lat="45.27299" lon="5.84173">
        <ele>621.72</ele>
        <time>2020-03-15T10:24:00.000Z</time>
      </trkpt>
      <trkpt lat="45.273" lon="5.8415">
        <ele>627.94</ele>
        <time>2020-03-15T10:24:05.000Z</time>
      </trkpt>
      <trkpt lat="45.27303" lon="5.84128">
        <ele>634.24</ele>
        <time>2020-03-15T10:24:10.000Z</time>
      </trkpt>
      <trkpt lat="45.27308" lon="5.84108">
        <ele>637.69</ele>
        <time>2020-03-15T10:24:15.000Z</time>
      </trkpt>
      <trkpt lat="45.27316" lon="5.84087">
        <ele>637.32</ele>
        <time>2020-03-15T10:24:20.000Z</time>
      </trkpt>
      <trkpt lat="45.27325" lon="5.84069">
        <ele>637.49</ele>
        <time>2020-03-15T10:24:25.000Z</time>
      </trkpt>
      <trkpt lat="45.27333" lon="5.84054">
        <ele>639.12</ele>
        <time>2020-03-15T10:24:30.000Z</time>
      </trkpt>
      <trkpt lat="45.27338" lon="5.84034">
        <ele>638.55</ele>
        <time>2020-03-15T10:24:35.000Z</time>
      </trkpt>
      <trkpt lat="45.27336" lon="5.84009">
        <ele>639.42</ele>
        <time>2020-03-15T10:24:40.000Z</time>
      </trkpt>
      <trkpt lat="45.27334" lon="5.83979">
        <ele>639.98</ele>
        <time>2020-03-15T10:24:45.000Z</time>
      </trkpt>
      <trkpt lat="45.2733" lon="5.83954">
        <ele>643.04</ele>
        <time>2020-03-15T10:24:50.000Z</time>
      </trkpt>
      <trkpt lat="45.27332" lon="5.83929">
        <ele>643.27</ele>
        <time>2020-03-15T10:24:55.000Z</time>
      </trkpt>
      <trkpt lat="45.27338" lon="5.83908">
        <ele>643.27</ele>
        <time>2020-03-15T10:25:00.000Z</time>
      </trkpt>
      <trkpt lat="45.27348" lon="5.83889">
        <ele>644.73</ele>
        <time>2020-03-15T10:25:05.000Z</time>
      </trkpt>
      <trkpt lat="45.27358" lon="5.8387">
        <ele>644.88</ele>
        <time>2020-03-15T10:25:10.000Z</time>
      </trkpt>
      <trkpt lat="45.27365" lon="5.83849">
        <ele>647.27</ele>
        <time>2020-03-15T10:25:15.000Z</time>
      </trkpt>
      <trkpt lat="45.27372" lon="5.83828">
        <ele>649.32</ele>
        <time>2020-03-15T10:25:20.000Z</time>
      </trkpt>
      <trkpt lat="45.2738" lon="5.83806">
        <ele>649.01</ele>
        <time>2020-03-15T10:25:25.000Z</time>
      </trkpt>
      <trkpt lat="45.27386" lon="5.83785">
        <ele>648.13</ele>
        <time>2020-03-15T10:25:30.000Z</time>
      </trkpt>
      <trkpt lat="45.27392" lon="5.83767">
        <ele>651.67</ele>
        <time>2020-03-15T10:25:35.000Z</time>
      </trkpt>
      <trkpt lat="45.274" lon="5.83752">
        <ele>651.09</ele>
        <time>2020-03-15T10:25:40.000Z</time>
      </trkpt>
      <trkpt lat="45.27407" lon="5.83733">
        <ele>652.54</ele>
        <time>2020-03-15T10:25:45.000Z</time>
      </trkpt>
      <trkpt lat="45.27415" lon="5.83711">
        <ele>655.97</ele>
        <time>2020-03-15T10:25:50.000Z</time>
      </trkpt>
      <trkpt lat="45.27425" lon="5.83691">
        <ele>657.02</ele>
        <time>2020-03-15T10:25:55.000Z</time>
      </trkpt>
      <trkpt lat="45.27434" lon="5.83672">
        <ele>660.05</ele>
        <time>2020-03-15T10:26:00.000Z</time>
      </trkpt>
      <trkpt lat="45.27442" lon="5.83647">
        <ele>662.39</ele>
        <time>2020-03-15T10:26:05.000Z</time>
      </trkpt>
      <trkpt lat="45.2744" lon="5.83624">
        <ele>664.41</ele>
        <time>2020-03-15T10:26:10.000Z</time>
      </trkpt>
      <trkpt lat="45.27432" lon="5.83604">
        <ele>663.16</ele>
        <time>2020-03-15T10:26:15.000Z</time>
      </trkpt>
      <trkpt lat="45.27424" lon="5.83583">
        <ele>660.9</ele>
        <time>2020-03-15T10:26:20.000Z</time>
      </trkpt>
      <trkpt lat="45.27422" lon="5.83563">
        <ele>660.44</ele>
        <time>2020-03-15T10:26:25.000Z</time>
      </trkpt>
      <trkpt lat="45.27433" lon="5.83558">
        <ele>662.36</ele>
        <time>2020-03-15T10:26:30.000Z</time>
      </trkpt>
      <trkpt lat="45.27447" lon="5.83582">
        <ele>663.66</ele>
        <time>2020-03-15T10:26:35.000Z</time>
      </trkpt>
      <trkpt lat="45.27463" lon="5.83605">
        <ele>662.5</ele>
        <time>2020-03-15T10:26:40.000Z</time>
      </trkpt>
      <trkpt lat="45.27467" lon="5.83632">
        <ele>661.27</ele>
        <time>2020-03-15T10:26:45.000Z</time>
      </trkpt>
      <trkpt lat="45.27464" lon="5.83655">
        <ele>663.34</ele>
        <time>2020-03-15T10:26:50.000Z</time>
      </trkpt>
      <trkpt lat="45.27455" lon="5.83677">
        <ele>660.04</ele>
        <time>2020-03-15T10:26:55.000Z</time>
      </trkpt>
      <trkpt lat="45.27445" lon="5.837">
        <ele>660.43</ele>
        <time>2020-03-15T10:27:00.000Z</time>
      </trkpt>
      <trkpt lat="45.27438" lon="5.83721">
        <ele>657.65</ele>
        <time>2020-03-15T10:27:05.000Z</time>
      </trkpt>
      <trkpt lat="45.2743" lon="5.83742">
        <ele>655.87</ele>
        <time>2020-03-15T10:27:10.000Z</time>
      </trkpt>
      <trkpt lat="45.27422" lon="5.83767">
        <ele>656.08</ele>
        <time>2020-03-15T10:27:15.000Z</time>
      </trkpt>
      <trkpt lat="45.2742" lon="5.83789">
        <ele>659.09</ele>
        <time>2020-03-15T10:27:20.000Z</time>
      </trkpt>
      <trkpt lat="45.27417" lon="5.83812">
        <ele>659.67</ele>
        <time>2020-03-15T10:27:25.000Z</time>
      </trkpt>
      <trkpt lat="45.27414" lon="5.83835">
        <ele>662.33</ele>
        <time>2020-03-15T10:27:30.000Z</time>
      </trkpt>
      <trkpt lat="45.27408" lon="5.8386">
        <ele>667.2</ele>
        <time>2020-03-15T10:27:35.000Z</time>
      </trkpt>
      <trkpt lat="45.274" lon="5.83885">
        <ele>668.18</ele>
        <time>2020-03-15T10:27:40.000Z</time>
      </trkpt>
      <trkpt lat="45.274" lon="5.83905">
        <ele>670.72</ele>
        <time>2020-03-15T10:27:45.000Z</time>
      </trkpt>
      <trkpt lat="45.2741" lon="5.83925">
        <ele>675.64</ele>
        <time>2020-03-15T10:27:50.000Z</time>
      </trkpt>
      <trkpt lat="45.27424" lon="5.83935">
        <ele>676.87</ele>
        <time>2020-03-15T10:27:55.000Z</time>
      </trkpt>
      <trkpt lat="45.27441" lon="5.83938">
        <ele>680.64</ele>
        <time>2020-03-15T10:28:00.000Z</time>
      </trkpt>
      <trkpt lat="45.27456" lon="5.83945">
        <ele>680.77</ele>
        <time>2020-03-15T10:28:05.000Z</time>
      </trkpt>
      <trkpt lat="45.27468" lon="5.83953">
        <ele>681.87</ele>
        <time>2020-03-15T10:28:10.000Z</time>
      </trkpt>
      <trkpt lat="45.2748" lon="5.83968">
        <ele>685.8</ele>
        <time>2020-03-15T10:28:15.000Z</time>
      </trkpt>
      <trkpt lat="45.27489" lon="5.83986">
        <ele>685.05</ele>
        <time>2020-03-15T10:28:20.000Z</time>
      </trkpt>
      <trkpt lat="45.27504" lon="5.84015">
        <ele>685.7</ele>
        <time>2020-03-15T10:28:25.000Z</time>
      </trkpt>
      <trkpt lat="45.27511" lon="5.84037">
        <ele>686.3</ele>
        <time>2020-03-15T10:28:30.000Z</time>
      </trkpt>
      <trkpt lat="45.27508" lon="5.84061">
        <ele>691.27</ele>
        <time>2020-03-15T10:28:35.000Z</time>
      </trkpt>
      <trkpt lat="45.27512" lon="5.84083">
        <ele>696.7</ele>
        <time>2020-03-15T10:28:40.000Z</time>
      </trkpt>
      <trkpt lat="45.27517" lon="5.84105">
        <ele>699.88</ele>
        <time>2020-03-15T10:28:45.000Z</time>
      </trkpt>
      <trkpt lat="45.27531" lon="5.84122">
        <ele>703</ele>
        <time>2020-03-15T10:28:50.000Z</time>
      </trkpt>
      <trkpt lat="45.27542" lon="5.84137">
        <ele>706.08</ele>
        <time>2020-03-15T10:28:55.000Z</time>
      </trkpt>
      <trkpt lat="45.2755" lon="5.84153">
        <ele>704.81</ele>
        <time>2020-03-15T10:29:00.000Z</time>
      </trkpt>
      <trkpt lat="45.27561" lon="5.84168">
        <ele>705.16</ele>
        <time>2020-03-15T10:29:05.000Z</time>
      </trkpt>
      <trkpt lat="45.27576" lon="5.84185">
        <ele>703.24</ele>
        <time>2020-03-15T10:29:10.000Z</time>
      </trkpt>
      <trkpt lat="45.27591" lon="5.84201">
        <ele>706.17</ele>
        <time>2020-03-15T10:29:15.000Z</time>
      </trkpt>
      <trkpt lat="45.27604" lon="5.84217">
        <ele>708.83</ele>
        <time>2020-03-15T10:29:20.000Z</time>
      </trkpt>
      <trkpt lat="45.27617" lon="5.84207">
        <ele>712.51</ele>
        <time>2020-03-15T10:29:25.000Z</time>
      </trkpt>
      <trkpt lat="45.27614" lon="5.84177">
        <ele>715.32</ele>
        <time>2020-03-15T10:29:30.000Z</time>
      </trkpt>
      <trkpt lat="45.27592" lon="5.84147">
        <ele>717.65</ele>
        <time>2020-03-15T10:29:37.000Z</time>
      </trkpt>
      <trkpt lat="45.27584" lon="5.84125">
        <ele>715.73</ele>
        <time>2020-03-15T10:29:42.000Z</time>
      </trkpt>
      <trkpt lat="45.27581" lon="5.84104">
        <ele>711.28</ele>
        <time>2020-03-15T10:29:47.000Z</time>
      </trkpt>
      <trkpt lat="45.27577" lon="5.84083">
        <ele>709.76</ele>
        <time>2020-03-15T10:29:52.000Z</time>
      </trkpt>
      <trkpt lat="45.27577" lon="5.8406">
        <ele>707.98</ele>
        <time>2020-03-15T10:29:57.000Z</time>
      </trkpt>
      <trkpt lat="45.27575" lon="5.84017">
        <ele>704.82</ele>
        <time>2020-03-15T10:30:06.000Z</time>
      </trkpt>
      <trkpt lat="45.27571" lon="5.83992">
        <ele>703.22</ele>
        <time>2020-03-15T10:30:11.000Z</time>
      </trkpt>
      <trkpt lat="45.27568" lon="5.8397">
        <ele>701.31</ele>
        <time>2020-03-15T10:30:16.000Z</time>
      </trkpt>
      <trkpt lat="45.27568" lon="5.83948">
        <ele>704.87</ele>
        <time>2020-03-15T10:30:21.000Z</time>
      </trkpt>
      <trkpt lat="45.27558" lon="5.83925">
        <ele>706.64</ele>
        <time>2020-03-15T10:30:26.000Z</time>
      </trkpt>
      <trkpt lat="45.27546" lon="5.83904">
        <ele>706.04</ele>
        <time>2020-03-15T10:30:31.000Z</time>
      </trkpt>
      <trkpt lat="45.27538" lon="5.83881">
        <ele>710.89</ele>
        <time>2020-03-15T10:30:36.000Z</time>
      </trkpt>
      <trkpt lat="45.27536" lon="5.83858">
        <ele>711.88</ele>
        <time>2020-03-15T10:30:41.000Z</time>
      </trkpt>
      <trkpt lat="45.27532" lon="5.83837">
        <ele>716.76</ele>
        <time>2020-03-15T10:30:46.000Z</time>
      </trkpt>
      <trkpt lat="45.27525" lon="5.83816">
        <ele>714.97</ele>
        <time>2020-03-15T10:30:51.000Z</time>
      </trkpt>
      <trkpt lat="45.27517" lon="5.83793">
        <ele>714.17</ele>
        <time>2020-03-15T10:30:56.000Z</time>
      </trkpt>
      <trkpt lat="45.27528" lon="5.83774">
        <ele>720.55</ele>
        <time>2020-03-15T10:31:01.000Z</time>
      </trkpt>
      <trkpt lat="45.27538" lon="5.83799">
        <ele>723.27</ele>
        <time>2020-03-15T10:31:06.000Z</time>
      </trkpt>
      <trkpt lat="45.27541" lon="5.83823">
        <ele>729.42</ele>
        <time>2020-03-15T10:31:11.000Z</time>
      </trkpt>
      <trkpt lat="45.2755" lon="5.83843">
        <ele>733.66</ele>
        <time>2020-03-15T10:31:16.000Z</time>
      </trkpt>
      <trkpt lat="45.2756" lon="5.83859">
        <ele>737.94</ele>
        <time>2020-03-15T10:31:21.000Z</time>
      </trkpt>
      <trkpt lat="45.27575" lon="5.8387">
        <ele>740.92</ele>
        <time>2020-03-15T10:31:26.000Z</time>
      </trkpt>
      <trkpt lat="45.27588" lon="5.83882">
        <ele>744.48</ele>
        <time>2020-03-15T10:31:31.000Z</time>
      </trkpt>
      <trkpt lat="45.27603" lon="5.8389">
        <ele>743.67</ele>
        <time>2020-03-15T10:31:36.000Z</time>
      </trkpt>
      <trkpt lat="45.27618" lon="5.83902">
        <ele>743.01</ele>
        <time>2020-03-15T10:31:41.000Z</time>
      </trkpt>
      <trkpt lat="45.27628" lon="5.83916">
        <ele>743.3</ele>
        <time>2020-03-15T10:31:46.000Z</time>
      </trkpt>
      <trkpt lat="45.27639" lon="5.83928">
        <ele>744.76</ele>
        <time>2020-03-15T10:31:51.000Z</time>
      </trkpt>
      <trkpt lat="45.27653" lon="5.83944">
        <ele>741.2</ele>
        <time>2020-03-15T10:31:56.000Z</time>
      </trkpt>
      <trkpt lat="45.27663" lon="5.83963">
        <ele>742.15</ele>
        <time>2020-03-15T10:32:01.000Z</time>
      </trkpt>
      <trkpt lat="45.27672" lon="5.83988">
        <ele>744.93</ele>
        <time>2020-03-15T10:32:06.000Z</time>
      </trkpt>
      <trkpt lat="45.27683" lon="5.84013">
        <ele>746.07</ele>
        <time>2020-03-15T10:32:11.000Z</time>
      </trkpt>
      <trkpt lat="45.27697" lon="5.84035">
        <ele>749.75</ele>
        <time>2020-03-15T10:32:16.000Z</time>
      </trkpt>
      <trkpt lat="45.27707" lon="5.84058">
        <ele>754.13</ele>
        <time>2020-03-15T10:32:21.000Z</time>
      </trkpt>
      <trkpt lat="45.27717" lon="5.8408">
        <ele>754.78</ele>
        <time>2020-03-15T10:32:26.000Z</time>
      </trkpt>
      <trkpt lat="45.27724" lon="5.84099">
        <ele>756.43</ele>
        <time>2020-03-15T10:32:31.000Z</time>
      </trkpt>
      <trkpt lat="45.27735" lon="5.84118">
        <ele>759.24</ele>
        <time>2020-03-15T10:32:36.000Z</time>
      </trkpt>
      <trkpt lat="45.27744" lon="5.84136">
        <ele>760.91</ele>
        <time>2020-03-15T10:32:41.000Z</time>
      </trkpt>
      <trkpt lat="45.2776" lon="5.84151">
        <ele>764.13</ele>
        <time>2020-03-15T10:32:46.000Z</time>
      </trkpt>
      <trkpt lat="45.27776" lon="5.8416">
        <ele>770.61</ele>
        <time>2020-03-15T10:32:51.000Z</time>
      </trkpt>
      <trkpt lat="45.27791" lon="5.84167">
        <ele>774.11</ele>
        <time>2020-03-15T10:32:56.000Z</time>
      </trkpt>
      <trkpt lat="45.27801" lon="5.84183">
        <ele>774.38</ele>
        <time>2020-03-15T10:33:01.000Z</time>
      </trkpt>
      <trkpt lat="45.2781" lon="5.84205">
        <ele>776.61</ele>
        <time>2020-03-15T10:33:06.000Z</time>
      </trkpt>
      <trkpt lat="45.27819" lon="5.84228">
        <ele>774.57</ele>
        <time>2020-03-15T10:33:11.000Z</time>
      </trkpt>
      <trkpt lat="45.27826" lon="5.84247">
        <ele>779.11</ele>
        <time>2020-03-15T10:33:16.000Z</time>
      </trkpt>
      <trkpt lat="45.27832" lon="5.84267">
        <ele>779.61</ele>
        <time>2020-03-15T10:33:21.000Z</time>
      </trkpt>
      <trkpt lat="45.27841" lon="5.84282">
        <ele>782.49</ele>
        <time>2020-03-15T10:33:26.000Z</time>
      </trkpt>
      <trkpt lat="45.27851" lon="5.84301">
        <ele>786.14</ele>
        <time>2020-03-15T10:33:31.000Z</time>
      </trkpt>
      <trkpt lat="45.27859" lon="5.84322">
        <ele>787.88</ele>
        <time>2020-03-15T10:33:36.000Z</time>
      </trkpt>
      <trkpt lat="45.2786" lon="5.84345">
        <ele>792.13</ele>
        <time>2020-03-15T10:33:41.000Z</time>
      </trkpt>
      <trkpt lat="45.27866" lon="5.84362">
        <ele>794.85</ele>
        <time>2020-03-15T10:33:46.000Z</time>
      </trkpt>
      <trkpt lat="45.27874" lon="5.84375">
        <ele>792.75</ele>
        <time>2020-03-15T10:33:51.000Z</time>
      </trkpt>
      <trkpt lat="45.27883" lon="5.84385">
        <ele>789.98</ele>
        <time>2020-03-15T10:33:56.000Z</time>
      </trkpt>
      <trkpt lat="45.27896" lon="5.84397">
        <ele>791.49</ele>
        <time>2020-03-15T10:34:01.000Z</time>
      </trkpt>
      <trkpt lat="45.27908" lon="5.84416">
        <ele>794.1</ele>
        <time>2020-03-15T10:34:06.000Z</time>
      </trkpt>
      <trkpt lat="45.27914" lon="5.84438">
        <ele>796.36</ele>
        <time>2020-03-15T10:34:11.000Z</time>
      </trkpt>
      <trkpt lat="45.27912" lon="5.8446">
        <ele>796.41</ele>
        <time>2020-03-15T10:34:16.000Z</time>
      </trkpt>
      <trkpt lat="45.27908" lon="5.84484">
        <ele>797.17</ele>
        <time>2020-03-15T10:34:21.000Z</time>
      </trkpt>
      <trkpt lat="45.27905" lon="5.84508">
        <ele>797.22</ele>
        <time>2020-03-15T10:34:26.000Z</time>
      </trkpt>
      <trkpt lat="45.27906" lon="5.84532">
        <ele>797.97</ele>
        <time>2020-03-15T10:34:31.000Z</time>
      </trkpt>
      <trkpt lat="45.27906" lon="5.84554">
        <ele>801.05</ele>
        <time>2020-03-15T10:34:36.000Z</time>
      </trkpt>
      <trkpt lat="45.27904" lon="5.84576">
        <ele>803.18</ele>
        <time>2020-03-15T10:34:41.000Z</time>
      </trkpt>
      <trkpt lat="45.27906" lon="5.84598">
        <ele>805.7</ele>
        <time>2020-03-15T10:34:46.000Z</time>
      </trkpt>
      <trkpt lat="45.27918" lon="5.84613">
        <ele>804.26</ele>
        <time>2020-03-15T10:34:51.000Z</time>
      </trkpt>
      <trkpt lat="45.27929" lon="5.84628">
        <ele>804.65</ele>
        <time>2020-03-15T10:34:56.000Z</time>
      </trkpt>
      <trkpt lat="45.27943" lon="5.84634">
        <ele>803.81</ele>
        <time>2020-03-15T10:35:01.000Z</time>
      </trkpt>
      <trkpt lat="45.2795" lon="5.84653">
        <ele>803.49</ele>
        <time>2020-03-15T10:35:06.000Z</time>
      </trkpt>
      <trkpt lat="45.27959" lon="5.84674">
        <ele>804.57</ele>
        <time>2020-03-15T10:35:11.000Z</time>
      </trkpt>
      <trkpt lat="45.2797" lon="5.84684">
        <ele>806.44</ele>
        <time>2020-03-15T10:35:16.000Z</time>
      </trkpt>
      <trkpt lat="45.27985" lon="5.84692">
        <ele>808.67</ele>
        <time>2020-03-15T10:35:21.000Z</time>
      </trkpt>
      <trkpt lat="45.27997" lon="5.84699">
        <ele>810.85</ele>
        <time>2020-03-15T10:35:26.000Z</time>
      </trkpt>
      <trkpt lat="45.28009" lon="5.84708">
        <ele>811.14</ele>
        <time>2020-03-15T10:35:31.000Z</time>
      </trkpt>
      <trkpt lat="45.28026" lon="5.84713">
        <ele>816.71</ele>
        <time>2020-03-15T10:35:36.000Z</time>
      </trkpt>
      <trkpt lat="45.2804" lon="5.84709">
        <ele>819.61</ele>
        <time>2020-03-15T10:35:41.000Z</time>
      </trkpt>
      <trkpt lat="45.28469" lon="5.84798">
        <ele>845.99</ele>
        <time>2020-03-15T10:38:03.000Z</time>
      </trkpt>
      <trkpt lat="45.28482" lon="5.84806">
        <ele>863.56</ele>
        <time>2020-03-15T10:38:08.000Z</time>
      </trkpt>
      <trkpt lat="45.28497" lon="5.8483">
        <ele>881.5</ele>
        <time>2020-03-15T10:38:13.000Z</time>
      </trkpt>
      <trkpt lat="45.28509" lon="5.84859">
        <ele>887.25</ele>
        <time>2020-03-15T10:38:18.000Z</time>
      </trkpt>
      <trkpt lat="45.28524" lon="5.84877">
        <ele>888.62</ele>
        <time>2020-03-15T10:38:23.000Z</time>
      </trkpt>
      <trkpt lat="45.28538" lon="5.84889">
        <ele>889.28</ele>
        <time>2020-03-15T10:38:28.000Z</time>
      </trkpt>
      <trkpt lat="45.28552" lon="5.84892">
        <ele>888.87</ele>
        <time>2020-03-15T10:38:33.000Z</time>
      </trkpt>
      <trkpt lat="45.28568" lon="5.84892">
        <ele>890.06</ele>
        <time>2020-03-15T10:38:38.000Z</time>
      </trkpt>
      <trkpt lat="45.2858" lon="5.84897">
        <ele>890.21</ele>
        <time>2020-03-15T10:38:43.000Z</time>
      </trkpt>
      <trkpt lat="45.28595" lon="5.84901">
        <ele>889.16</ele>
        <time>2020-03-15T10:38:48.000Z</time>
      </trkpt>
      <trkpt lat="45.2861" lon="5.84907">
        <ele>886.65</ele>
        <time>2020-03-15T10:38:53.000Z</time>
      </trkpt>
      <trkpt lat="45.28633" lon="5.84912">
        <ele>891.51</ele>
        <time>2020-03-15T10:38:58.000Z</time>
      </trkpt>
      <trkpt lat="45.28649" lon="5.84929">
        <ele>893.38</ele>
        <time>2020-03-15T10:39:03.000Z</time>
      </trkpt>
      <trkpt lat="45.28662" lon="5.84947">
        <ele>895.29</ele>
        <time>2020-03-15T10:39:08.000Z</time>
      </trkpt>
      <trkpt lat="45.28674" lon="5.84966">
        <ele>899.02</ele>
        <time>2020-03-15T10:39:13.000Z</time>
      </trkpt>
      <trkpt lat="45.28684" lon="5.84988">
        <ele>900.37</ele>
        <time>2020-03-15T10:39:18.000Z</time>
      </trkpt>
      <trkpt lat="45.28697" lon="5.85005">
        <ele>904.69</ele>
        <time>2020-03-15T10:39:23.000Z</time>
      </trkpt>
      <trkpt lat="45.28709" lon="5.85016">
        <ele>907.72</ele>
        <time>2020-03-15T10:39:28.000Z</time>
      </trkpt>
      <trkpt lat="45.28723" lon="5.85024">
        <ele>906.92</ele>
        <time>2020-03-15T10:39:33.000Z</time>
      </trkpt>
      <trkpt lat="45.28751" lon="5.85042">
        <ele>911.69</ele>
        <time>2020-03-15T10:39:42.000Z</time>
      </trkpt>
      <trkpt lat="45.28768" lon="5.85054">
        <ele>912.12</ele>
        <time>2020-03-15T10:39:47.000Z</time>
      </trkpt>
      <trkpt lat="45.28781" lon="5.85067">
        <ele>909.11</ele>
        <time>2020-03-15T10:39:52.000Z</time>
      </trkpt>
      <trkpt lat="45.2881" lon="5.85083">
        <ele>910.97</ele>
        <time>2020-03-15T10:40:02.000Z</time>
      </trkpt>
      <trkpt lat="45.28825" lon="5.8508">
        <ele>908.8</ele>
        <time>2020-03-15T10:40:07.000Z</time>
      </trkpt>
      <trkpt lat="45.2884" lon="5.85067">
        <ele>910.61</ele>
        <time>2020-03-15T10:40:12.000Z</time>
      </trkpt>
      <trkpt lat="45.28849" lon="5.85052">
        <ele>923.14</ele>
        <time>2020-03-15T10:40:17.000Z</time>
      </trkpt>
      <trkpt lat="45.28853" lon="5.85027">
        <ele>925.04</ele>
        <time>2020-03-15T10:40:22.000Z</time>
      </trkpt>
      <trkpt lat="45.28852" lon="5.85">
        <ele>928.2</ele>
        <time>2020-03-15T10:40:27.000Z</time>
      </trkpt>
      <trkpt lat="45.28862" lon="5.84972">
        <ele>927.69</ele>
        <time>2020-03-15T10:40:32.000Z</time>
      </trkpt>
      <trkpt lat="45.28877" lon="5.8495">
        <ele>931.58</ele>
        <time>2020-03-15T10:40:37.000Z</time>
      </trkpt>
      <trkpt lat="45.28894" lon="5.84936">
        <ele>932.61</ele>
        <time>2020-03-15T10:40:42.000Z</time>
      </trkpt>
      <trkpt lat="45.28913" lon="5.84922">
        <ele>932.8</ele>
        <time>2020-03-15T10:40:47.000Z</time>
      </trkpt>
      <trkpt lat="45.28931" lon="5.84908">
        <ele>932.82</ele>
        <time>2020-03-15T10:40:52.000Z</time>
      </trkpt>
      <trkpt lat="45.28951" lon="5.84904">
        <ele>931.62</ele>
        <time>2020-03-15T10:40:57.000Z</time>
      </trkpt>
      <trkpt lat="45.28962" lon="5.84932">
        <ele>932.19</ele>
        <time>2020-03-15T10:41:02.000Z</time>
      </trkpt>
      <trkpt lat="45.28958" lon="5.84958">
        <ele>932.52</ele>
        <time>2020-03-15T10:41:07.000Z</time>
      </trkpt>
      <trkpt lat="45.28955" lon="5.84982">
        <ele>931.58</ele>
        <time>2020-03-15T10:41:12.000Z</time>
      </trkpt>
      <trkpt lat="45.28954" lon="5.85006">
        <ele>932.22</ele>
        <time>2020-03-15T10:41:17.000Z</time>
      </trkpt>
      <trkpt lat="45.28958" lon="5.85034">
        <ele>935.09</ele>
        <time>2020-03-15T10:41:22.000Z</time>
      </trkpt>
      <trkpt lat="45.28971" lon="5.85057">
        <ele>936.79</ele>
        <time>2020-03-15T10:41:27.000Z</time>
      </trkpt>
      <trkpt lat="45.28986" lon="5.85077">
        <ele>939.13</ele>
        <time>2020-03-15T10:41:32.000Z</time>
      </trkpt>
      <trkpt lat="45.29001" lon="5.85102">
        <ele>940.79</ele>
        <time>2020-03-15T10:41:37.000Z</time>
      </trkpt>
      <trkpt lat="45.29015" lon="5.85126">
        <ele>944.74</ele>
        <time>2020-03-15T10:41:42.000Z</time>
      </trkpt>
      <trkpt lat="45.29034" lon="5.85142">
        <ele>945.15</ele>
        <time>2020-03-15T10:41:47.000Z</time>
      </trkpt>
      <trkpt lat="45.29057" lon="5.85141">
        <ele>946.73</ele>
        <time>2020-03-15T10:41:52.000Z</time>
      </trkpt>
      <trkpt lat="45.29076" lon="5.8514">
        <ele>947.32</ele>
        <time>2020-03-15T10:41:57.000Z</time>
      </trkpt>
      <trkpt lat="45.29095" lon="5.85149">
        <ele>947.18</ele>
        <time>2020-03-15T10:42:02.000Z</time>
      </trkpt>
      <trkpt lat="45.29114" lon="5.85158">
        <ele>947.99</ele>
        <time>2020-03-15T10:42:07.000Z</time>
      </trkpt>
      <trkpt lat="45.29137" lon="5.85168">
        <ele>949.65</ele>
        <time>2020-03-15T10:42:12.000Z</time>
      </trkpt>
      <trkpt lat="45.29159" lon="5.85168">
        <ele>948.08</ele>
        <time>2020-03-15T10:42:17.000Z</time>
      </trkpt>
      <trkpt lat="45.29184" lon="5.85176">
        <ele>946.07</ele>
        <time>2020-03-15T10:42:22.000Z</time>
      </trkpt>
      <trkpt lat="45.29208" lon="5.85188">
        <ele>946.98</ele>
        <time>2020-03-15T10:42:27.000Z</time>
      </trkpt>
      <trkpt lat="45.29229" lon="5.85201">
        <ele>947.3</ele>
        <time>2020-03-15T10:42:32.000Z</time>
      </trkpt>
      <trkpt lat="45.29237" lon="5.85226">
        <ele>946.24</ele>
        <time>2020-03-15T10:42:37.000Z</time>
      </trkpt>
      <trkpt lat="45.2923" lon="5.85252">
        <ele>946.21</ele>
        <time>2020-03-15T10:42:42.000Z</time>
      </trkpt>
      <trkpt lat="45.29224" lon="5.85287">
        <ele>944.78</ele>
        <time>2020-03-15T10:42:47.000Z</time>
      </trkpt>
      <trkpt lat="45.29203" lon="5.85303">
        <ele>944.46</ele>
        <time>2020-03-15T10:42:52.000Z</time>
      </trkpt>
      <trkpt lat="45.29183" lon="5.85311">
        <ele>948.17</ele>
        <time>2020-03-15T10:42:57.000Z</time>
      </trkpt>
      <trkpt lat="45.29161" lon="5.85306">
        <ele>947.57</ele>
        <time>2020-03-15T10:43:02.000Z</time>
      </trkpt>
      <trkpt lat="45.29141" lon="5.85318">
        <ele>950.11</ele>
        <time>2020-03-15T10:43:07.000Z</time>
      </trkpt>
      <trkpt lat="45.29117" lon="5.8532">
        <ele>953.15</ele>
        <time>2020-03-15T10:43:12.000Z</time>
      </trkpt>
      <trkpt lat="45.29091" lon="5.85323">
        <ele>951.77</ele>
        <time>2020-03-15T10:43:17.000Z</time>
      </trkpt>
      <trkpt lat="45.29073" lon="5.85348">
        <ele>954.53</ele>
        <time>2020-03-15T10:43:22.000Z</time>
      </trkpt>
      <trkpt lat="45.29069" lon="5.85376">
        <ele>950.71</ele>
        <time>2020-03-15T10:43:27.000Z</time>
      </trkpt>
      <trkpt lat="45.29065" lon="5.85409">
        <ele>951.23</ele>
        <time>2020-03-15T10:43:32.000Z</time>
      </trkpt>
      <trkpt lat="45.29061" lon="5.85438">
        <ele>951.57</ele>
        <time>2020-03-15T10:43:37.000Z</time>
      </trkpt>
      <trkpt lat="45.29058" lon="5.85469">
        <ele>953.05</ele>
        <time>2020-03-15T10:43:42.000Z</time>
      </trkpt>
      <trkpt lat="45.29055" lon="5.85498">
        <ele>956.02</ele>
        <time>2020-03-15T10:43:47.000Z</time>
      </trkpt>
      <trkpt lat="45.29051" lon="5.85529">
        <ele>956.74</ele>
        <time>2020-03-15T10:43:52.000Z</time>
      </trkpt>
      <trkpt lat="45.29047" lon="5.8556">
        <ele>960.64</ele>
        <time>2020-03-15T10:43:57.000Z</time>
      </trkpt>
      <trkpt lat="45.29056" lon="5.8559">
        <ele>963.98</ele>
        <time>2020-03-15T10:44:02.000Z</time>
      </trkpt>
      <trkpt lat="45.29065" lon="5.85618">
        <ele>967.49</ele>
        <time>2020-03-15T10:44:07.000Z</time>
      </trkpt>
      <trkpt lat="45.29073" lon="5.85645">
        <ele>965.53</ele>
        <time>2020-03-15T10:44:12.000Z</time>
      </trkpt>
      <trkpt lat="45.29075" lon="5.85674">
        <ele>967.33</ele>
        <time>2020-03-15T10:44:17.000Z</time>
      </trkpt>
      <trkpt lat="45.29072" lon="5.85706">
        <ele>970.48</ele>
        <time>2020-03-15T10:44:22.000Z</time>
      </trkpt>
      <trkpt lat="45.29072" lon="5.85735">
        <ele>972.52</ele>
        <time>2020-03-15T10:44:27.000Z</time>
      </trkpt>
      <trkpt lat="45.2907" lon="5.85762">
        <ele>974.18</ele>
        <time>2020-03-15T10:44:32.000Z</time>
      </trkpt>
      <trkpt lat="45.29056" lon="5.85781">
        <ele>975.71</ele>
        <time>2020-03-15T10:44:37.000Z</time>
      </trkpt>
      <trkpt lat="45.29044" lon="5.85803">
        <ele>977.54</ele>
        <time>2020-03-15T10:44:42.000Z</time>
      </trkpt>
      <trkpt lat="45.29035" lon="5.85834">
        <ele>980.69</ele>
        <time>2020-03-15T10:44:47.000Z</time>
      </trkpt>
      <trkpt lat="45.29044" lon="5.85859">
        <ele>982.03</ele>
        <time>2020-03-15T10:44:52.000Z</time>
      </trkpt>
      <trkpt lat="45.29064" lon="5.85869">
        <ele>982.91</ele>
        <time>2020-03-15T10:44:57.000Z</time>
      </trkpt>
      <trkpt lat="45.29084" lon="5.85866">
        <ele>985.52</ele>
        <time>2020-03-15T10:45:02.000Z</time>
      </trkpt>
      <trkpt lat="45.29103" lon="5.85869">
        <ele>989.79</ele>
        <time>2020-03-15T10:45:07.000Z</time>
      </trkpt>
      <trkpt lat="45.29123" lon="5.85874">
        <ele>990.83</ele>
        <time>2020-03-15T10:45:12.000Z</time>
      </trkpt>
      <trkpt lat="45.2914" lon="5.8588">
        <ele>993.05</ele>
        <time>2020-03-15T10:45:17.000Z</time>
      </trkpt>
      <trkpt lat="45.29141" lon="5.85894">
        <ele>992.3</ele>
        <time>2020-03-15T10:45:22.000Z</time>
      </trkpt>
      <trkpt lat="45.29138" lon="5.85918">
        <ele>989.85</ele>
        <time>2020-03-15T10:45:27.000Z</time>
      </trkpt>
      <trkpt lat="45.2914" lon="5.85952">
        <ele>990.78</ele>
        <time>2020-03-15T10:45:32.000Z</time>
      </trkpt>
      <trkpt lat="45.29146" lon="5.8598">
        <ele>991.26</ele>
        <time>2020-03-15T10:45:37.000Z</time>
      </trkpt>
      <trkpt lat="45.29155" lon="5.86004">
        <ele>992.96</ele>
        <time>2020-03-15T10:45:42.000Z</time>
      </trkpt>
      <trkpt lat="45.2917" lon="5.8603">
        <ele>996.24</ele>
        <time>2020-03-15T10:45:47.000Z</time>
      </trkpt>
      <trkpt lat="45.29182" lon="5.86053">
        <ele>997.06</ele>
        <time>2020-03-15T10:45:52.000Z</time>
      </trkpt>
      <trkpt lat="45.29198" lon="5.86078">
        <ele>998.26</ele>
        <time>2020-03-15T10:45:57.000Z</time>
      </trkpt>
      <trkpt lat="45.29212" lon="5.86108">
        <ele>999.62</ele>
        <time>2020-03-15T10:46:02.000Z</time>
      </trkpt>
      <trkpt lat="45.2922" lon="5.8614">
        <ele>1002.49</ele>
        <time>2020-03-15T10:46:07.000Z</time>
      </trkpt>
      <trkpt lat="45.29229" lon="5.86171">
        <ele>1003.85</ele>
        <time>2020-03-15T10:46:12.000Z</time>
      </trkpt>
      <trkpt lat="45.29242" lon="5.86194">
        <ele>1002.64</ele>
        <time>2020-03-15T10:46:17.000Z</time>
      </trkpt>
      <trkpt lat="45.2926" lon="5.86202">
        <ele>1001.98</ele>
        <time>2020-03-15T10:46:22.000Z</time>
      </trkpt>
      <trkpt lat="45.2928" lon="5.86218">
        <ele>1001.22</ele>
        <time>2020-03-15T10:46:27.000Z</time>
      </trkpt>
      <trkpt lat="45.29301" lon="5.86235">
        <ele>1006</ele>
        <time>2020-03-15T10:46:32.000Z</time>
      </trkpt>
      <trkpt lat="45.2932" lon="5.86256">
        <ele>1006.75</ele>
        <time>2020-03-15T10:46:37.000Z</time>
      </trkpt>
      <trkpt lat="45.29341" lon="5.86278">
        <ele>1006.86</ele>
        <time>2020-03-15T10:46:42.000Z</time>
      </trkpt>
      <trkpt lat="45.29355" lon="5.86305">
        <ele>1008.07</ele>
        <time>2020-03-15T10:46:47.000Z</time>
      </trkpt>
      <trkpt lat="45.29359" lon="5.8634">
        <ele>1009.72</ele>
        <time>2020-03-15T10:46:52.000Z</time>
      </trkpt>
      <trkpt lat="45.29373" lon="5.86373">
        <ele>1010.05</ele>
        <time>2020-03-15T10:46:57.000Z</time>
      </trkpt>
      <trkpt lat="45.29389" lon="5.86396">
        <ele>1006.87</ele>
        <time>2020-03-15T10:47:02.000Z</time>
      </trkpt>
      <trkpt lat="45.29406" lon="5.86413">
        <ele>1004.69</ele>
        <time>2020-03-15T10:47:07.000Z</time>
      </trkpt>
      <trkpt lat="45.29423" lon="5.86425">
        <ele>1006.9</ele>
        <time>2020-03-15T10:47:12.000Z</time>
      </trkpt>
      <trkpt lat="45.29444" lon="5.86436">
        <ele>1006.1</ele>
        <time>2020-03-15T10:47:17.000Z</time>
      </trkpt>
      <trkpt lat="45.29468" lon="5.86444">
        <ele>1006.09</ele>
        <time>2020-03-15T10:47:22.000Z</time>
      </trkpt>
      <trkpt lat="45.29489" lon="5.86448">
        <ele>1004.91</ele>
        <time>2020-03-15T10:47:27.000Z</time>
      </trkpt>
      <trkpt lat="45.29509" lon="5.86451">
        <ele>1004.8</ele>
        <time>2020-03-15T10:47:32.000Z</time>
      </trkpt>
      <trkpt lat="45.29528" lon="5.86455">
        <ele>1007.81</ele>
        <time>2020-03-15T10:47:37.000Z</time>
      </trkpt>
      <trkpt lat="45.29552" lon="5.86452">
        <ele>1008.58</ele>
        <time>2020-03-15T10:47:42.000Z</time>
      </trkpt>
      <trkpt lat="45.29586" lon="5.86443">
        <ele>1008.82</ele>
        <time>2020-03-15T10:47:47.000Z</time>
      </trkpt>
      <trkpt lat="45.29619" lon="5.86465">
        <ele>1007.95</ele>
        <time>2020-03-15T10:47:52.000Z</time>
      </trkpt>
      <trkpt lat="45.29613" lon="5.86522">
        <ele>1008.21</ele>
        <time>2020-03-15T10:47:57.000Z</time>
      </trkpt>
      <trkpt lat="45.29613" lon="5.86569">
        <ele>1005.97</ele>
        <time>2020-03-15T10:48:02.000Z</time>
      </trkpt>
      <trkpt lat="45.29648" lon="5.86596">
        <ele>1001.21</ele>
        <time>2020-03-15T10:48:07.000Z</time>
      </trkpt>
      <trkpt lat="45.29683" lon="5.86623">
        <ele>999.66</ele>
        <time>2020-03-15T10:48:12.000Z</time>
      </trkpt>
      <trkpt lat="45.29721" lon="5.86637">
        <ele>1000.2</ele>
        <time>2020-03-15T10:48:17.000Z</time>
      </trkpt>
      <trkpt lat="45.29758" lon="5.86642">
        <ele>1000.33</ele>
        <time>2020-03-15T10:48:22.000Z</time>
      </trkpt>
      <trkpt lat="45.29785" lon="5.86673">
        <ele>1000.8</ele>
        <time>2020-03-15T10:48:27.000Z</time>
      </trkpt>
      <trkpt lat="45.29815" lon="5.86667">
        <ele>995.68</ele>
        <time>2020-03-15T10:48:32.000Z</time>
      </trkpt>
      <trkpt lat="45.2985" lon="5.86676">
        <ele>995.83</ele>
        <time>2020-03-15T10:48:37.000Z</time>
      </trkpt>
      <trkpt lat="45.29882" lon="5.86686">
        <ele>993.63</ele>
        <time>2020-03-15T10:48:42.000Z</time>
      </trkpt>
      <trkpt lat="45.29912" lon="5.86706">
        <ele>994.43</ele>
        <time>2020-03-15T10:48:47.000Z</time>
      </trkpt>
      <trkpt lat="45.29933" lon="5.86721">
        <ele>993.43</ele>
        <time>2020-03-15T10:48:52.000Z</time>
      </trkpt>
      <trkpt lat="45.29955" lon="5.86721">
        <ele>994.54</ele>
        <time>2020-03-15T10:48:57.000Z</time>
      </trkpt>
      <trkpt lat="45.29973" lon="5.86724">
        <ele>988.74</ele>
        <time>2020-03-15T10:49:02.000Z</time>
      </trkpt>
      <trkpt lat="45.30009" lon="5.86753">
        <ele>989.42</ele>
        <time>2020-03-15T10:49:07.000Z</time>
      </trkpt>
      <trkpt lat="45.29999" lon="5.86772">
        <ele>989.91</ele>
        <time>2020-03-15T10:49:12.000Z</time>
      </trkpt>
      <trkpt lat="45.29966" lon="5.86841">
        <ele>993.3</ele>
        <time>2020-03-15T10:49:28.000Z</time>
      </trkpt>
      <trkpt lat="45.29959" lon="5.86869">
        <ele>992.04</ele>
        <time>2020-03-15T10:49:33.000Z</time>
      </trkpt>
      <trkpt lat="45.29968" lon="5.86893">
        <ele>990.66</ele>
        <time>2020-03-15T10:49:38.000Z</time>
      </trkpt>
      <trkpt lat="45.29988" lon="5.86898">
        <ele>992.4</ele>
        <time>2020-03-15T10:49:43.000Z</time>
      </trkpt>
      <trkpt lat="45.30006" lon="5.86892">
        <ele>994.68</ele>
        <time>2020-03-15T10:49:48.000Z</time>
      </trkpt>
      <trkpt lat="45.3003" lon="5.86888">
        <ele>997.01</ele>
        <time>2020-03-15T10:49:53.000Z</time>
      </trkpt>
      <trkpt lat="45.30059" lon="5.86888">
        <ele>996.47</ele>
        <time>2020-03-15T10:49:58.000Z</time>
      </trkpt>
      <trkpt lat="45.30062" lon="5.86916">
        <ele>990.75</ele>
        <time>2020-03-15T10:50:03.000Z</time>
      </trkpt>
      <trkpt lat="45.30056" lon="5.86948">
        <ele>989.33</ele>
        <time>2020-03-15T10:50:08.000Z</time>
      </trkpt>
      <trkpt lat="45.30047" lon="5.86981">
        <ele>988.31</ele>
        <time>2020-03-15T10:50:13.000Z</time>
      </trkpt>
      <trkpt lat="45.30037" lon="5.87013">
        <ele>988.81</ele>
        <time>2020-03-15T10:50:18.000Z</time>
      </trkpt>
      <trkpt lat="45.30053" lon="5.87052">
        <ele>987.34</ele>
        <time>2020-03-15T10:50:23.000Z</time>
      </trkpt>
      <trkpt lat="45.30064" lon="5.87083">
        <ele>991.94</ele>
        <time>2020-03-15T10:50:28.000Z</time>
      </trkpt>
      <trkpt lat="45.30068" lon="5.87124">
        <ele>1004.63</ele>
        <time>2020-03-15T10:50:33.000Z</time>
      </trkpt>
      <trkpt lat="45.3008" lon="5.87158">
        <ele>1014.13</ele>
        <time>2020-03-15T10:50:38.000Z</time>
      </trkpt>
      <trkpt lat="45.30092" lon="5.87187">
        <ele>1016.65</ele>
        <time>2020-03-15T10:50:43.000Z</time>
      </trkpt>
      <trkpt lat="45.30098" lon="5.87229">
        <ele>1016.9</ele>
        <time>2020-03-15T10:50:48.000Z</time>
      </trkpt>
      <trkpt lat="45.30105" lon="5.87266">
        <ele>1018.67</ele>
        <time>2020-03-15T10:50:53.000Z</time>
      </trkpt>
      <trkpt lat="45.30112" lon="5.87304">
        <ele>1020.17</ele>
        <time>2020-03-15T10:50:58.000Z</time>
      </trkpt>
      <trkpt lat="45.30125" lon="5.87334">
        <ele>1022.98</ele>
        <time>2020-03-15T10:51:03.000Z</time>
      </trkpt>
      <trkpt lat="45.30136" lon="5.87351">
        <ele>1025.79</ele>
        <time>2020-03-15T10:51:08.000Z</time>
      </trkpt>
      <trkpt lat="45.30144" lon="5.87373">
        <ele>1028.68</ele>
        <time>2020-03-15T10:51:13.000Z</time>
      </trkpt>
      <trkpt lat="45.30151" lon="5.87398">
        <ele>1032.16</ele>
        <time>2020-03-15T10:51:18.000Z</time>
      </trkpt>
      <trkpt lat="45.30161" lon="5.8742">
        <ele>1034.79</ele>
        <time>2020-03-15T10:51:23.000Z</time>
      </trkpt>
      <trkpt lat="45.30171" lon="5.87446">
        <ele>1035.02</ele>
        <time>2020-03-15T10:51:28.000Z</time>
      </trkpt>
      <trkpt lat="45.30184" lon="5.87468">
        <ele>1032.09</ele>
        <time>2020-03-15T10:51:33.000Z</time>
      </trkpt>
      <trkpt lat="45.30189" lon="5.87498">
        <ele>1032.09</ele>
        <time>2020-03-15T10:51:38.000Z</time>
      </trkpt>
      <trkpt lat="45.30198" lon="5.87528">
        <ele>1028.74</ele>
        <time>2020-03-15T10:51:43.000Z</time>
      </trkpt>
      <trkpt lat="45.30208" lon="5.87563">
        <ele>1027.74</ele>
        <time>2020-03-15T10:51:48.000Z</time>
      </trkpt>
      <trkpt lat="45.30217" lon="5.87602">
        <ele>1027.69</ele>
        <time>2020-03-15T10:51:53.000Z</time>
      </trkpt>
      <trkpt lat="45.30227" lon="5.87635">
        <ele>1026.38</ele>
        <time>2020-03-15T10:51:58.000Z</time>
      </trkpt>
      <trkpt lat="45.30241" lon="5.8767">
        <ele>1025.45</ele>
        <time>2020-03-15T10:52:03.000Z</time>
      </trkpt>
      <trkpt lat="45.30252" lon="5.87696">
        <ele>1024.91</ele>
        <time>2020-03-15T10:52:08.000Z</time>
      </trkpt>
      <trkpt lat="45.30259" lon="5.8771">
        <ele>1022.89</ele>
        <time>2020-03-15T10:52:13.000Z</time>
      </trkpt>
      <trkpt lat="45.30271" lon="5.87733">
        <ele>1019.74</ele>
        <time>2020-03-15T10:52:18.000Z</time>
      </trkpt>
      <trkpt lat="45.30283" lon="5.87762">
        <ele>1019.35</ele>
        <time>2020-03-15T10:52:23.000Z</time>
      </trkpt>
      <trkpt lat="45.30285" lon="5.87784">
        <ele>1016.07</ele>
        <time>2020-03-15T10:52:28.000Z</time>
      </trkpt>
      <trkpt lat="45.30292" lon="5.87794">
        <ele>1016.18</ele>
        <time>2020-03-15T10:54:48.000Z</time>
      </trkpt>
      <trkpt lat="45.30302" lon="5.87816">
        <ele>1016.43</ele>
        <time>2020-03-15T10:54:53.000Z</time>
      </trkpt>
      <trkpt lat="45.30316" lon="5.87851">
        <ele>1020.8</ele>
        <time>2020-03-15T10:54:58.000Z</time>
      </trkpt>
      <trkpt lat="45.30339" lon="5.87891">
        <ele>1022.67</ele>
        <time>2020-03-15T10:55:03.000Z</time>
      </trkpt>
      <trkpt lat="45.30373" lon="5.8794">
        <ele>1020.98</ele>
        <time>2020-03-15T10:55:08.000Z</time>
      </trkpt>
      <trkpt lat="45.30419" lon="5.87979">
        <ele>1016.59</ele>
        <time>2020-03-15T10:55:13.000Z</time>
      </trkpt>
      <trkpt lat="45.30467" lon="5.88011">
        <ele>1015.7</ele>
        <time>2020-03-15T10:55:18.000Z</time>
      </trkpt>
      <trkpt lat="45.30522" lon="5.88005">
        <ele>1013.93</ele>
        <time>2020-03-15T10:55:23.000Z</time>
      </trkpt>
      <trkpt lat="45.30585" lon="5.87984">
        <ele>1010.98</ele>
        <time>2020-03-15T10:55:28.000Z</time>
      </trkpt>
      <trkpt lat="45.30654" lon="5.88004">
        <ele>1010.78</ele>
        <time>2020-03-15T10:55:33.000Z</time>
      </trkpt>
      <trkpt lat="45.30692" lon="5.88068">
        <ele>998.75</ele>
        <time>2020-03-15T10:55:38.000Z</time>
      </trkpt>
      <trkpt lat="45.30736" lon="5.8813">
        <ele>997.37</ele>
        <time>2020-03-15T10:55:43.000Z</time>
      </trkpt>
      <trkpt lat="45.30771" lon="5.88198">
        <ele>994.2</ele>
        <time>2020-03-15T10:55:48.000Z</time>
      </trkpt>
      <trkpt lat="45.30789" lon="5.88269">
        <ele>996</ele>
        <time>2020-03-15T10:55:53.000Z</time>
      </trkpt>
      <trkpt lat="45.30805" lon="5.88329">
        <ele>990.65</ele>
        <time>2020-03-15T10:55:58.000Z</time>
      </trkpt>
      <trkpt lat="45.30828" lon="5.88382">
        <ele>984.36</ele>
        <time>2020-03-15T10:56:03.000Z</time>
      </trkpt>
      <trkpt lat="45.3085" lon="5.88441">
        <ele>981.52</ele>
        <time>2020-03-15T10:56:08.000Z</time>
      </trkpt>
      <trkpt lat="45.30878" lon="5.885">
        <ele>978.08</ele>
        <time>2020-03-15T10:56:13.000Z</time>
      </trkpt>
      <trkpt lat="45.30908" lon="5.88566">
        <ele>976.09</ele>
        <time>2020-03-15T10:56:18.000Z</time>
      </trkpt>
      <trkpt lat="45.30936" lon="5.88633">
        <ele>976.34</ele>
        <time>2020-03-15T10:56:23.000Z</time>
      </trkpt>
      <trkpt lat="45.30966" lon="5.88685">
        <ele>977.64</ele>
        <time>2020-03-15T10:56:28.000Z</time>
      </trkpt>
      <trkpt lat="45.30981" lon="5.88739">
        <ele>977.32</ele>
        <time>2020-03-15T10:56:33.000Z</time>
      </trkpt>
      <trkpt lat="45.30991" lon="5.88775">
        <ele>978.91</ele>
        <time>2020-03-15T10:56:38.000Z</time>
      </trkpt>
      <trkpt lat="45.31" lon="5.8879">
        <ele>979.96</ele>
        <time>2020-03-15T10:56:43.000Z</time>
      </trkpt>
      <trkpt lat="45.31009" lon="5.88795">
        <ele>978.08</ele>
        <time>2020-03-15T10:56:51.000Z</time>
      </trkpt>
      <trkpt lat="45.31016" lon="5.88803">
        <ele>983.21</ele>
        <time>2020-03-15T10:57:02.000Z</time>
      </trkpt>
      <trkpt lat="45.31022" lon="5.88814">
        <ele>978.46</ele>
        <time>2020-03-15T10:57:25.000Z</time>
      </trkpt>
      <trkpt lat="45.31034" lon="5.88853">
        <ele>974.39</ele>
        <time>2020-03-15T10:57:30.000Z</time>
      </trkpt>
      <trkpt lat="45.3104" lon="5.88884">
        <ele>972.94</ele>
        <time>2020-03-15T10:57:35.000Z</time>
      </trkpt>
      <trkpt lat="45.31044" lon="5.88914">
        <ele>972.32</ele>
        <time>2020-03-15T10:57:40.000Z</time>
      </trkpt>
      <trkpt lat="45.31051" lon="5.8894">
        <ele>972.48</ele>
        <time>2020-03-15T10:57:45.000Z</time>
      </trkpt>
      <trkpt lat="45.31057" lon="5.88963">
        <ele>972.52</ele>
        <time>2020-03-15T10:57:50.000Z</time>
      </trkpt>
      <trkpt lat="45.31069" lon="5.88977">
        <ele>972.4</ele>
        <time>2020-03-15T10:57:55.000Z</time>
      </trkpt>
      <trkpt lat="45.31076" lon="5.88987">
        <ele>973.55</ele>
        <time>2020-03-15T10:58:00.000Z</time>
      </trkpt>
      <trkpt lat="45.31082" lon="5.89001">
        <ele>975.63</ele>
        <time>2020-03-15T10:58:14.000Z</time>
      </trkpt>
      <trkpt lat="45.31087" lon="5.89021">
        <ele>973.16</ele>
        <time>2020-03-15T10:58:19.000Z</time>
      </trkpt>
      <trkpt lat="45.31086" lon="5.8904">
        <ele>969.64</ele>
        <time>2020-03-15T10:58:24.000Z</time>
      </trkpt>
      <trkpt lat="45.31085" lon="5.89054">
        <ele>969.6</ele>
        <time>2020-03-15T10:58:29.000Z</time>
      </trkpt>
      <trkpt lat="45.3108" lon="5.89067">
        <ele>968</ele>
        <time>2020-03-15T11:04:47.000Z</time>
      </trkpt>
      <trkpt lat="45.31087" lon="5.89057">
        <ele>965.22</ele>
        <time>2020-03-15T11:04:58.000Z</time>
      </trkpt>
      <trkpt lat="45.31091" lon="5.89042">
        <ele>964.14</ele>
        <time>2020-03-15T11:05:03.000Z</time>
      </trkpt>
      <trkpt lat="45.31095" lon="5.89025">
        <ele>965.33</ele>
        <time>2020-03-15T11:05:08.000Z</time>
      </trkpt>
      <trkpt lat="45.31094" lon="5.89008">
        <ele>966.39</ele>
        <time>2020-03-15T11:05:13.000Z</time>
      </trkpt>
      <trkpt lat="45.31089" lon="5.8899">
        <ele>970.25</ele>
        <time>2020-03-15T11:05:18.000Z</time>
      </trkpt>
      <trkpt lat="45.31086" lon="5.88973">
        <ele>969.01</ele>
        <time>2020-03-15T11:05:23.000Z</time>
      </trkpt>
      <trkpt lat="45.31076" lon="5.88962">
        <ele>968.51</ele>
        <time>2020-03-15T11:05:28.000Z</time>
      </trkpt>
      <trkpt lat="45.31068" lon="5.88954">
        <ele>968.25</ele>
        <time>2020-03-15T11:05:54.000Z</time>
      </trkpt>
      <trkpt lat="45.3106" lon="5.88948">
        <ele>969.43</ele>
        <time>2020-03-15T11:13:36.000Z</time>
      </trkpt>
      <trkpt lat="45.31056" lon="5.88928">
        <ele>967.57</ele>
        <time>2020-03-15T11:13:41.000Z</time>
      </trkpt>
      <trkpt lat="45.31052" lon="5.88902">
        <ele>966.85</ele>
        <time>2020-03-15T11:13:46.000Z</time>
      </trkpt>
      <trkpt lat="45.31046" lon="5.88878">
        <ele>965.58</ele>
        <time>2020-03-15T11:13:51.000Z</time>
      </trkpt>
      <trkpt lat="45.31042" lon="5.88854">
        <ele>966.63</ele>
        <time>2020-03-15T11:13:56.000Z</time>
      </trkpt>
      <trkpt lat="45.31037" lon="5.88831">
        <ele>962.02</ele>
        <time>2020-03-15T11:14:01.000Z</time>
      </trkpt>
      <trkpt lat="45.31029" lon="5.88811">
        <ele>963.32</ele>
        <time>2020-03-15T11:14:06.000Z</time>
      </trkpt>
      <trkpt lat="45.31022" lon="5.88797">
        <ele>962.58</ele>
        <time>2020-03-15T11:14:11.000Z</time>
      </trkpt>
      <trkpt lat="45.31012" lon="5.8879">
        <ele>965.16</ele>
        <time>2020-03-15T11:14:17.000Z</time>
      </trkpt>
      <trkpt lat="45.31003" lon="5.88784">
        <ele>968.07</ele>
        <time>2020-03-15T11:14:22.000Z</time>
      </trkpt>
      <trkpt lat="45.30997" lon="5.88774">
        <ele>968.68</ele>
        <time>2020-03-15T11:14:27.000Z</time>
      </trkpt>
      <trkpt lat="45.30988" lon="5.88768">
        <ele>966.33</ele>
        <time>2020-03-15T11:14:38.000Z</time>
      </trkpt>
      <trkpt lat="45.30979" lon="5.88751">
        <ele>965.01</ele>
        <time>2020-03-15T11:14:43.000Z</time>
      </trkpt>
      <trkpt lat="45.30968" lon="5.88724">
        <ele>961.98</ele>
        <time>2020-03-15T11:14:48.000Z</time>
      </trkpt>
      <trkpt lat="45.30971" lon="5.88707">
        <ele>964.97</ele>
        <time>2020-03-15T11:14:53.000Z</time>
      </trkpt>
      <trkpt lat="45.30985" lon="5.88695">
        <ele>960.61</ele>
        <time>2020-03-15T11:14:58.000Z</time>
      </trkpt>
      <trkpt lat="45.31013" lon="5.88704">
        <ele>960.83</ele>
        <time>2020-03-15T11:15:03.000Z</time>
      </trkpt>
      <trkpt lat="45.31039" lon="5.88717">
        <ele>955.93</ele>
        <time>2020-03-15T11:15:08.000Z</time>
      </trkpt>
      <trkpt lat="45.31056" lon="5.88729">
        <ele>958.04</ele>
        <time>2020-03-15T11:15:13.000Z</time>
      </trkpt>
      <trkpt lat="45.31073" lon="5.8874">
        <ele>956.32</ele>
        <time>2020-03-15T11:15:18.000Z</time>
      </trkpt>
      <trkpt lat="45.31081" lon="5.8875">
        <ele>954.87</ele>
        <time>2020-03-15T11:15:23.000Z</time>
      </trkpt>
      <trkpt lat="45.31089" lon="5.88744">
        <ele>962.33</ele>
        <time>2020-03-15T11:16:13.000Z</time>
      </trkpt>
      <trkpt lat="45.31099" lon="5.88743">
        <ele>960.06</ele>
        <time>2020-03-15T11:16:21.000Z</time>
      </trkpt>
      <trkpt lat="45.3111" lon="5.88742">
        <ele>962.25</ele>
        <time>2020-03-15T11:16:33.000Z</time>
      </trkpt>
      <trkpt lat="45.31124" lon="5.88743">
        <ele>961.67</ele>
        <time>2020-03-15T11:16:38.000Z</time>
      </trkpt>
      <trkpt lat="45.31145" lon="5.88744">
        <ele>960.9</ele>
        <time>2020-03-15T11:16:43.000Z</time>
      </trkpt>
      <trkpt lat="45.31169" lon="5.88746">
        <ele>960.62</ele>
        <time>2020-03-15T11:16:48.000Z</time>
      </trkpt>
      <trkpt lat="45.31202" lon="5.88748">
        <ele>959.61</ele>
        <time>2020-03-15T11:16:53.000Z</time>
      </trkpt>
      <trkpt lat="45.31243" lon="5.88745">
        <ele>958.74</ele>
        <time>2020-03-15T11:16:58.000Z</time>
      </trkpt>
      <trkpt lat="45.31285" lon="5.88752">
        <ele>959.1</ele>
        <time>2020-03-15T11:17:03.000Z</time>
      </trkpt>
      <trkpt lat="45.31332" lon="5.88763">
        <ele>954.3</ele>
        <time>2020-03-15T11:17:08.000Z</time>
      </trkpt>
      <trkpt lat="45.31383" lon="5.88772">
        <ele>951.03</ele>
        <time>2020-03-15T11:17:13.000Z</time>
      </trkpt>
      <trkpt lat="45.31427" lon="5.88788">
        <ele>947.96</ele>
        <time>2020-03-15T11:17:18.000Z</time>
      </trkpt>
      <trkpt lat="45.31473" lon="5.888">
        <ele>949.22</ele>
        <time>2020-03-15T11:17:23.000Z</time>
      </trkpt>
      <trkpt lat="45.31515" lon="5.88811">
        <ele>944.71</ele>
        <time>2020-03-15T11:17:28.000Z</time>
      </trkpt>
      <trkpt lat="45.31556" lon="5.88823">
        <ele>944.5</ele>
        <time>2020-03-15T11:17:33.000Z</time>
      </trkpt>
      <trkpt lat="45.31593" lon="5.88816">
        <ele>945.26</ele>
        <time>2020-03-15T11:17:38.000Z</time>
      </trkpt>
      <trkpt lat="45.31624" lon="5.88801">
        <ele>944.34</ele>
        <time>2020-03-15T11:17:43.000Z</time>
      </trkpt>
      <trkpt lat="45.3166" lon="5.88798">
        <ele>945.68</ele>
        <time>2020-03-15T11:17:48.000Z</time>
      </trkpt>
      <trkpt lat="45.31682" lon="5.88816">
        <ele>944.97</ele>
        <time>2020-03-15T11:17:53.000Z</time>
      </trkpt>
      <trkpt lat="45.31705" lon="5.88833">
        <ele>949.35</ele>
        <time>2020-03-15T11:17:58.000Z</time>
      </trkpt>
      <trkpt lat="45.31734" lon="5.88848">
        <ele>950.59</ele>
        <time>2020-03-15T11:18:03.000Z</time>
      </trkpt>
      <trkpt lat="45.31766" lon="5.8885">
        <ele>951.64</ele>
        <time>2020-03-15T11:18:08.000Z</time>
      </trkpt>
      <trkpt lat="45.31798" lon="5.88873">
        <ele>949.28</ele>
        <time>2020-03-15T11:18:13.000Z</time>
      </trkpt>
      <trkpt lat="45.31825" lon="5.88895">
        <ele>946.27</ele>
        <time>2020-03-15T11:18:18.000Z</time>
      </trkpt>
      <trkpt lat="45.31853" lon="5.88908">
        <ele>945.67</ele>
        <time>2020-03-15T11:18:23.000Z</time>
      </trkpt>
      <trkpt lat="45.31881" lon="5.88932">
        <ele>945</ele>
        <time>2020-03-15T11:18:28.000Z</time>
      </trkpt>
      <trkpt lat="45.319" lon="5.88967">
        <ele>942.03</ele>
        <time>2020-03-15T11:18:33.000Z</time>
      </trkpt>
      <trkpt lat="45.31914" lon="5.89005">
        <ele>944.05</ele>
        <time>2020-03-15T11:18:38.000Z</time>
      </trkpt>
      <trkpt lat="45.31915" lon="5.89041">
        <ele>942.09</ele>
        <time>2020-03-15T11:18:43.000Z</time>
      </trkpt>
      <trkpt lat="45.31906" lon="5.89073">
        <ele>945.47</ele>
        <time>2020-03-15T11:18:48.000Z</time>
      </trkpt>
      <trkpt lat="45.31907" lon="5.89104">
        <ele>950.46</ele>
        <time>2020-03-15T11:18:53.000Z</time>
      </trkpt>
      <trkpt lat="45.31915" lon="5.89129">
        <ele>951.76</ele>
        <time>2020-03-15T11:18:58.000Z</time>
      </trkpt>
      <trkpt lat="45.3193" lon="5.89151">
        <ele>951.12</ele>
        <time>2020-03-15T11:19:03.000Z</time>
      </trkpt>
      <trkpt lat="45.31949" lon="5.89158">
        <ele>949.46</ele>
        <time>2020-03-15T11:19:08.000Z</time>
      </trkpt>
      <trkpt lat="45.31967" lon="5.89165">
        <ele>949.18</ele>
        <time>2020-03-15T11:19:13.000Z</time>
      </trkpt>
      <trkpt lat="45.31991" lon="5.8917">
        <ele>948.23</ele>
        <time>2020-03-15T11:19:18.000Z</time>
      </trkpt>
      <trkpt lat="45.32017" lon="5.89178">
        <ele>947.13</ele>
        <time>2020-03-15T11:19:23.000Z</time>
      </trkpt>
      <trkpt lat="45.32045" lon="5.89188">
        <ele>942.61</ele>
        <time>2020-03-15T11:19:28.000Z</time>
      </trkpt>
      <trkpt lat="45.3207" lon="5.89212">
        <ele>940.45</ele>
        <time>2020-03-15T11:19:33.000Z</time>
      </trkpt>
      <trkpt lat="45.32095" lon="5.89245">
        <ele>938.5</ele>
        <time>2020-03-15T11:19:38.000Z</time>
      </trkpt>
      <trkpt lat="45.3212" lon="5.89273">
        <ele>936.28</ele>
        <time>2020-03-15T11:19:43.000Z</time>
      </trkpt>
      <trkpt lat="45.32144" lon="5.89301">
        <ele>932.14</ele>
        <time>2020-03-15T11:19:48.000Z</time>
      </trkpt>
      <trkpt lat="45.32172" lon="5.89337">
        <ele>933.6</ele>
        <time>2020-03-15T11:19:53.000Z</time>
      </trkpt>
      <trkpt lat="45.32204" lon="5.89359">
        <ele>932.09</ele>
        <time>2020-03-15T11:19:58.000Z</time>
      </trkpt>
      <trkpt lat="45.32239" lon="5.89388">
        <ele>931.41</ele>
        <time>2020-03-15T11:20:03.000Z</time>
      </trkpt>
      <trkpt lat="45.32276" lon="5.89423">
        <ele>931.53</ele>
        <time>2020-03-15T11:20:08.000Z</time>
      </trkpt>
      <trkpt lat="45.32309" lon="5.8945">
        <ele>932.57</ele>
        <time>2020-03-15T11:20:13.000Z</time>
      </trkpt>
      <trkpt lat="45.32345" lon="5.89472">
        <ele>931.62</ele>
        <time>2020-03-15T11:20:18.000Z</time>
      </trkpt>
      <trkpt lat="45.32376" lon="5.89505">
        <ele>928.04</ele>
        <time>2020-03-15T11:20:23.000Z</time>
      </trkpt>
      <trkpt lat="45.32412" lon="5.89542">
        <ele>927.51</ele>
        <time>2020-03-15T11:20:28.000Z</time>
      </trkpt>
      <trkpt lat="45.32433" lon="5.8959">
        <ele>926.27</ele>
        <time>2020-03-15T11:20:33.000Z</time>
      </trkpt>
      <trkpt lat="45.32444" lon="5.89642">
        <ele>925.4</ele>
        <time>2020-03-15T11:20:38.000Z</time>
      </trkpt>
      <trkpt lat="45.32461" lon="5.8969">
        <ele>924.83</ele>
        <time>2020-03-15T11:20:43.000Z</time>
      </trkpt>
      <trkpt lat="45.32484" lon="5.89733">
        <ele>924.94</ele>
        <time>2020-03-15T11:20:48.000Z</time>
      </trkpt>
      <trkpt lat="45.32507" lon="5.89772">
        <ele>924.58</ele>
        <time>2020-03-15T11:20:53.000Z</time>
      </trkpt>
      <trkpt lat="45.32537" lon="5.89806">
        <ele>925.29</ele>
        <time>2020-03-15T11:20:58.000Z</time>
      </trkpt>
      <trkpt lat="45.32567" lon="5.89851">
        <ele>920.85</ele>
        <time>2020-03-15T11:21:03.000Z</time>
      </trkpt>
      <trkpt lat="45.32603" lon="5.89896">
        <ele>920.72</ele>
        <time>2020-03-15T11:21:08.000Z</time>
      </trkpt>
      <trkpt lat="45.32637" lon="5.89945">
        <ele>920.36</ele>
        <time>2020-03-15T11:21:13.000Z</time>
      </trkpt>
      <trkpt lat="45.32664" lon="5.89992">
        <ele>917.29</ele>
        <time>2020-03-15T11:21:18.000Z</time>
      </trkpt>
      <trkpt lat="45.32687" lon="5.9003">
        <ele>917.72</ele>
        <time>2020-03-15T11:21:23.000Z</time>
      </trkpt>
      <trkpt lat="45.32704" lon="5.90064">
        <ele>917.49</ele>
        <time>2020-03-15T11:21:28.000Z</time>
      </trkpt>
      <trkpt lat="45.32724" lon="5.90096">
        <ele>920.1</ele>
        <time>2020-03-15T11:21:33.000Z</time>
      </trkpt>
      <trkpt lat="45.32748" lon="5.9013">
        <ele>918.89</ele>
        <time>2020-03-15T11:21:38.000Z</time>
      </trkpt>
      <trkpt lat="45.32767" lon="5.90164">
        <ele>918.33</ele>
        <time>2020-03-15T11:21:43.000Z</time>
      </trkpt>
      <trkpt lat="45.32783" lon="5.90197">
        <ele>918.45</ele>
        <time>2020-03-15T11:21:48.000Z</time>
      </trkpt>
      <trkpt lat="45.32797" lon="5.90228">
        <ele>919.51</ele>
        <time>2020-03-15T11:21:53.000Z</time>
      </trkpt>
      <trkpt lat="45.32807" lon="5.90256">
        <ele>918.52</ele>
        <time>2020-03-15T11:21:58.000Z</time>
      </trkpt>
      <trkpt lat="45.32816" lon="5.90288">
        <ele>919.19</ele>
        <time>2020-03-15T11:22:03.000Z</time>
      </trkpt>
      <trkpt lat="45.32825" lon="5.90324">
        <ele>917.86</ele>
        <time>2020-03-15T11:22:08.000Z</time>
      </trkpt>
      <trkpt lat="45.32836" lon="5.90362">
        <ele>917.59</ele>
        <time>2020-03-15T11:22:13.000Z</time>
      </trkpt>
      <trkpt lat="45.32854" lon="5.90394">
        <ele>914.71</ele>
        <time>2020-03-15T11:22:18.000Z</time>
      </trkpt>
      <trkpt lat="45.32864" lon="5.90408">
        <ele>913.01</ele>
        <time>2020-03-15T11:22:23.000Z</time>
      </trkpt>
      <trkpt lat="45.32873" lon="5.90416">
        <ele>914.07</ele>
        <time>2020-03-15T11:22:28.000Z</time>
      </trkpt>
      <trkpt lat="45.32882" lon="5.90423">
        <ele>914.25</ele>
        <time>2020-03-15T11:22:33.000Z</time>
      </trkpt>
      <trkpt lat="45.32895" lon="5.90435">
        <ele>915.36</ele>
        <time>2020-03-15T11:22:38.000Z</time>
      </trkpt>
      <trkpt lat="45.32917" lon="5.90443">
        <ele>914.02</ele>
        <time>2020-03-15T11:22:43.000Z</time>
      </trkpt>
      <trkpt lat="45.32944" lon="5.90455">
        <ele>914.63</ele>
        <time>2020-03-15T11:22:48.000Z</time>
      </trkpt>
      <trkpt lat="45.32977" lon="5.90454">
        <ele>911.01</ele>
        <time>2020-03-15T11:22:53.000Z</time>
      </trkpt>
      <trkpt lat="45.33014" lon="5.90438">
        <ele>904.31</ele>
        <time>2020-03-15T11:22:58.000Z</time>
      </trkpt>
      <trkpt lat="45.33054" lon="5.90467">
        <ele>902.89</ele>
        <time>2020-03-15T11:23:03.000Z</time>
      </trkpt>
      <trkpt lat="45.33088" lon="5.90515">
        <ele>898.9</ele>
        <time>2020-03-15T11:23:08.000Z</time>
      </trkpt>
      <trkpt lat="45.3311" lon="5.90589">
        <ele>894.68</ele>
        <time>2020-03-15T11:23:13.000Z</time>
      </trkpt>
      <trkpt lat="45.33148" lon="5.9063">
        <ele>888.86</ele>
        <time>2020-03-15T11:23:18.000Z</time>
      </trkpt>
      <trkpt lat="45.33147" lon="5.90657">
        <ele>885.84</ele>
        <time>2020-03-15T11:23:23.000Z</time>
      </trkpt>
      <trkpt lat="45.33089" lon="5.9066">
        <ele>880.59</ele>
        <time>2020-03-15T11:23:28.000Z</time>
      </trkpt>
      <trkpt lat="45.33066" lon="5.90717">
        <ele>876.97</ele>
        <time>2020-03-15T11:23:33.000Z</time>
      </trkpt>
      <trkpt lat="45.33069" lon="5.90789">
        <ele>867.79</ele>
        <time>2020-03-15T11:23:38.000Z</time>
      </trkpt>
      <trkpt lat="45.33018" lon="5.90822">
        <ele>865.47</ele>
        <time>2020-03-15T11:23:43.000Z</time>
      </trkpt>
      <trkpt lat="45.3297" lon="5.90848">
        <ele>861.31</ele>
        <time>2020-03-15T11:23:48.000Z</time>
      </trkpt>
      <trkpt lat="45.32986" lon="5.9089">
        <ele>858.14</ele>
        <time>2020-03-15T11:23:53.000Z</time>
      </trkpt>
      <trkpt lat="45.3303" lon="5.909">
        <ele>857.29</ele>
        <time>2020-03-15T11:23:58.000Z</time>
      </trkpt>
      <trkpt lat="45.33098" lon="5.90908">
        <ele>841.44</ele>
        <time>2020-03-15T11:24:03.000Z</time>
      </trkpt>
      <trkpt lat="45.3315" lon="5.90924">
        <ele>836.99</ele>
        <time>2020-03-15T11:24:08.000Z</time>
      </trkpt>
      <trkpt lat="45.3311" lon="5.90963">
        <ele>831.71</ele>
        <time>2020-03-15T11:24:13.000Z</time>
      </trkpt>
      <trkpt lat="45.33056" lon="5.90986">
        <ele>827.44</ele>
        <time>2020-03-15T11:24:18.000Z</time>
      </trkpt>
      <trkpt lat="45.33039" lon="5.91061">
        <ele>821</ele>
        <time>2020-03-15T11:24:23.000Z</time>
      </trkpt>
      <trkpt lat="45.33022" lon="5.91152">
        <ele>815.19</ele>
        <time>2020-03-15T11:24:28.000Z</time>
      </trkpt>
      <trkpt lat="45.33006" lon="5.91253">
        <ele>807.2</ele>
        <time>2020-03-15T11:24:33.000Z</time>
      </trkpt>
      <trkpt lat="45.32968" lon="5.91343">
        <ele>803.27</ele>
        <time>2020-03-15T11:24:38.000Z</time>
      </trkpt>
      <trkpt lat="45.32943" lon="5.91375">
        <ele>801.46</ele>
        <time>2020-03-15T11:24:43.000Z</time>
      </trkpt>
      <trkpt lat="45.32968" lon="5.91351">
        <ele>796.83</ele>
        <time>2020-03-15T11:24:48.000Z</time>
      </trkpt>
      <trkpt lat="45.3301" lon="5.91328">
        <ele>795.7</ele>
        <time>2020-03-15T11:24:53.000Z</time>
      </trkpt>
      <trkpt lat="45.33055" lon="5.91271">
        <ele>786.88</ele>
        <time>2020-03-15T11:24:58.000Z</time>
      </trkpt>
      <trkpt lat="45.33085" lon="5.91203">
        <ele>776.24</ele>
        <time>2020-03-15T11:25:03.000Z</time>
      </trkpt>
      <trkpt lat="45.331" lon="5.91211">
        <ele>774.5</ele>
        <time>2020-03-15T11:25:08.000Z</time>
      </trkpt>
      <trkpt lat="45.33073" lon="5.91289">
        <ele>771.18</ele>
        <time>2020-03-15T11:25:13.000Z</time>
      </trkpt>
      <trkpt lat="45.33045" lon="5.91374">
        <ele>767.51</ele>
        <time>2020-03-15T11:25:18.000Z</time>
      </trkpt>
      <trkpt lat="45.33003" lon="5.91461">
        <ele>768.06</ele>
        <time>2020-03-15T11:25:23.000Z</time>
      </trkpt>
      <trkpt lat="45.32946" lon="5.91535">
        <ele>763.39</ele>
        <time>2020-03-15T11:25:28.000Z</time>
      </trkpt>
      <trkpt lat="45.32905" lon="5.91605">
        <ele>758.03</ele>
        <time>2020-03-15T11:25:33.000Z</time>
      </trkpt>
      <trkpt lat="45.32907" lon="5.9163">
        <ele>749.96</ele>
        <time>2020-03-15T11:25:38.000Z</time>
      </trkpt>
      <trkpt lat="45.32911" lon="5.91614">
        <ele>743.4</ele>
        <time>2020-03-15T11:25:43.000Z</time>
      </trkpt>
      <trkpt lat="45.32924" lon="5.91592">
        <ele>738.23</ele>
        <time>2020-03-15T11:25:48.000Z</time>
      </trkpt>
      <trkpt lat="45.32957" lon="5.91564">
        <ele>731.73</ele>
        <time>2020-03-15T11:25:53.000Z</time>
      </trkpt>
      <trkpt lat="45.33003" lon="5.91551">
        <ele>725.17</ele>
        <time>2020-03-15T11:25:58.000Z</time>
      </trkpt>
      <trkpt lat="45.33057" lon="5.91535">
        <ele>719.49</ele>
        <time>2020-03-15T11:26:03.000Z</time>
      </trkpt>
      <trkpt lat="45.33112" lon="5.91473">
        <ele>718.53</ele>
        <time>2020-03-15T11:26:08.000Z</time>
      </trkpt>
      <trkpt lat="45.33134" lon="5.9142">
        <ele>713.79</ele>
        <time>2020-03-15T11:26:13.000Z</time>
      </trkpt>
      <trkpt lat="45.33128" lon="5.91459">
        <ele>705.69</ele>
        <time>2020-03-15T11:26:18.000Z</time>
      </trkpt>
      <trkpt lat="45.33114" lon="5.91518">
        <ele>700.73</ele>
        <time>2020-03-15T11:26:23.000Z</time>
      </trkpt>
      <trkpt lat="45.33095" lon="5.91604">
        <ele>700.34</ele>
        <time>2020-03-15T11:26:28.000Z</time>
      </trkpt>
      <trkpt lat="45.33056" lon="5.91664">
        <ele>699.74</ele>
        <time>2020-03-15T11:26:33.000Z</time>
      </trkpt>
      <trkpt lat="45.33008" lon="5.91719">
        <ele>695.32</ele>
        <time>2020-03-15T11:26:38.000Z</time>
      </trkpt>
      <trkpt lat="45.32951" lon="5.91767">
        <ele>683.22</ele>
        <time>2020-03-15T11:26:43.000Z</time>
      </trkpt>
      <trkpt lat="45.32882" lon="5.91737">
        <ele>672.27</ele>
        <time>2020-03-15T11:26:48.000Z</time>
      </trkpt>
      <trkpt lat="45.32815" lon="5.91701">
        <ele>663.94</ele>
        <time>2020-03-15T11:26:53.000Z</time>
      </trkpt>
      <trkpt lat="45.32746" lon="5.91668">
        <ele>659.24</ele>
        <time>2020-03-15T11:26:58.000Z</time>
      </trkpt>
      <trkpt lat="45.32671" lon="5.91654">
        <ele>649.4</ele>
        <time>2020-03-15T11:27:03.000Z</time>
      </trkpt>
      <trkpt lat="45.32599" lon="5.91623">
        <ele>643.03</ele>
        <time>2020-03-15T11:27:08.000Z</time>
      </trkpt>
      <trkpt lat="45.32528" lon="5.91574">
        <ele>635.35</ele>
        <time>2020-03-15T11:27:13.000Z</time>
      </trkpt>
      <trkpt lat="45.32479" lon="5.9151">
        <ele>625.88</ele>
        <time>2020-03-15T11:27:18.000Z</time>
      </trkpt>
      <trkpt lat="45.32464" lon="5.91523">
        <ele>619.39</ele>
        <time>2020-03-15T11:27:23.000Z</time>
      </trkpt>
      <trkpt lat="45.32487" lon="5.91564">
        <ele>619.13</ele>
        <time>2020-03-15T11:27:28.000Z</time>
      </trkpt>
      <trkpt lat="45.32518" lon="5.91608">
        <ele>614.81</ele>
        <time>2020-03-15T11:27:33.000Z</time>
      </trkpt>
      <trkpt lat="45.32554" lon="5.91658">
        <ele>606.05</ele>
        <time>2020-03-15T11:27:38.000Z</time>
      </trkpt>
      <trkpt lat="45.32608" lon="5.9171">
        <ele>605.69</ele>
        <time>2020-03-15T11:27:43.000Z</time>
      </trkpt>
      <trkpt lat="45.32664" lon="5.91752">
        <ele>602.28</ele>
        <time>2020-03-15T11:27:48.000Z</time>
      </trkpt>
      <trkpt lat="45.32736" lon="5.91788">
        <ele>591.09</ele>
        <time>2020-03-15T11:27:53.000Z</time>
      </trkpt>
      <trkpt lat="45.32806" lon="5.91822">
        <ele>586.86</ele>
        <time>2020-03-15T11:27:58.000Z</time>
      </trkpt>
      <trkpt lat="45.32842" lon="5.91888">
        <ele>586.59</ele>
        <time>2020-03-15T11:28:03.000Z</time>
      </trkpt>
      <trkpt lat="45.32891" lon="5.91957">
        <ele>579.41</ele>
        <time>2020-03-15T11:28:08.000Z</time>
      </trkpt>
      <trkpt lat="45.32927" lon="5.92036">
        <ele>572.32</ele>
        <time>2020-03-15T11:28:13.000Z</time>
      </trkpt>
      <trkpt lat="45.3295" lon="5.92091">
        <ele>566.31</ele>
        <time>2020-03-15T11:28:18.000Z</time>
      </trkpt>
      <trkpt lat="45.32991" lon="5.92083">
        <ele>561.18</ele>
        <time>2020-03-15T11:28:23.000Z</time>
      </trkpt>
      <trkpt lat="45.33046" lon="5.92063">
        <ele>558.33</ele>
        <time>2020-03-15T11:28:28.000Z</time>
      </trkpt>
      <trkpt lat="45.33053" lon="5.92085">
        <ele>556.01</ele>
        <time>2020-03-15T11:28:33.000Z</time>
      </trkpt>
      <trkpt lat="45.33042" lon="5.92086">
        <ele>544.38</ele>
        <time>2020-03-15T11:28:44.000Z</time>
      </trkpt>
      <trkpt lat="45.33009" lon="5.92102">
        <ele>539.67</ele>
        <time>2020-03-15T11:28:49.000Z</time>
      </trkpt>
      <trkpt lat="45.32964" lon="5.92131">
        <ele>535.71</ele>
        <time>2020-03-15T11:28:54.000Z</time>
      </trkpt>
      <trkpt lat="45.32908" lon="5.92084">
        <ele>529.84</ele>
        <time>2020-03-15T11:28:59.000Z</time>
      </trkpt>
      <trkpt lat="45.3285" lon="5.92035">
        <ele>524.82</ele>
        <time>2020-03-15T11:29:04.000Z</time>
      </trkpt>
      <trkpt lat="45.32785" lon="5.91994">
        <ele>516.5</ele>
        <time>2020-03-15T11:29:09.000Z</time>
      </trkpt>
      <trkpt lat="45.32721" lon="5.91972">
        <ele>508.75</ele>
        <time>2020-03-15T11:29:14.000Z</time>
      </trkpt>
      <trkpt lat="45.32655" lon="5.91952">
        <ele>501.06</ele>
        <time>2020-03-15T11:29:19.000Z</time>
      </trkpt>
      <trkpt lat="45.32585" lon="5.9194">
        <ele>496.64</ele>
        <time>2020-03-15T11:29:24.000Z</time>
      </trkpt>
      <trkpt lat="45.32508" lon="5.91923">
        <ele>489.21</ele>
        <time>2020-03-15T11:29:29.000Z</time>
      </trkpt>
      <trkpt lat="45.32446" lon="5.919">
        <ele>475.93</ele>
        <time>2020-03-15T11:29:34.000Z</time>
      </trkpt>
      <trkpt lat="45.32413" lon="5.91915">
        <ele>470.06</ele>
        <time>2020-03-15T11:29:39.000Z</time>
      </trkpt>
      <trkpt lat="45.32428" lon="5.91956">
        <ele>466.37</ele>
        <time>2020-03-15T11:29:44.000Z</time>
      </trkpt>
      <trkpt lat="45.32474" lon="5.91986">
        <ele>463.53</ele>
        <time>2020-03-15T11:29:49.000Z</time>
      </trkpt>
      <trkpt lat="45.32517" lon="5.92043">
        <ele>455.98</ele>
        <time>2020-03-15T11:29:54.000Z</time>
      </trkpt>
      <trkpt lat="45.32562" lon="5.92176">
        <ele>447.7</ele>
        <time>2020-03-15T11:30:02.000Z</time>
      </trkpt>
      <trkpt lat="45.32585" lon="5.92254">
        <ele>446.18</ele>
        <time>2020-03-15T11:30:07.000Z</time>
      </trkpt>
      <trkpt lat="45.32547" lon="5.92263">
        <ele>440.21</ele>
        <time>2020-03-15T11:30:12.000Z</time>
      </trkpt>
      <trkpt lat="45.32497" lon="5.92236">
        <ele>436.38</ele>
        <time>2020-03-15T11:30:17.000Z</time>
      </trkpt>
      <trkpt lat="45.32442" lon="5.92222">
        <ele>425.84</ele>
        <time>2020-03-15T11:30:22.000Z</time>
      </trkpt>
      <trkpt lat="45.32403" lon="5.92212">
        <ele>420.87</ele>
        <time>2020-03-15T11:30:27.000Z</time>
      </trkpt>
      <trkpt lat="45.32393" lon="5.92213">
        <ele>413.9</ele>
        <time>2020-03-15T11:30:32.000Z</time>
      </trkpt>
      <trkpt lat="45.32369" lon="5.92199">
        <ele>412.38</ele>
        <time>2020-03-15T11:30:37.000Z</time>
      </trkpt>
      <trkpt lat="45.32326" lon="5.92174">
        <ele>409.73</ele>
        <time>2020-03-15T11:30:42.000Z</time>
      </trkpt>
      <trkpt lat="45.32302" lon="5.92141">
        <ele>404.99</ele>
        <time>2020-03-15T11:30:47.000Z</time>
      </trkpt>
      <trkpt lat="45.32284" lon="5.92112">
        <ele>400.07</ele>
        <time>2020-03-15T11:30:52.000Z</time>
      </trkpt>
      <trkpt lat="45.32255" lon="5.92086">
        <ele>397.22</ele>
        <time>2020-03-15T11:30:57.000Z</time>
      </trkpt>
      <trkpt lat="45.32224" lon="5.92088">
        <ele>393.76</ele>
        <time>2020-03-15T11:31:02.000Z</time>
      </trkpt>
      <trkpt lat="45.32191" lon="5.92066">
        <ele>390.72</ele>
        <time>2020-03-15T11:31:07.000Z</time>
      </trkpt>
      <trkpt lat="45.32162" lon="5.9202">
        <ele>383.21</ele>
        <time>2020-03-15T11:31:12.000Z</time>
      </trkpt>
      <trkpt lat="45.32143" lon="5.9202">
        <ele>383.3</ele>
        <time>2020-03-15T11:31:17.000Z</time>
      </trkpt>
      <trkpt lat="45.32142" lon="5.92085">
        <ele>377.43</ele>
        <time>2020-03-15T11:31:22.000Z</time>
      </trkpt>
      <trkpt lat="45.32159" lon="5.92149">
        <ele>374.28</ele>
        <time>2020-03-15T11:31:27.000Z</time>
      </trkpt>
      <trkpt lat="45.32185" lon="5.92199">
        <ele>369.52</ele>
        <time>2020-03-15T11:31:32.000Z</time>
      </trkpt>
      <trkpt lat="45.32177" lon="5.92206">
        <ele>369.63</ele>
        <time>2020-03-15T11:31:37.000Z</time>
      </trkpt>
      <trkpt lat="45.32152" lon="5.9218">
        <ele>368.54</ele>
        <time>2020-03-15T11:31:42.000Z</time>
      </trkpt>
      <trkpt lat="45.32114" lon="5.92153">
        <ele>366.21</ele>
        <time>2020-03-15T11:31:47.000Z</time>
      </trkpt>
      <trkpt lat="45.32092" lon="5.92101">
        <ele>358.13</ele>
        <time>2020-03-15T11:31:52.000Z</time>
      </trkpt>
      <trkpt lat="45.3207" lon="5.92046">
        <ele>352.32</ele>
        <time>2020-03-15T11:31:57.000Z</time>
      </trkpt>
      <trkpt lat="45.32028" lon="5.92004">
        <ele>344.93</ele>
        <time>2020-03-15T11:32:02.000Z</time>
      </trkpt>
      <trkpt lat="45.31996" lon="5.91939">
        <ele>338.97</ele>
        <time>2020-03-15T11:32:07.000Z</time>
      </trkpt>
      <trkpt lat="45.31975" lon="5.91877">
        <ele>335.3</ele>
        <time>2020-03-15T11:32:12.000Z</time>
      </trkpt>
      <trkpt lat="45.31936" lon="5.9182">
        <ele>328.98</ele>
        <time>2020-03-15T11:32:17.000Z</time>
      </trkpt>
      <trkpt lat="45.31919" lon="5.9176">
        <ele>321.63</ele>
        <time>2020-03-15T11:32:22.000Z</time>
      </trkpt>
      <trkpt lat="45.31925" lon="5.91691">
        <ele>319.03</ele>
        <time>2020-03-15T11:32:27.000Z</time>
      </trkpt>
      <trkpt lat="45.31905" lon="5.91632">
        <ele>315.59</ele>
        <time>2020-03-15T11:32:32.000Z</time>
      </trkpt>
      <trkpt lat="45.31871" lon="5.9162">
        <ele>312.98</ele>
        <time>2020-03-15T11:32:37.000Z</time>
      </trkpt>
      <trkpt lat="45.31849" lon="5.91647">
        <ele>310.44</ele>
        <time>2020-03-15T11:32:42.000Z</time>
      </trkpt>
      <trkpt lat="45.31827" lon="5.91675">
        <ele>303.37</ele>
        <time>2020-03-15T11:32:47.000Z</time>
      </trkpt>
      <trkpt lat="45.31802" lon="5.91693">
        <ele>301.25</ele>
        <time>2020-03-15T11:32:52.000Z</time>
      </trkpt>
      <trkpt lat="45.31776" lon="5.91722">
        <ele>297.01</ele>
        <time>2020-03-15T11:32:57.000Z</time>
      </trkpt>
      <trkpt lat="45.31759" lon="5.91768">
        <ele>295.43</ele>
        <time>2020-03-15T11:33:02.000Z</time>
      </trkpt>
      <trkpt lat="45.31737" lon="5.91808">
        <ele>293.46</ele>
        <time>2020-03-15T11:33:07.000Z</time>
      </trkpt>
      <trkpt lat="45.31719" lon="5.91831">
        <ele>292.36</ele>
        <time>2020-03-15T11:33:12.000Z</time>
      </trkpt>
      <trkpt lat="45.31701" lon="5.91853">
        <ele>292.43</ele>
        <time>2020-03-15T11:33:17.000Z</time>
      </trkpt>
      <trkpt lat="45.31674" lon="5.91869">
        <ele>290.1</ele>
        <time>2020-03-15T11:33:22.000Z</time>
      </trkpt>
      <trkpt lat="45.31643" lon="5.91884">
        <ele>290</ele>
        <time>2020-03-15T11:33:27.000Z</time>
      </trkpt>
      <trkpt lat="45.31619" lon="5.91904">
        <ele>289.76</ele>
        <time>2020-03-15T11:33:32.000Z</time>
      </trkpt>
      <trkpt lat="45.31604" lon="5.9195">
        <ele>284.58</ele>
        <time>2020-03-15T11:33:37.000Z</time>
      </trkpt>
      <trkpt lat="45.3159" lon="5.91992">
        <ele>280.95</ele>
        <time>2020-03-15T11:33:42.000Z</time>
      </trkpt>
      <trkpt lat="45.31579" lon="5.92031">
        <ele>279.01</ele>
        <time>2020-03-15T11:33:47.000Z</time>
      </trkpt>
      <trkpt lat="45.31559" lon="5.9207">
        <ele>277.27</ele>
        <time>2020-03-15T11:33:52.000Z</time>
      </trkpt>
      <trkpt lat="45.31536" lon="5.92114">
        <ele>275.9</ele>
        <time>2020-03-15T11:33:57.000Z</time>
      </trkpt>
      <trkpt lat="45.31509" lon="5.92157">
        <ele>274.5</ele>
        <time>2020-03-15T11:34:02.000Z</time>
      </trkpt>
      <trkpt lat="45.31482" lon="5.92201">
        <ele>275.84</ele>
        <time>2020-03-15T11:34:07.000Z</time>
      </trkpt>
      <trkpt lat="45.3146" lon="5.92239">
        <ele>273.43</ele>
        <time>2020-03-15T11:34:12.000Z</time>
      </trkpt>
      <trkpt lat="45.31433" lon="5.92264">
        <ele>267.86</ele>
        <time>2020-03-15T11:34:17.000Z</time>
      </trkpt>
      <trkpt lat="45.31416" lon="5.92285">
        <ele>266.97</ele>
        <time>2020-03-15T11:34:22.000Z</time>
      </trkpt>
      <trkpt lat="45.31408" lon="5.92296">
        <ele>265.41</ele>
        <time>2020-03-15T11:34:27.000Z</time>
      </trkpt>
      <trkpt lat="45.31399" lon="5.92293">
        <ele>263.54</ele>
        <time>2020-03-15T11:34:32.000Z</time>
      </trkpt>
      <trkpt lat="45.31401" lon="5.92308">
        <ele>260.8</ele>
        <time>2020-03-15T11:34:48.000Z</time>
      </trkpt>
      <trkpt lat="45.31416" lon="5.92325">
        <ele>260.71</ele>
        <time>2020-03-15T11:34:53.000Z</time>
      </trkpt>
      <trkpt lat="45.31435" lon="5.92342">
        <ele>261.87</ele>
        <time>2020-03-15T11:34:58.000Z</time>
      </trkpt>
      <trkpt lat="45.31453" lon="5.92356">
        <ele>260.96</ele>
        <time>2020-03-15T11:35:03.000Z</time>
      </trkpt>
      <trkpt lat="45.31476" lon="5.9237">
        <ele>263.25</ele>
        <time>2020-03-15T11:35:08.000Z</time>
      </trkpt>
      <trkpt lat="45.315" lon="5.92386">
        <ele>264.36</ele>
        <time>2020-03-15T11:35:13.000Z</time>
      </trkpt>
      <trkpt lat="45.31514" lon="5.92397">
        <ele>262.15</ele>
        <time>2020-03-15T11:35:18.000Z</time>
      </trkpt>
      <trkpt lat="45.31516" lon="5.92418">
        <ele>262.11</ele>
        <time>2020-03-15T11:35:23.000Z</time>
      </trkpt>
      <trkpt lat="45.31507" lon="5.92448">
        <ele>261.8</ele>
        <time>2020-03-15T11:35:28.000Z</time>
      </trkpt>
      <trkpt lat="45.31494" lon="5.92485">
        <ele>260.3</ele>
        <time>2020-03-15T11:35:33.000Z</time>
      </trkpt>
      <trkpt lat="45.31485" lon="5.92508">
        <ele>259.27</ele>
        <time>2020-03-15T11:35:38.000Z</time>
      </trkpt>
      <trkpt lat="45.31477" lon="5.92528">
        <ele>259.6</ele>
        <time>2020-03-15T11:35:43.000Z</time>
      </trkpt>
      <trkpt lat="45.31464" lon="5.92553">
        <ele>258.74</ele>
        <time>2020-03-15T11:35:48.000Z</time>
      </trkpt>
      <trkpt lat="45.31453" lon="5.92569">
        <ele>260.7</ele>
        <time>2020-03-15T11:35:53.000Z</time>
      </trkpt>
      <trkpt lat="45.31461" lon="5.92561">
        <ele>259.28</ele>
        <time>2020-03-15T11:36:01.000Z</time>
      </trkpt>
      <trkpt lat="45.31472" lon="5.92533">
        <ele>259.34</ele>
        <time>2020-03-15T11:36:06.000Z</time>
      </trkpt>
      <trkpt lat="45.31485" lon="5.92506">
        <ele>259.81</ele>
        <time>2020-03-15T11:36:11.000Z</time>
      </trkpt>
      <trkpt lat="45.31496" lon="5.92477">
        <ele>262.5</ele>
        <time>2020-03-15T11:36:16.000Z</time>
      </trkpt>
      <trkpt lat="45.31508" lon="5.92448">
        <ele>264.51</ele>
        <time>2020-03-15T11:36:21.000Z</time>
      </trkpt>
      <trkpt lat="45.31517" lon="5.9242">
        <ele>264.97</ele>
        <time>2020-03-15T11:36:26.000Z</time>
      </trkpt>
      <trkpt lat="45.31524" lon="5.92408">
        <ele>268.73</ele>
        <time>2020-03-15T11:36:31.000Z</time>
      </trkpt>
      <trkpt lat="45.31539" lon="5.92407">
        <ele>264.39</ele>
        <time>2020-03-15T11:36:36.000Z</time>
      </trkpt>
      <trkpt lat="45.31558" lon="5.92421">
        <ele>259.4</ele>
        <time>2020-03-15T11:36:41.000Z</time>
      </trkpt>
      <trkpt lat="45.31579" lon="5.92436">
        <ele>256.75</ele>
        <time>2020-03-15T11:36:46.000Z</time>
      </trkpt>
      <trkpt lat="45.31594" lon="5.92446">
        <ele>255.87</ele>
        <time>2020-03-15T11:36:51.000Z</time>
      </trkpt>
      <trkpt lat="45.31609" lon="5.92455">
        <ele>255.57</ele>
        <time>2020-03-15T11:36:56.000Z</time>
      </trkpt>
      <trkpt lat="45.31623" lon="5.92464">
        <ele>255.96</ele>
        <time>2020-03-15T11:37:01.000Z</time>
      </trkpt>
      <trkpt lat="45.31621" lon="5.92485">
        <ele>253.99</ele>
        <time>2020-03-15T11:37:06.000Z</time>
      </trkpt>
      <trkpt lat="45.31609" lon="5.92515">
        <ele>254.64</ele>
        <time>2020-03-15T11:37:11.000Z</time>
      </trkpt>
      <trkpt lat="45.31602" lon="5.92547">
        <ele>254.35</ele>
        <time>2020-03-15T11:37:16.000Z</time>
      </trkpt>
      <trkpt lat="45.31595" lon="5.92571">
        <ele>253.17</ele>
        <time>2020-03-15T11:37:21.000Z</time>
      </trkpt>
      <trkpt lat="45.31584" lon="5.92592">
        <ele>251.97</ele>
        <time>2020-03-15T11:37:26.000Z</time>
      </trkpt>
      <trkpt lat="45.31572" lon="5.92619">
        <ele>251.09</ele>
        <time>2020-03-15T11:37:31.000Z</time>
      </trkpt>
      <trkpt lat="45.31557" lon="5.92654">
        <ele>248.57</ele>
        <time>2020-03-15T11:37:36.000Z</time>
      </trkpt>
      <trkpt lat="45.3154" lon="5.92697">
        <ele>247.47</ele>
        <time>2020-03-15T11:37:41.000Z</time>
      </trkpt>
      <trkpt lat="45.31522" lon="5.92739">
        <ele>245.43</ele>
        <time>2020-03-15T11:37:46.000Z</time>
      </trkpt>
      <trkpt lat="45.31504" lon="5.92783">
        <ele>242.36</ele>
        <time>2020-03-15T11:37:51.000Z</time>
      </trkpt>
      <trkpt lat="45.31486" lon="5.92823">
        <ele>239.2</ele>
        <time>2020-03-15T11:37:56.000Z</time>
      </trkpt>
      <trkpt lat="45.31467" lon="5.92862">
        <ele>235.31</ele>
        <time>2020-03-15T11:38:01.000Z</time>
      </trkpt>
      <trkpt lat="45.3144" lon="5.92894">
        <ele>232.82</ele>
        <time>2020-03-15T11:38:06.000Z</time>
      </trkpt>
      <trkpt lat="45.31411" lon="5.92919">
        <ele>232.88</ele>
        <time>2020-03-15T11:38:11.000Z</time>
      </trkpt>
      <trkpt lat="45.31385" lon="5.92942">
        <ele>234.32</ele>
        <time>2020-03-15T11:38:16.000Z</time>
      </trkpt>
      <trkpt lat="45.3136" lon="5.9297">
        <ele>236.51</ele>
        <time>2020-03-15T11:38:21.000Z</time>
      </trkpt>
      <trkpt lat="45.31351" lon="5.93011">
        <ele>236.51</ele>
        <time>2020-03-15T11:38:26.000Z</time>
      </trkpt>
      <trkpt lat="45.31338" lon="5.93058">
        <ele>235.25</ele>
        <time>2020-03-15T11:38:31.000Z</time>
      </trkpt>
      <trkpt lat="45.31321" lon="5.9309">
        <ele>232.4</ele>
        <time>2020-03-15T11:38:36.000Z</time>
      </trkpt>
      <trkpt lat="45.31304" lon="5.9313">
        <ele>231.1</ele>
        <time>2020-03-15T11:38:41.000Z</time>
      </trkpt>
      <trkpt lat="45.31282" lon="5.93158">
        <ele>230.42</ele>
        <time>2020-03-15T11:38:46.000Z</time>
      </trkpt>
      <trkpt lat="45.31254" lon="5.93155">
        <ele>231.38</ele>
        <time>2020-03-15T11:38:51.000Z</time>
      </trkpt>
      <trkpt lat="45.31226" lon="5.93147">
        <ele>229.74</ele>
        <time>2020-03-15T11:38:56.000Z</time>
      </trkpt>
      <trkpt lat="45.31201" lon="5.93129">
        <ele>227.68</ele>
        <time>2020-03-15T11:39:01.000Z</time>
      </trkpt>
      <trkpt lat="45.3118" lon="5.93109">
        <ele>226.71</ele>
        <time>2020-03-15T11:39:06.000Z</time>
      </trkpt>
      <trkpt lat="45.31157" lon="5.93096">
        <ele>226.63</ele>
        <time>2020-03-15T11:39:11.000Z</time>
      </trkpt>
      <trkpt lat="45.31133" lon="5.9309">
        <ele>226.82</ele>
        <time>2020-03-15T11:39:16.000Z</time>
      </trkpt>
      <trkpt lat="45.31112" lon="5.93071">
        <ele>228.26</ele>
        <time>2020-03-15T11:39:21.000Z</time>
      </trkpt>
      <trkpt lat="45.31092" lon="5.93048">
        <ele>228.78</ele>
        <time>2020-03-15T11:39:26.000Z</time>
      </trkpt>
      <trkpt lat="45.3107" lon="5.93033">
        <ele>227.91</ele>
        <time>2020-03-15T11:39:31.000Z</time>
      </trkpt>
      <trkpt lat="45.31051" lon="5.93022">
        <ele>228.69</ele>
        <time>2020-03-15T11:39:36.000Z</time>
      </trkpt>
      <trkpt lat="45.31035" lon="5.93007">
        <ele>228.21</ele>
        <time>2020-03-15T11:39:41.000Z</time>
      </trkpt>
      <trkpt lat="45.31022" lon="5.92987">
        <ele>228.62</ele>
        <time>2020-03-15T11:39:46.000Z</time>
      </trkpt>
      <trkpt lat="45.31023" lon="5.92956">
        <ele>228.1</ele>
        <time>2020-03-15T11:39:51.000Z</time>
      </trkpt>
      <trkpt lat="45.31035" lon="5.92931">
        <ele>227.82</ele>
        <time>2020-03-15T11:39:56.000Z</time>
      </trkpt>
      <trkpt lat="45.31036" lon="5.92907">
        <ele>228.47</ele>
        <time>2020-03-15T11:40:01.000Z</time>
      </trkpt>
      <trkpt lat="45.31019" lon="5.92886">
        <ele>226.35</ele>
        <time>2020-03-15T11:40:06.000Z</time>
      </trkpt>
      <trkpt lat="45.31001" lon="5.92865">
        <ele>225.5</ele>
        <time>2020-03-15T11:40:11.000Z</time>
      </trkpt>
      <trkpt lat="45.30987" lon="5.92846">
        <ele>224.45</ele>
        <time>2020-03-15T11:40:16.000Z</time>
      </trkpt>
      <trkpt lat="45.30972" lon="5.92828">
        <ele>226.54</ele>
        <time>2020-03-15T11:40:21.000Z</time>
      </trkpt>
      <trkpt lat="45.30947" lon="5.92848">
        <ele>230.39</ele>
        <time>2020-03-15T11:40:26.000Z</time>
      </trkpt>
      <trkpt lat="45.30927" lon="5.92873">
        <ele>234.23</ele>
        <time>2020-03-15T11:40:31.000Z</time>
      </trkpt>
      <trkpt lat="45.30906" lon="5.92902">
        <ele>235.13</ele>
        <time>2020-03-15T11:40:36.000Z</time>
      </trkpt>
      <trkpt lat="45.30886" lon="5.92928">
        <ele>234.6</ele>
        <time>2020-03-15T11:40:41.000Z</time>
      </trkpt>
      <trkpt lat="45.30862" lon="5.92938">
        <ele>234.14</ele>
        <time>2020-03-15T11:40:46.000Z</time>
      </trkpt>
      <trkpt lat="45.3084" lon="5.9294">
        <ele>235.38</ele>
        <time>2020-03-15T11:40:51.000Z</time>
      </trkpt>
      <trkpt lat="45.3083" lon="5.92933">
        <ele>234.99</ele>
        <time>2020-03-15T11:40:56.000Z</time>
      </trkpt>
      <trkpt lat="45.3081" lon="5.92929">
        <ele>234.86</ele>
        <time>2020-03-15T11:41:01.000Z</time>
      </trkpt>
      <trkpt lat="45.30788" lon="5.92919">
        <ele>233.13</ele>
        <time>2020-03-15T11:41:06.000Z</time>
      </trkpt>
      <trkpt lat="45.30764" lon="5.92905">
        <ele>232.48</ele>
        <time>2020-03-15T11:41:11.000Z</time>
      </trkpt>
      <trkpt lat="45.30743" lon="5.92877">
        <ele>233.36</ele>
        <time>2020-03-15T11:41:16.000Z</time>
      </trkpt>
      <trkpt lat="45.30721" lon="5.92863">
        <ele>234.57</ele>
        <time>2020-03-15T11:41:21.000Z</time>
      </trkpt>
      <trkpt lat="45.30698" lon="5.92848">
        <ele>232.25</ele>
        <time>2020-03-15T11:41:26.000Z</time>
      </trkpt>
      <trkpt lat="45.30674" lon="5.92831">
        <ele>232.41</ele>
        <time>2020-03-15T11:41:31.000Z</time>
      </trkpt>
      <trkpt lat="45.30653" lon="5.92814">
        <ele>229.05</ele>
        <time>2020-03-15T11:41:36.000Z</time>
      </trkpt>
      <trkpt lat="45.30631" lon="5.92789">
        <ele>228.61</ele>
        <time>2020-03-15T11:41:41.000Z</time>
      </trkpt>
      <trkpt lat="45.30612" lon="5.92757">
        <ele>227.58</ele>
        <time>2020-03-15T11:41:46.000Z</time>
      </trkpt>
      <trkpt lat="45.30595" lon="5.92722">
        <ele>228.75</ele>
        <time>2020-03-15T11:41:51.000Z</time>
      </trkpt>
      <trkpt lat="45.30576" lon="5.92685">
        <ele>224.87</ele>
        <time>2020-03-15T11:41:56.000Z</time>
      </trkpt>
      <trkpt lat="45.30565" lon="5.92648">
        <ele>223.4</ele>
        <time>2020-03-15T11:42:01.000Z</time>
      </trkpt>
      <trkpt lat="45.30573" lon="5.92603">
        <ele>221.79</ele>
        <time>2020-03-15T11:42:06.000Z</time>
      </trkpt>
      <trkpt lat="45.30583" lon="5.92565">
        <ele>220.98</ele>
        <time>2020-03-15T11:42:11.000Z</time>
      </trkpt>
      <trkpt lat="45.30581" lon="5.92521">
        <ele>222.1</ele>
        <time>2020-03-15T11:42:16.000Z</time>
      </trkpt>
      <trkpt lat="45.30574" lon="5.92483">
        <ele>221.99</ele>
        <time>2020-03-15T11:42:21.000Z</time>
      </trkpt>
      <trkpt lat="45.30573" lon="5.92437">
        <ele>220.48</ele>
        <time>2020-03-15T11:42:26.000Z</time>
      </trkpt>
      <trkpt lat="45.30567" lon="5.92395">
        <ele>223.12</ele>
        <time>2020-03-15T11:42:31.000Z</time>
      </trkpt>
      <trkpt lat="45.30552" lon="5.92353">
        <ele>222.54</ele>
        <time>2020-03-15T11:42:36.000Z</time>
      </trkpt>
      <trkpt lat="45.3054" lon="5.92313">
        <ele>225.99</ele>
        <time>2020-03-15T11:42:41.000Z</time>
      </trkpt>
      <trkpt lat="45.30526" lon="5.92273">
        <ele>228.22</ele>
        <time>2020-03-15T11:42:46.000Z</time>
      </trkpt>
      <trkpt lat="45.30519" lon="5.92235">
        <ele>227.96</ele>
        <time>2020-03-15T11:42:51.000Z</time>
      </trkpt>
      <trkpt lat="45.30532" lon="5.92203">
        <ele>227.83</ele>
        <time>2020-03-15T11:42:56.000Z</time>
      </trkpt>
      <trkpt lat="45.30535" lon="5.92168">
        <ele>227.7</ele>
        <time>2020-03-15T11:43:01.000Z</time>
      </trkpt>
      <trkpt lat="45.30521" lon="5.92135">
        <ele>225.15</ele>
        <time>2020-03-15T11:43:06.000Z</time>
      </trkpt>
      <trkpt lat="45.30503" lon="5.92101">
        <ele>226.65</ele>
        <time>2020-03-15T11:43:11.000Z</time>
      </trkpt>
      <trkpt lat="45.30489" lon="5.92067">
        <ele>228.22</ele>
        <time>2020-03-15T11:43:16.000Z</time>
      </trkpt>
      <trkpt lat="45.30478" lon="5.92035">
        <ele>229.67</ele>
        <time>2020-03-15T11:43:21.000Z</time>
      </trkpt>
      <trkpt lat="45.30468" lon="5.92007">
        <ele>225.9</ele>
        <time>2020-03-15T11:43:26.000Z</time>
      </trkpt>
      <trkpt lat="45.30462" lon="5.91984">
        <ele>227.54</ele>
        <time>2020-03-15T11:43:31.000Z</time>
      </trkpt>
      <trkpt lat="45.30463" lon="5.91965">
        <ele>227.62</ele>
        <time>2020-03-15T11:43:36.000Z</time>
      </trkpt>
      <trkpt lat="45.30469" lon="5.91952">
        <ele>226.19</ele>
        <time>2020-03-15T11:43:41.000Z</time>
      </trkpt>
      <trkpt lat="45.30479" lon="5.91934">
        <ele>227.45</ele>
        <time>2020-03-15T11:43:46.000Z</time>
      </trkpt>
      <trkpt lat="45.30489" lon="5.91916">
        <ele>231.52</ele>
        <time>2020-03-15T11:43:51.000Z</time>
      </trkpt>
      <trkpt lat="45.30501" lon="5.91893">
        <ele>234.28</ele>
        <time>2020-03-15T11:43:56.000Z</time>
      </trkpt>
      <trkpt lat="45.30507" lon="5.91863">
        <ele>234.73</ele>
        <time>2020-03-15T11:44:01.000Z</time>
      </trkpt>
      <trkpt lat="45.30497" lon="5.91832">
        <ele>233.19</ele>
        <time>2020-03-15T11:44:06.000Z</time>
      </trkpt>
      <trkpt lat="45.30499" lon="5.91795">
        <ele>230.73</ele>
        <time>2020-03-15T11:44:11.000Z</time>
      </trkpt>
      <trkpt lat="45.30505" lon="5.91759">
        <ele>233.57</ele>
        <time>2020-03-15T11:44:16.000Z</time>
      </trkpt>
      <trkpt lat="45.30519" lon="5.91732">
        <ele>230.71</ele>
        <time>2020-03-15T11:44:21.000Z</time>
      </trkpt>
      <trkpt lat="45.30534" lon="5.91701">
        <ele>231.25</ele>
        <time>2020-03-15T11:44:26.000Z</time>
      </trkpt>
      <trkpt lat="45.30545" lon="5.91671">
        <ele>232.93</ele>
        <time>2020-03-15T11:44:31.000Z</time>
      </trkpt>
      <trkpt lat="45.30544" lon="5.9165">
        <ele>232.14</ele>
        <time>2020-03-15T11:44:36.000Z</time>
      </trkpt>
      <trkpt lat="45.30535" lon="5.91628">
        <ele>230.91</ele>
        <time>2020-03-15T11:44:41.000Z</time>
      </trkpt>
      <trkpt lat="45.30516" lon="5.91603">
        <ele>232.77</ele>
        <time>2020-03-15T11:44:46.000Z</time>
      </trkpt>
      <trkpt lat="45.30495" lon="5.91581">
        <ele>231.48</ele>
        <time>2020-03-15T11:44:51.000Z</time>
      </trkpt>
      <trkpt lat="45.30472" lon="5.91562">
        <ele>231.28</ele>
        <time>2020-03-15T11:44:56.000Z</time>
      </trkpt>
      <trkpt lat="45.3045" lon="5.9154">
        <ele>233.89</ele>
        <time>2020-03-15T11:45:01.000Z</time>
      </trkpt>
      <trkpt lat="45.30428" lon="5.91519">
        <ele>231.26</ele>
        <time>2020-03-15T11:45:06.000Z</time>
      </trkpt>
      <trkpt lat="45.30405" lon="5.91495">
        <ele>231.91</ele>
        <time>2020-03-15T11:45:11.000Z</time>
      </trkpt>
      <trkpt lat="45.30381" lon="5.91473">
        <ele>232.86</ele>
        <time>2020-03-15T11:45:16.000Z</time>
      </trkpt>
      <trkpt lat="45.30356" lon="5.91451">
        <ele>231.81</ele>
        <time>2020-03-15T11:45:21.000Z</time>
      </trkpt>
      <trkpt lat="45.30332" lon="5.9143">
        <ele>229</ele>
        <time>2020-03-15T11:45:26.000Z</time>
      </trkpt>
      <trkpt lat="45.3031" lon="5.91406">
        <ele>229.54</ele>
        <time>2020-03-15T11:45:31.000Z</time>
      </trkpt>
      <trkpt lat="45.30288" lon="5.91387">
        <ele>231.46</ele>
        <time>2020-03-15T11:45:36.000Z</time>
      </trkpt>
      <trkpt lat="45.30267" lon="5.9136">
        <ele>230.77</ele>
        <time>2020-03-15T11:45:41.000Z</time>
      </trkpt>
      <trkpt lat="45.30262" lon="5.91329">
        <ele>230.39</ele>
        <time>2020-03-15T11:45:46.000Z</time>
      </trkpt>
      <trkpt lat="45.3027" lon="5.9129">
        <ele>231.17</ele>
        <time>2020-03-15T11:45:51.000Z</time>
      </trkpt>
      <trkpt lat="45.30294" lon="5.91262">
        <ele>233.33</ele>
        <time>2020-03-15T11:45:56.000Z</time>
      </trkpt>
      <trkpt lat="45.30312" lon="5.91244">
        <ele>232.21</ele>
        <time>2020-03-15T11:46:01.000Z</time>
      </trkpt>
      <trkpt lat="45.30342" lon="5.91217">
        <ele>231.08</ele>
        <time>2020-03-15T11:46:06.000Z</time>
      </trkpt>
      <trkpt lat="45.30363" lon="5.9119">
        <ele>231.43</ele>
        <time>2020-03-15T11:46:11.000Z</time>
      </trkpt>
      <trkpt lat="45.30385" lon="5.91166">
        <ele>234.69</ele>
        <time>2020-03-15T11:46:16.000Z</time>
      </trkpt>
      <trkpt lat="45.30409" lon="5.91142">
        <ele>232.76</ele>
        <time>2020-03-15T11:46:21.000Z</time>
      </trkpt>
      <trkpt lat="45.30432" lon="5.91116">
        <ele>235.68</ele>
        <time>2020-03-15T11:46:26.000Z</time>
      </trkpt>
      <trkpt lat="45.30432" lon="5.91093">
        <ele>234</ele>
        <time>2020-03-15T11:46:31.000Z</time>
      </trkpt>
      <trkpt lat="45.30418" lon="5.91069">
        <ele>234.02</ele>
        <time>2020-03-15T11:46:36.000Z</time>
      </trkpt>
      <trkpt lat="45.30397" lon="5.91043">
        <ele>233.31</ele>
        <time>2020-03-15T11:46:41.000Z</time>
      </trkpt>
      <trkpt lat="45.30375" lon="5.91017">
        <ele>232.11</ele>
        <time>2020-03-15T11:46:46.000Z</time>
      </trkpt>
      <trkpt lat="45.30354" lon="5.90991">
        <ele>232.25</ele>
        <time>2020-03-15T11:46:51.000Z</time>
      </trkpt>
      <trkpt lat="45.3033" lon="5.90963">
        <ele>229.84</ele>
        <time>2020-03-15T11:46:56.000Z</time>
      </trkpt>
      <trkpt lat="45.30306" lon="5.9093">
        <ele>228.59</ele>
        <time>2020-03-15T11:47:01.000Z</time>
      </trkpt>
      <trkpt lat="45.3028" lon="5.909">
        <ele>228.93</ele>
        <time>2020-03-15T11:47:06.000Z</time>
      </trkpt>
      <trkpt lat="45.30253" lon="5.90874">
        <ele>228.27</ele>
        <time>2020-03-15T11:47:11.000Z</time>
      </trkpt>
      <trkpt lat="45.30232" lon="5.90847">
        <ele>230.08</ele>
        <time>2020-03-15T11:47:16.000Z</time>
      </trkpt>
      <trkpt lat="45.30231" lon="5.90812">
        <ele>229.97</ele>
        <time>2020-03-15T11:47:21.000Z</time>
      </trkpt>
      <trkpt lat="45.30246" lon="5.90781">
        <ele>231.48</ele>
        <time>2020-03-15T11:47:26.000Z</time>
      </trkpt>
      <trkpt lat="45.30256" lon="5.90751">
        <ele>232.13</ele>
        <time>2020-03-15T11:47:31.000Z</time>
      </trkpt>
      <trkpt lat="45.30268" lon="5.90727">
        <ele>231.6</ele>
        <time>2020-03-15T11:47:36.000Z</time>
      </trkpt>
      <trkpt lat="45.30278" lon="5.90706">
        <ele>232.77</ele>
        <time>2020-03-15T11:47:41.000Z</time>
      </trkpt>
      <trkpt lat="45.30284" lon="5.9069">
        <ele>231.35</ele>
        <time>2020-03-15T11:47:46.000Z</time>
      </trkpt>
      <trkpt lat="45.30293" lon="5.90676">
        <ele>232.64</ele>
        <time>2020-03-15T11:47:51.000Z</time>
      </trkpt>
      <trkpt lat="45.30304" lon="5.9066">
        <ele>234.6</ele>
        <time>2020-03-15T11:47:56.000Z</time>
      </trkpt>
      <trkpt lat="45.30293" lon="5.90667">
        <ele>232.96</ele>
        <time>2020-03-15T11:48:06.000Z</time>
      </trkpt>
      <trkpt lat="45.30282" lon="5.90689">
        <ele>233.76</ele>
        <time>2020-03-15T11:48:11.000Z</time>
      </trkpt>
      <trkpt lat="45.3027" lon="5.90711">
        <ele>232.76</ele>
        <time>2020-03-15T11:48:16.000Z</time>
      </trkpt>
      <trkpt lat="45.30263" lon="5.90722">
        <ele>233.71</ele>
        <time>2020-03-15T11:48:21.000Z</time>
      </trkpt>
      <trkpt lat="45.30267" lon="5.90734">
        <ele>228.62</ele>
        <time>2020-03-15T11:56:14.000Z</time>
      </trkpt>
      <trkpt lat="45.30258" lon="5.90748">
        <ele>229.18</ele>
        <time>2020-03-15T11:56:19.000Z</time>
      </trkpt>
      <trkpt lat="45.3025" lon="5.90766">
        <ele>228.55</ele>
        <time>2020-03-15T11:56:24.000Z</time>
      </trkpt>
      <trkpt lat="45.30241" lon="5.90787">
        <ele>225.85</ele>
        <time>2020-03-15T11:56:29.000Z</time>
      </trkpt>
      <trkpt lat="45.30226" lon="5.90806">
        <ele>225.9</ele>
        <time>2020-03-15T11:56:34.000Z</time>
      </trkpt>
      <trkpt lat="45.30206" lon="5.90804">
        <ele>225.59</ele>
        <time>2020-03-15T11:56:39.000Z</time>
      </trkpt>
      <trkpt lat="45.30187" lon="5.90798">
        <ele>225.14</ele>
        <time>2020-03-15T11:56:44.000Z</time>
      </trkpt>
      <trkpt lat="45.30169" lon="5.90794">
        <ele>226.48</ele>
        <time>2020-03-15T11:56:49.000Z</time>
      </trkpt>
      <trkpt lat="45.30153" lon="5.9079">
        <ele>226.56</ele>
        <time>2020-03-15T11:56:54.000Z</time>
      </trkpt>
      <trkpt lat="45.30138" lon="5.90787">
        <ele>227.01</ele>
        <time>2020-03-15T11:56:59.000Z</time>
      </trkpt>
      <trkpt lat="45.30119" lon="5.90782">
        <ele>227.21</ele>
        <time>2020-03-15T11:57:04.000Z</time>
      </trkpt>
      <trkpt lat="45.30099" lon="5.90778">
        <ele>227.6</ele>
        <time>2020-03-15T11:57:09.000Z</time>
      </trkpt>
      <trkpt lat="45.30078" lon="5.90776">
        <ele>226.58</ele>
        <time>2020-03-15T11:57:14.000Z</time>
      </trkpt>
      <trkpt lat="45.30056" lon="5.90794">
        <ele>223.75</ele>
        <time>2020-03-15T11:57:19.000Z</time>
      </trkpt>
      <trkpt lat="45.30041" lon="5.9082">
        <ele>222.67</ele>
        <time>2020-03-15T11:57:24.000Z</time>
      </trkpt>
      <trkpt lat="45.30025" lon="5.90839">
        <ele>223.2</ele>
        <time>2020-03-15T11:57:29.000Z</time>
      </trkpt>
      <trkpt lat="45.3001" lon="5.90865">
        <ele>225.18</ele>
        <time>2020-03-15T11:57:34.000Z</time>
      </trkpt>
      <trkpt lat="45.29996" lon="5.90893">
        <ele>225.57</ele>
        <time>2020-03-15T11:57:39.000Z</time>
      </trkpt>
      <trkpt lat="45.29978" lon="5.90922">
        <ele>228.17</ele>
        <time>2020-03-15T11:57:44.000Z</time>
      </trkpt>
      <trkpt lat="45.29964" lon="5.90952">
        <ele>227.94</ele>
        <time>2020-03-15T11:57:49.000Z</time>
      </trkpt>
      <trkpt lat="45.29949" lon="5.90982">
        <ele>227.82</ele>
        <time>2020-03-15T11:57:54.000Z</time>
      </trkpt>
      <trkpt lat="45.29931" lon="5.91014">
        <ele>226.9</ele>
        <time>2020-03-15T11:57:59.000Z</time>
      </trkpt>
      <trkpt lat="45.29912" lon="5.91032">
        <ele>225.36</ele>
        <time>2020-03-15T11:58:04.000Z</time>
      </trkpt>
      <trkpt lat="45.29885" lon="5.91029">
        <ele>226.18</ele>
        <time>2020-03-15T11:58:09.000Z</time>
      </trkpt>
      <trkpt lat="45.29858" lon="5.91019">
        <ele>226.84</ele>
        <time>2020-03-15T11:58:14.000Z</time>
      </trkpt>
      <trkpt lat="45.2983" lon="5.91007">
        <ele>225.73</ele>
        <time>2020-03-15T11:58:19.000Z</time>
      </trkpt>
      <trkpt lat="45.29803" lon="5.90996">
        <ele>225.86</ele>
        <time>2020-03-15T11:58:24.000Z</time>
      </trkpt>
      <trkpt lat="45.29776" lon="5.90985">
        <ele>228.23</ele>
        <time>2020-03-15T11:58:29.000Z</time>
      </trkpt>
      <trkpt lat="45.29748" lon="5.90969">
        <ele>226.42</ele>
        <time>2020-03-15T11:58:34.000Z</time>
      </trkpt>
      <trkpt lat="45.29721" lon="5.90961">
        <ele>224.6</ele>
        <time>2020-03-15T11:58:39.000Z</time>
      </trkpt>
      <trkpt lat="45.29691" lon="5.90949">
        <ele>225.66</ele>
        <time>2020-03-15T11:58:44.000Z</time>
      </trkpt>
      <trkpt lat="45.29664" lon="5.90936">
        <ele>222.84</ele>
        <time>2020-03-15T11:58:49.000Z</time>
      </trkpt>
      <trkpt lat="45.29636" lon="5.90925">
        <ele>223.13</ele>
        <time>2020-03-15T11:58:54.000Z</time>
      </trkpt>
      <trkpt lat="45.29605" lon="5.90911">
        <ele>222.2</ele>
        <time>2020-03-15T11:58:59.000Z</time>
      </trkpt>
      <trkpt lat="45.29575" lon="5.90898">
        <ele>223.63</ele>
        <time>2020-03-15T11:59:04.000Z</time>
      </trkpt>
      <trkpt lat="45.29544" lon="5.90886">
        <ele>223.89</ele>
        <time>2020-03-15T11:59:09.000Z</time>
      </trkpt>
      <trkpt lat="45.29517" lon="5.90871">
        <ele>223.66</ele>
        <time>2020-03-15T11:59:14.000Z</time>
      </trkpt>
      <trkpt lat="45.29487" lon="5.90861">
        <ele>223.59</ele>
        <time>2020-03-15T11:59:19.000Z</time>
      </trkpt>
      <trkpt lat="45.29458" lon="5.90846">
        <ele>222.21</ele>
        <time>2020-03-15T11:59:24.000Z</time>
      </trkpt>
      <trkpt lat="45.29432" lon="5.90833">
        <ele>223.56</ele>
        <time>2020-03-15T11:59:29.000Z</time>
      </trkpt>
      <trkpt lat="45.29403" lon="5.90819">
        <ele>223.9</ele>
        <time>2020-03-15T11:59:34.000Z</time>
      </trkpt>
      <trkpt lat="45.29374" lon="5.90806">
        <ele>224.48</ele>
        <time>2020-03-15T11:59:39.000Z</time>
      </trkpt>
      <trkpt lat="45.29344" lon="5.90794">
        <ele>224.13</ele>
        <time>2020-03-15T11:59:44.000Z</time>
      </trkpt>
      <trkpt lat="45.29317" lon="5.90778">
        <ele>222.26</ele>
        <time>2020-03-15T11:59:49.000Z</time>
      </trkpt>
      <trkpt lat="45.29288" lon="5.90771">
        <ele>225.7</ele>
        <time>2020-03-15T11:59:54.000Z</time>
      </trkpt>
      <trkpt lat="45.29265" lon="5.90772">
        <ele>224.79</ele>
        <time>2020-03-15T11:59:59.000Z</time>
      </trkpt>
      <trkpt lat="45.29242" lon="5.90782">
        <ele>221.97</ele>
        <time>2020-03-15T12:00:04.000Z</time>
      </trkpt>
      <trkpt lat="45.29222" lon="5.90791">
        <ele>225.11</ele>
        <time>2020-03-15T12:00:09.000Z</time>
      </trkpt>
      <trkpt lat="45.29201" lon="5.908">
        <ele>225.82</ele>
        <time>2020-03-15T12:00:14.000Z</time>
      </trkpt>
      <trkpt lat="45.29177" lon="5.90813">
        <ele>228.36</ele>
        <time>2020-03-15T12:00:19.000Z</time>
      </trkpt>
      <trkpt lat="45.29155" lon="5.90821">
        <ele>227.45</ele>
        <time>2020-03-15T12:00:24.000Z</time>
      </trkpt>
      <trkpt lat="45.29134" lon="5.90832">
        <ele>229.79</ele>
        <time>2020-03-15T12:00:29.000Z</time>
      </trkpt>
      <trkpt lat="45.29109" lon="5.90837">
        <ele>224.75</ele>
        <time>2020-03-15T12:00:34.000Z</time>
      </trkpt>
      <trkpt lat="45.29084" lon="5.90847">
        <ele>225.19</ele>
        <time>2020-03-15T12:00:39.000Z</time>
      </trkpt>
      <trkpt lat="45.29063" lon="5.90859">
        <ele>224.85</ele>
        <time>2020-03-15T12:00:44.000Z</time>
      </trkpt>
      <trkpt lat="45.29039" lon="5.90867">
        <ele>225.58</ele>
        <time>2020-03-15T12:00:49.000Z</time>
      </trkpt>
      <trkpt lat="45.29018" lon="5.90876">
        <ele>225</ele>
        <time>2020-03-15T12:00:54.000Z</time>
      </trkpt>
      <trkpt lat="45.28993" lon="5.90886">
        <ele>223.86</ele>
        <time>2020-03-15T12:00:59.000Z</time>
      </trkpt>
      <trkpt lat="45.28969" lon="5.90874">
        <ele>222.5</ele>
        <time>2020-03-15T12:01:04.000Z</time>
      </trkpt>
      <trkpt lat="45.28945" lon="5.90858">
        <ele>225.59</ele>
        <time>2020-03-15T12:01:09.000Z</time>
      </trkpt>
      <trkpt lat="45.28923" lon="5.90841">
        <ele>226.01</ele>
        <time>2020-03-15T12:01:14.000Z</time>
      </trkpt>
      <trkpt lat="45.28898" lon="5.90825">
        <ele>226.59</ele>
        <time>2020-03-15T12:01:19.000Z</time>
      </trkpt>
      <trkpt lat="45.28872" lon="5.90804">
        <ele>227.21</ele>
        <time>2020-03-15T12:01:24.000Z</time>
      </trkpt>
      <trkpt lat="45.28846" lon="5.90785">
        <ele>227.34</ele>
        <time>2020-03-15T12:01:29.000Z</time>
      </trkpt>
      <trkpt lat="45.2882" lon="5.90764">
        <ele>224.64</ele>
        <time>2020-03-15T12:01:34.000Z</time>
      </trkpt>
      <trkpt lat="45.28793" lon="5.90745">
        <ele>225.37</ele>
        <time>2020-03-15T12:01:39.000Z</time>
      </trkpt>
      <trkpt lat="45.28766" lon="5.90728">
        <ele>225.31</ele>
        <time>2020-03-15T12:01:44.000Z</time>
      </trkpt>
      <trkpt lat="45.28739" lon="5.90708">
        <ele>223.13</ele>
        <time>2020-03-15T12:01:49.000Z</time>
      </trkpt>
      <trkpt lat="45.28711" lon="5.90686">
        <ele>223.38</ele>
        <time>2020-03-15T12:01:54.000Z</time>
      </trkpt>
      <trkpt lat="45.28682" lon="5.90661">
        <ele>221.14</ele>
        <time>2020-03-15T12:01:59.000Z</time>
      </trkpt>
      <trkpt lat="45.28654" lon="5.90644">
        <ele>223.07</ele>
        <time>2020-03-15T12:02:04.000Z</time>
      </trkpt>
      <trkpt lat="45.28625" lon="5.90625">
        <ele>222.84</ele>
        <time>2020-03-15T12:02:09.000Z</time>
      </trkpt>
      <trkpt lat="45.28597" lon="5.90605">
        <ele>222.08</ele>
        <time>2020-03-15T12:02:14.000Z</time>
      </trkpt>
      <trkpt lat="45.28568" lon="5.90586">
        <ele>221.8</ele>
        <time>2020-03-15T12:02:19.000Z</time>
      </trkpt>
      <trkpt lat="45.28546" lon="5.90566">
        <ele>221.8</ele>
        <time>2020-03-15T12:02:24.000Z</time>
      </trkpt>
      <trkpt lat="45.28534" lon="5.90533">
        <ele>221.64</ele>
        <time>2020-03-15T12:02:29.000Z</time>
      </trkpt>
      <trkpt lat="45.2851" lon="5.90535">
        <ele>221.73</ele>
        <time>2020-03-15T12:02:34.000Z</time>
      </trkpt>
      <trkpt lat="45.28501" lon="5.90503">
        <ele>223.75</ele>
        <time>2020-03-15T12:02:39.000Z</time>
      </trkpt>
      <trkpt lat="45.285" lon="5.90464">
        <ele>223.02</ele>
        <time>2020-03-15T12:02:44.000Z</time>
      </trkpt>
      <trkpt lat="45.285" lon="5.90423">
        <ele>224.41</ele>
        <time>2020-03-15T12:02:49.000Z</time>
      </trkpt>
      <trkpt lat="45.285" lon="5.90379">
        <ele>222.25</ele>
        <time>2020-03-15T12:02:54.000Z</time>
      </trkpt>
      <trkpt lat="45.28496" lon="5.90337">
        <ele>225.65</ele>
        <time>2020-03-15T12:02:59.000Z</time>
      </trkpt>
      <trkpt lat="45.28493" lon="5.90298">
        <ele>228.49</ele>
        <time>2020-03-15T12:03:04.000Z</time>
      </trkpt>
      <trkpt lat="45.2849" lon="5.90261">
        <ele>225.18</ele>
        <time>2020-03-15T12:03:09.000Z</time>
      </trkpt>
      <trkpt lat="45.28484" lon="5.90229">
        <ele>225.2</ele>
        <time>2020-03-15T12:03:14.000Z</time>
      </trkpt>
      <trkpt lat="45.28476" lon="5.90192">
        <ele>224.6</ele>
        <time>2020-03-15T12:03:19.000Z</time>
      </trkpt>
      <trkpt lat="45.2847" lon="5.90154">
        <ele>225.8</ele>
        <time>2020-03-15T12:03:24.000Z</time>
      </trkpt>
      <trkpt lat="45.28463" lon="5.90117">
        <ele>225.65</ele>
        <time>2020-03-15T12:03:29.000Z</time>
      </trkpt>
      <trkpt lat="45.28454" lon="5.90074">
        <ele>228.52</ele>
        <time>2020-03-15T12:03:34.000Z</time>
      </trkpt>
      <trkpt lat="45.28448" lon="5.90036">
        <ele>228.9</ele>
        <time>2020-03-15T12:03:39.000Z</time>
      </trkpt>
      <trkpt lat="45.28444" lon="5.89996">
        <ele>229.77</ele>
        <time>2020-03-15T12:03:44.000Z</time>
      </trkpt>
      <trkpt lat="45.28443" lon="5.89953">
        <ele>231.37</ele>
        <time>2020-03-15T12:03:49.000Z</time>
      </trkpt>
      <trkpt lat="45.28441" lon="5.8991">
        <ele>229.68</ele>
        <time>2020-03-15T12:03:54.000Z</time>
      </trkpt>
      <trkpt lat="45.28439" lon="5.89871">
        <ele>228.77</ele>
        <time>2020-03-15T12:03:59.000Z</time>
      </trkpt>
      <trkpt lat="45.28438" lon="5.89836">
        <ele>228.58</ele>
        <time>2020-03-15T12:04:04.000Z</time>
      </trkpt>
      <trkpt lat="45.28424" lon="5.89832">
        <ele>226.59</ele>
        <time>2020-03-15T12:04:09.000Z</time>
      </trkpt>
      <trkpt lat="45.28411" lon="5.89857">
        <ele>225.46</ele>
        <time>2020-03-15T12:04:14.000Z</time>
      </trkpt>
      <trkpt lat="45.28395" lon="5.89886">
        <ele>225.76</ele>
        <time>2020-03-15T12:04:19.000Z</time>
      </trkpt>
      <trkpt lat="45.28378" lon="5.89917">
        <ele>229.3</ele>
        <time>2020-03-15T12:04:24.000Z</time>
      </trkpt>
      <trkpt lat="45.28354" lon="5.89936">
        <ele>226.28</ele>
        <time>2020-03-15T12:04:29.000Z</time>
      </trkpt>
      <trkpt lat="45.2833" lon="5.89959">
        <ele>224.96</ele>
        <time>2020-03-15T12:04:34.000Z</time>
      </trkpt>
      <trkpt lat="45.28309" lon="5.89978">
        <ele>225.33</ele>
        <time>2020-03-15T12:04:39.000Z</time>
      </trkpt>
      <trkpt lat="45.28286" lon="5.9">
        <ele>224.94</ele>
        <time>2020-03-15T12:04:44.000Z</time>
      </trkpt>
      <trkpt lat="45.28264" lon="5.90018">
        <ele>225.78</ele>
        <time>2020-03-15T12:04:49.000Z</time>
      </trkpt>
      <trkpt lat="45.2824" lon="5.90041">
        <ele>226.36</ele>
        <time>2020-03-15T12:04:54.000Z</time>
      </trkpt>
      <trkpt lat="45.28217" lon="5.90062">
        <ele>226.61</ele>
        <time>2020-03-15T12:04:59.000Z</time>
      </trkpt>
      <trkpt lat="45.28194" lon="5.90083">
        <ele>225.95</ele>
        <time>2020-03-15T12:05:04.000Z</time>
      </trkpt>
      <trkpt lat="45.2817" lon="5.90105">
        <ele>226.79</ele>
        <time>2020-03-15T12:05:09.000Z</time>
      </trkpt>
      <trkpt lat="45.28146" lon="5.90124">
        <ele>225.1</ele>
        <time>2020-03-15T12:05:14.000Z</time>
      </trkpt>
      <trkpt lat="45.28122" lon="5.90139">
        <ele>222.95</ele>
        <time>2020-03-15T12:05:19.000Z</time>
      </trkpt>
      <trkpt lat="45.28107" lon="5.90119">
        <ele>224.07</ele>
        <time>2020-03-15T12:05:24.000Z</time>
      </trkpt>
      <trkpt lat="45.28092" lon="5.90095">
        <ele>223.85</ele>
        <time>2020-03-15T12:05:29.000Z</time>
      </trkpt>
      <trkpt lat="45.28076" lon="5.90062">
        <ele>224.06</ele>
        <time>2020-03-15T12:05:34.000Z</time>
      </trkpt>
      <trkpt lat="45.28059" lon="5.90027">
        <ele>226.64</ele>
        <time>2020-03-15T12:05:39.000Z</time>
      </trkpt>
      <trkpt lat="45.28043" lon="5.89993">
        <ele>224.02</ele>
        <time>2020-03-15T12:05:44.000Z</time>
      </trkpt>
      <trkpt lat="45.28026" lon="5.89968">
        <ele>224.43</ele>
        <time>2020-03-15T12:05:49.000Z</time>
      </trkpt>
      <trkpt lat="45.28007" lon="5.89944">
        <ele>223.82</ele>
        <time>2020-03-15T12:05:54.000Z</time>
      </trkpt>
      <trkpt lat="45.27983" lon="5.89921">
        <ele>226.74</ele>
        <time>2020-03-15T12:05:59.000Z</time>
      </trkpt>
      <trkpt lat="45.27961" lon="5.89893">
        <ele>223.96</ele>
        <time>2020-03-15T12:06:04.000Z</time>
      </trkpt>
      <trkpt lat="45.27931" lon="5.89881">
        <ele>227.8</ele>
        <time>2020-03-15T12:06:09.000Z</time>
      </trkpt>
      <trkpt lat="45.27902" lon="5.89866">
        <ele>228.46</ele>
        <time>2020-03-15T12:06:14.000Z</time>
      </trkpt>
      <trkpt lat="45.27875" lon="5.89849">
        <ele>227.28</ele>
        <time>2020-03-15T12:06:19.000Z</time>
      </trkpt>
      <trkpt lat="45.27853" lon="5.8983">
        <ele>224.83</ele>
        <time>2020-03-15T12:06:24.000Z</time>
      </trkpt>
      <trkpt lat="45.27823" lon="5.89815">
        <ele>224.79</ele>
        <time>2020-03-15T12:06:29.000Z</time>
      </trkpt>
      <trkpt lat="45.278" lon="5.89794">
        <ele>225.38</ele>
        <time>2020-03-15T12:06:34.000Z</time>
      </trkpt>
      <trkpt lat="45.27777" lon="5.89764">
        <ele>224.56</ele>
        <time>2020-03-15T12:06:39.000Z</time>
      </trkpt>
      <trkpt lat="45.27756" lon="5.89738">
        <ele>225.96</ele>
        <time>2020-03-15T12:06:44.000Z</time>
      </trkpt>
      <trkpt lat="45.27737" lon="5.89708">
        <ele>224.84</ele>
        <time>2020-03-15T12:06:49.000Z</time>
      </trkpt>
      <trkpt lat="45.27718" lon="5.89675">
        <ele>223.41</ele>
        <time>2020-03-15T12:06:54.000Z</time>
      </trkpt>
      <trkpt lat="45.27707" lon="5.89647">
        <ele>223.28</ele>
        <time>2020-03-15T12:06:59.000Z</time>
      </trkpt>
      <trkpt lat="45.27693" lon="5.89651">
        <ele>220.74</ele>
        <time>2020-03-15T12:07:04.000Z</time>
      </trkpt>
      <trkpt lat="45.27677" lon="5.89663">
        <ele>225.23</ele>
        <time>2020-03-15T12:07:09.000Z</time>
      </trkpt>
      <trkpt lat="45.27658" lon="5.89656">
        <ele>226.02</ele>
        <time>2020-03-15T12:07:14.000Z</time>
      </trkpt>
      <trkpt lat="45.2764" lon="5.89638">
        <ele>225.69</ele>
        <time>2020-03-15T12:07:19.000Z</time>
      </trkpt>
      <trkpt lat="45.27628" lon="5.89628">
        <ele>227.78</ele>
        <time>2020-03-15T12:07:24.000Z</time>
      </trkpt>
      <trkpt lat="45.27613" lon="5.89615">
        <ele>225.94</ele>
        <time>2020-03-15T12:07:29.000Z</time>
      </trkpt>
      <trkpt lat="45.27593" lon="5.89602">
        <ele>228.15</ele>
        <time>2020-03-15T12:07:34.000Z</time>
      </trkpt>
      <trkpt lat="45.27577" lon="5.89587">
        <ele>224.86</ele>
        <time>2020-03-15T12:07:39.000Z</time>
      </trkpt>
      <trkpt lat="45.27558" lon="5.89594">
        <ele>222.47</ele>
        <time>2020-03-15T12:07:44.000Z</time>
      </trkpt>
      <trkpt lat="45.27542" lon="5.89618">
        <ele>223.14</ele>
        <time>2020-03-15T12:07:49.000Z</time>
      </trkpt>
      <trkpt lat="45.27528" lon="5.89644">
        <ele>224.74</ele>
        <time>2020-03-15T12:07:54.000Z</time>
      </trkpt>
      <trkpt lat="45.27508" lon="5.89665">
        <ele>224.63</ele>
        <time>2020-03-15T12:07:59.000Z</time>
      </trkpt>
      <trkpt lat="45.27485" lon="5.89655">
        <ele>224.58</ele>
        <time>2020-03-15T12:08:04.000Z</time>
      </trkpt>
      <trkpt lat="45.27465" lon="5.89632">
        <ele>223.64</ele>
        <time>2020-03-15T12:08:09.000Z</time>
      </trkpt>
      <trkpt lat="45.27444" lon="5.89606">
        <ele>223.37</ele>
        <time>2020-03-15T12:08:14.000Z</time>
      </trkpt>
      <trkpt lat="45.27421" lon="5.8958">
        <ele>224.72</ele>
        <time>2020-03-15T12:08:19.000Z</time>
      </trkpt>
      <trkpt lat="45.27399" lon="5.89555">
        <ele>224.33</ele>
        <time>2020-03-15T12:08:24.000Z</time>
      </trkpt>
      <trkpt lat="45.27376" lon="5.89531">
        <ele>225.27</ele>
        <time>2020-03-15T12:08:29.000Z</time>
      </trkpt>
      <trkpt lat="45.27359" lon="5.89506">
        <ele>225.68</ele>
        <time>2020-03-15T12:08:34.000Z</time>
      </trkpt>
      <trkpt lat="45.27339" lon="5.89479">
        <ele>225.1</ele>
        <time>2020-03-15T12:08:39.000Z</time>
      </trkpt>
      <trkpt lat="45.27327" lon="5.89456">
        <ele>225.68</ele>
        <time>2020-03-15T12:08:44.000Z</time>
      </trkpt>
      <trkpt lat="45.27312" lon="5.89441">
        <ele>227.23</ele>
        <time>2020-03-15T12:08:49.000Z</time>
      </trkpt>
      <trkpt lat="45.273" lon="5.89417">
        <ele>227.82</ele>
        <time>2020-03-15T12:08:54.000Z</time>
      </trkpt>
      <trkpt lat="45.27281" lon="5.89394">
        <ele>226.86</ele>
        <time>2020-03-15T12:08:59.000Z</time>
      </trkpt>
      <trkpt lat="45.27267" lon="5.89363">
        <ele>228.2</ele>
        <time>2020-03-15T12:09:04.000Z</time>
      </trkpt>
      <trkpt lat="45.27256" lon="5.8933">
        <ele>228.27</ele>
        <time>2020-03-15T12:09:09.000Z</time>
      </trkpt>
      <trkpt lat="45.27231" lon="5.89311">
        <ele>229.16</ele>
        <time>2020-03-15T12:09:14.000Z</time>
      </trkpt>
      <trkpt lat="45.27202" lon="5.89292">
        <ele>229.67</ele>
        <time>2020-03-15T12:09:19.000Z</time>
      </trkpt>
      <trkpt lat="45.27172" lon="5.89272">
        <ele>229.83</ele>
        <time>2020-03-15T12:09:24.000Z</time>
      </trkpt>
      <trkpt lat="45.27144" lon="5.89254">
        <ele>229</ele>
        <time>2020-03-15T12:09:29.000Z</time>
      </trkpt>
      <trkpt lat="45.27114" lon="5.89235">
        <ele>229.86</ele>
        <time>2020-03-15T12:09:34.000Z</time>
      </trkpt>
      <trkpt lat="45.27087" lon="5.89218">
        <ele>230.19</ele>
        <time>2020-03-15T12:09:39.000Z</time>
      </trkpt>
      <trkpt lat="45.27065" lon="5.89203">
        <ele>232.25</ele>
        <time>2020-03-15T12:09:44.000Z</time>
      </trkpt>
      <trkpt lat="45.27052" lon="5.89165">
        <ele>230.66</ele>
        <time>2020-03-15T12:09:49.000Z</time>
      </trkpt>
      <trkpt lat="45.27029" lon="5.8915">
        <ele>230.77</ele>
        <time>2020-03-15T12:09:54.000Z</time>
      </trkpt>
      <trkpt lat="45.27002" lon="5.89131">
        <ele>227.06</ele>
        <time>2020-03-15T12:09:59.000Z</time>
      </trkpt>
      <trkpt lat="45.26981" lon="5.89103">
        <ele>228.46</ele>
        <time>2020-03-15T12:10:04.000Z</time>
      </trkpt>
      <trkpt lat="45.26961" lon="5.89075">
        <ele>230.98</ele>
        <time>2020-03-15T12:10:09.000Z</time>
      </trkpt>
      <trkpt lat="45.2694" lon="5.8905">
        <ele>228.64</ele>
        <time>2020-03-15T12:10:14.000Z</time>
      </trkpt>
      <trkpt lat="45.26911" lon="5.89023">
        <ele>229.39</ele>
        <time>2020-03-15T12:10:19.000Z</time>
      </trkpt>
      <trkpt lat="45.26886" lon="5.88996">
        <ele>228.67</ele>
        <time>2020-03-15T12:10:24.000Z</time>
      </trkpt>
      <trkpt lat="45.26861" lon="5.88966">
        <ele>228.94</ele>
        <time>2020-03-15T12:10:29.000Z</time>
      </trkpt>
      <trkpt lat="45.26847" lon="5.88922">
        <ele>226.39</ele>
        <time>2020-03-15T12:10:34.000Z</time>
      </trkpt>
      <trkpt lat="45.26841" lon="5.88883">
        <ele>226.83</ele>
        <time>2020-03-15T12:10:39.000Z</time>
      </trkpt>
      <trkpt lat="45.26834" lon="5.88845">
        <ele>227.08</ele>
        <time>2020-03-15T12:10:44.000Z</time>
      </trkpt>
      <trkpt lat="45.26826" lon="5.88808">
        <ele>226.77</ele>
        <time>2020-03-15T12:10:49.000Z</time>
      </trkpt>
      <trkpt lat="45.26817" lon="5.8877">
        <ele>227.21</ele>
        <time>2020-03-15T12:10:54.000Z</time>
      </trkpt>
      <trkpt lat="45.268" lon="5.88739">
        <ele>227.57</ele>
        <time>2020-03-15T12:10:59.000Z</time>
      </trkpt>
      <trkpt lat="45.26777" lon="5.88717">
        <ele>226.85</ele>
        <time>2020-03-15T12:11:04.000Z</time>
      </trkpt>
      <trkpt lat="45.26757" lon="5.88689">
        <ele>226.66</ele>
        <time>2020-03-15T12:11:09.000Z</time>
      </trkpt>
      <trkpt lat="45.26752" lon="5.88649">
        <ele>228.12</ele>
        <time>2020-03-15T12:11:14.000Z</time>
      </trkpt>
      <trkpt lat="45.26741" lon="5.88615">
        <ele>229.43</ele>
        <time>2020-03-15T12:11:19.000Z</time>
      </trkpt>
      <trkpt lat="45.26719" lon="5.88588">
        <ele>228.68</ele>
        <time>2020-03-15T12:11:24.000Z</time>
      </trkpt>
      <trkpt lat="45.26702" lon="5.88569">
        <ele>230.63</ele>
        <time>2020-03-15T12:11:29.000Z</time>
      </trkpt>
      <trkpt lat="45.26692" lon="5.88541">
        <ele>229.98</ele>
        <time>2020-03-15T12:11:34.000Z</time>
      </trkpt>
      <trkpt lat="45.26688" lon="5.88506">
        <ele>228.36</ele>
        <time>2020-03-15T12:11:39.000Z</time>
      </trkpt>
      <trkpt lat="45.2669" lon="5.88473">
        <ele>229.29</ele>
        <time>2020-03-15T12:11:44.000Z</time>
      </trkpt>
      <trkpt lat="45.26688" lon="5.8844">
        <ele>231.24</ele>
        <time>2020-03-15T12:11:49.000Z</time>
      </trkpt>
      <trkpt lat="45.26671" lon="5.88419">
        <ele>230.8</ele>
        <time>2020-03-15T12:11:54.000Z</time>
      </trkpt>
      <trkpt lat="45.26653" lon="5.88394">
        <ele>228.93</ele>
        <time>2020-03-15T12:11:59.000Z</time>
      </trkpt>
      <trkpt lat="45.26641" lon="5.88361">
        <ele>224.94</ele>
        <time>2020-03-15T12:12:04.000Z</time>
      </trkpt>
      <trkpt lat="45.26627" lon="5.88335">
        <ele>225.95</ele>
        <time>2020-03-15T12:12:09.000Z</time>
      </trkpt>
      <trkpt lat="45.26616" lon="5.88304">
        <ele>226.99</ele>
        <time>2020-03-15T12:12:14.000Z</time>
      </trkpt>
      <trkpt lat="45.26609" lon="5.88272">
        <ele>225.86</ele>
        <time>2020-03-15T12:12:19.000Z</time>
      </trkpt>
      <trkpt lat="45.2659" lon="5.88249">
        <ele>227.7</ele>
        <time>2020-03-15T12:12:24.000Z</time>
      </trkpt>
      <trkpt lat="45.26569" lon="5.88224">
        <ele>229.6</ele>
        <time>2020-03-15T12:12:29.000Z</time>
      </trkpt>
      <trkpt lat="45.26548" lon="5.882">
        <ele>230.59</ele>
        <time>2020-03-15T12:12:34.000Z</time>
      </trkpt>
      <trkpt lat="45.26529" lon="5.88174">
        <ele>230.93</ele>
        <time>2020-03-15T12:12:39.000Z</time>
      </trkpt>
      <trkpt lat="45.26508" lon="5.88144">
        <ele>231.61</ele>
        <time>2020-03-15T12:12:44.000Z</time>
      </trkpt>
      <trkpt lat="45.26487" lon="5.8812">
        <ele>233.74</ele>
        <time>2020-03-15T12:12:49.000Z</time>
      </trkpt>
      <trkpt lat="45.26474" lon="5.88091">
        <ele>234.93</ele>
        <time>2020-03-15T12:12:54.000Z</time>
      </trkpt>
      <trkpt lat="45.26463" lon="5.88065">
        <ele>235.38</ele>
        <time>2020-03-15T12:12:59.000Z</time>
      </trkpt>
      <trkpt lat="45.26455" lon="5.88041">
        <ele>235.88</ele>
        <time>2020-03-15T12:13:04.000Z</time>
      </trkpt>
      <trkpt lat="45.26449" lon="5.88024">
        <ele>237.36</ele>
        <time>2020-03-15T12:13:09.000Z</time>
      </trkpt>
      <trkpt lat="45.26441" lon="5.88001">
        <ele>237.61</ele>
        <time>2020-03-15T12:13:14.000Z</time>
      </trkpt>
      <trkpt lat="45.2643" lon="5.87949">
        <ele>239.56</ele>
        <time>2020-03-15T12:13:19.000Z</time>
      </trkpt>
      <trkpt lat="45.26427" lon="5.87901">
        <ele>237.64</ele>
        <time>2020-03-15T12:13:24.000Z</time>
      </trkpt>
      <trkpt lat="45.26433" lon="5.87876">
        <ele>236</ele>
        <time>2020-03-15T12:13:29.000Z</time>
      </trkpt>
      <trkpt lat="45.26435" lon="5.87855">
        <ele>235.36</ele>
        <time>2020-03-15T12:13:34.000Z</time>
      </trkpt>
      <trkpt lat="45.26425" lon="5.87825">
        <ele>237.59</ele>
        <time>2020-03-15T12:13:39.000Z</time>
      </trkpt>
      <trkpt lat="45.26415" lon="5.87789">
        <ele>236.3</ele>
        <time>2020-03-15T12:13:44.000Z</time>
      </trkpt>
      <trkpt lat="45.26405" lon="5.87753">
        <ele>233.88</ele>
        <time>2020-03-15T12:13:49.000Z</time>
      </trkpt>
      <trkpt lat="45.26391" lon="5.8772">
        <ele>233.53</ele>
        <time>2020-03-15T12:13:54.000Z</time>
      </trkpt>
      <trkpt lat="45.26378" lon="5.87694">
        <ele>234.4</ele>
        <time>2020-03-15T12:13:59.000Z</time>
      </trkpt>
      <trkpt lat="45.26362" lon="5.87664">
        <ele>232.62</ele>
        <time>2020-03-15T12:14:04.000Z</time>
      </trkpt>
      <trkpt lat="45.2635" lon="5.87634">
        <ele>231.65</ele>
        <time>2020-03-15T12:14:09.000Z</time>
      </trkpt>
      <trkpt lat="45.26339" lon="5.87597">
        <ele>230.37</ele>
        <time>2020-03-15T12:14:14.000Z</time>
      </trkpt>
      <trkpt lat="45.26333" lon="5.87557">
        <ele>230.11</ele>
        <time>2020-03-15T12:14:19.000Z</time>
      </trkpt>
      <trkpt lat="45.26322" lon="5.87518">
        <ele>231.93</ele>
        <time>2020-03-15T12:14:24.000Z</time>
      </trkpt>
      <trkpt lat="45.26313" lon="5.87484">
        <ele>233.4</ele>
        <time>2020-03-15T12:14:29.000Z</time>
      </trkpt>
      <trkpt lat="45.26306" lon="5.87455">
        <ele>233.19</ele>
        <time>2020-03-15T12:14:34.000Z</time>
      </trkpt>
      <trkpt lat="45.26299" lon="5.87437">
        <ele>235.6</ele>
        <time>2020-03-15T12:14:39.000Z</time>
      </trkpt>
      <trkpt lat="45.26308" lon="5.87433">
        <ele>235.65</ele>
        <time>2020-03-15T12:15:26.000Z</time>
      </trkpt>
      <trkpt lat="45.26299" lon="5.87422">
        <ele>236.38</ele>
        <time>2020-03-15T12:17:28.000Z</time>
      </trkpt>
      <trkpt lat="45.2629" lon="5.87396">
        <ele>235.85</ele>
        <time>2020-03-15T12:17:33.000Z</time>
      </trkpt>
      <trkpt lat="45.2627" lon="5.87371">
        <ele>233.34</ele>
        <time>2020-03-15T12:17:38.000Z</time>
      </trkpt>
      <trkpt lat="45.26263" lon="5.8735">
        <ele>235.11</ele>
        <time>2020-03-15T12:17:43.000Z</time>
      </trkpt>
      <trkpt lat="45.26245" lon="5.87326">
        <ele>234.68</ele>
        <time>2020-03-15T12:17:48.000Z</time>
      </trkpt>
      <trkpt lat="45.26231" lon="5.87301">
        <ele>234.82</ele>
        <time>2020-03-15T12:17:53.000Z</time>
      </trkpt>
      <trkpt lat="45.26211" lon="5.87282">
        <ele>238.64</ele>
        <time>2020-03-15T12:17:58.000Z</time>
      </trkpt>
      <trkpt lat="45.262" lon="5.87266">
        <ele>238.08</ele>
        <time>2020-03-15T12:18:03.000Z</time>
      </trkpt>
      <trkpt lat="45.26183" lon="5.87251">
        <ele>240.63</ele>
        <time>2020-03-15T12:18:08.000Z</time>
      </trkpt>
      <trkpt lat="45.26165" lon="5.87232">
        <ele>242.27</ele>
        <time>2020-03-15T12:18:13.000Z</time>
      </trkpt>
      <trkpt lat="45.26147" lon="5.87211">
        <ele>243.11</ele>
        <time>2020-03-15T12:18:18.000Z</time>
      </trkpt>
      <trkpt lat="45.26132" lon="5.87187">
        <ele>243.52</ele>
        <time>2020-03-15T12:18:23.000Z</time>
      </trkpt>
      <trkpt lat="45.2612" lon="5.8716">
        <ele>240.79</ele>
        <time>2020-03-15T12:18:28.000Z</time>
      </trkpt>
      <trkpt lat="45.26111" lon="5.87129">
        <ele>239.65</ele>
        <time>2020-03-15T12:18:33.000Z</time>
      </trkpt>
      <trkpt lat="45.26096" lon="5.87105">
        <ele>240.85</ele>
        <time>2020-03-15T12:18:38.000Z</time>
      </trkpt>
      <trkpt lat="45.26083" lon="5.87083">
        <ele>243.91</ele>
        <time>2020-03-15T12:18:43.000Z</time>
      </trkpt>
      <trkpt lat="45.26067" lon="5.87064">
        <ele>242.85</ele>
        <time>2020-03-15T12:18:48.000Z</time>
      </trkpt>
      <trkpt lat="45.26055" lon="5.87039">
        <ele>244.53</ele>
        <time>2020-03-15T12:18:53.000Z</time>
      </trkpt>
      <trkpt lat="45.26047" lon="5.87005">
        <ele>243.69</ele>
        <time>2020-03-15T12:18:58.000Z</time>
      </trkpt>
      <trkpt lat="45.26054" lon="5.86977">
        <ele>244.08</ele>
        <time>2020-03-15T12:19:03.000Z</time>
      </trkpt>
      <trkpt lat="45.26058" lon="5.86953">
        <ele>245.59</ele>
        <time>2020-03-15T12:19:08.000Z</time>
      </trkpt>
      <trkpt lat="45.26065" lon="5.86927">
        <ele>247.84</ele>
        <time>2020-03-15T12:19:13.000Z</time>
      </trkpt>
      <trkpt lat="45.26065" lon="5.869">
        <ele>250.75</ele>
        <time>2020-03-15T12:19:18.000Z</time>
      </trkpt>
      <trkpt lat="45.26052" lon="5.86876">
        <ele>249.62</ele>
        <time>2020-03-15T12:19:23.000Z</time>
      </trkpt>
      <trkpt lat="45.26037" lon="5.86856">
        <ele>251.51</ele>
        <time>2020-03-15T12:19:28.000Z</time>
      </trkpt>
      <trkpt lat="45.26024" lon="5.86837">
        <ele>255.49</ele>
        <time>2020-03-15T12:19:33.000Z</time>
      </trkpt>
      <trkpt lat="45.26014" lon="5.86818">
        <ele>254.76</ele>
        <time>2020-03-15T12:19:38.000Z</time>
      </trkpt>
      <trkpt lat="45.26017" lon="5.86805">
        <ele>256.39</ele>
        <time>2020-03-15T12:19:58.000Z</time>
      </trkpt>
      <trkpt lat="45.26028" lon="5.86777">
        <ele>254.73</ele>
        <time>2020-03-15T12:20:03.000Z</time>
      </trkpt>
      <trkpt lat="45.26029" lon="5.86746">
        <ele>254.97</ele>
        <time>2020-03-15T12:20:08.000Z</time>
      </trkpt>
      <trkpt lat="45.26029" lon="5.86721">
        <ele>252.02</ele>
        <time>2020-03-15T12:20:13.000Z</time>
      </trkpt>
      <trkpt lat="45.26035" lon="5.86705">
        <ele>256.24</ele>
        <time>2020-03-15T12:20:18.000Z</time>
      </trkpt>
      <trkpt lat="45.26043" lon="5.86682">
        <ele>255.87</ele>
        <time>2020-03-15T12:20:23.000Z</time>
      </trkpt>
      <trkpt lat="45.26051" lon="5.86652">
        <ele>259.26</ele>
        <time>2020-03-15T12:20:28.000Z</time>
      </trkpt>
      <trkpt lat="45.26064" lon="5.86627">
        <ele>260.49</ele>
        <time>2020-03-15T12:20:33.000Z</time>
      </trkpt>
      <trkpt lat="45.2608" lon="5.86609">
        <ele>265.97</ele>
        <time>2020-03-15T12:20:38.000Z</time>
      </trkpt>
      <trkpt lat="45.26095" lon="5.86596">
        <ele>266.18</ele>
        <time>2020-03-15T12:20:43.000Z</time>
      </trkpt>
      <trkpt lat="45.26109" lon="5.86584">
        <ele>265.72</ele>
        <time>2020-03-15T12:20:48.000Z</time>
      </trkpt>
      <trkpt lat="45.26128" lon="5.86589">
        <ele>263.43</ele>
        <time>2020-03-15T12:20:53.000Z</time>
      </trkpt>
      <trkpt lat="45.2615" lon="5.86594">
        <ele>260.58</ele>
        <time>2020-03-15T12:20:58.000Z</time>
      </trkpt>
      <trkpt lat="45.2617" lon="5.86608">
        <ele>262.56</ele>
        <time>2020-03-15T12:21:03.000Z</time>
      </trkpt>
      <trkpt lat="45.26189" lon="5.86618">
        <ele>263.01</ele>
        <time>2020-03-15T12:21:08.000Z</time>
      </trkpt>
      <trkpt lat="45.26211" lon="5.86623">
        <ele>262.23</ele>
        <time>2020-03-15T12:21:13.000Z</time>
      </trkpt>
      <trkpt lat="45.26233" lon="5.86623">
        <ele>266.85</ele>
        <time>2020-03-15T12:21:18.000Z</time>
      </trkpt>
      <trkpt lat="45.26251" lon="5.86624">
        <ele>267.09</ele>
        <time>2020-03-15T12:21:23.000Z</time>
      </trkpt>
      <trkpt lat="45.26262" lon="5.86615">
        <ele>269.7</ele>
        <time>2020-03-15T12:21:28.000Z</time>
      </trkpt>
      <trkpt lat="45.26264" lon="5.86602">
        <ele>272.14</ele>
        <time>2020-03-15T12:21:33.000Z</time>
      </trkpt>
      <trkpt lat="45.26269" lon="5.86588">
        <ele>273.52</ele>
        <time>2020-03-15T12:21:38.000Z</time>
      </trkpt>
      <trkpt lat="45.26278" lon="5.86575">
        <ele>271.24</ele>
        <time>2020-03-15T12:21:43.000Z</time>
      </trkpt>
      <trkpt lat="45.26287" lon="5.86564">
        <ele>273.14</ele>
        <time>2020-03-15T12:21:48.000Z</time>
      </trkpt>
      <trkpt lat="45.26285" lon="5.86551">
        <ele>270.88</ele>
        <time>2020-03-15T12:22:03.000Z</time>
      </trkpt>
      <trkpt lat="45.26271" lon="5.86543">
        <ele>269.68</ele>
        <time>2020-03-15T12:22:08.000Z</time>
      </trkpt>
      <trkpt lat="45.26253" lon="5.86538">
        <ele>271.48</ele>
        <time>2020-03-15T12:22:13.000Z</time>
      </trkpt>
      <trkpt lat="45.26237" lon="5.86532">
        <ele>275.54</ele>
        <time>2020-03-15T12:22:18.000Z</time>
      </trkpt>
      <trkpt lat="45.26221" lon="5.86525">
        <ele>274.07</ele>
        <time>2020-03-15T12:22:23.000Z</time>
      </trkpt>
      <trkpt lat="45.26198" lon="5.86518">
        <ele>276.7</ele>
        <time>2020-03-15T12:22:28.000Z</time>
      </trkpt>
      <trkpt lat="45.26177" lon="5.86511">
        <ele>278.77</ele>
        <time>2020-03-15T12:22:33.000Z</time>
      </trkpt>
      <trkpt lat="45.26157" lon="5.86501">
        <ele>278.72</ele>
        <time>2020-03-15T12:22:38.000Z</time>
      </trkpt>
      <trkpt lat="45.26136" lon="5.86495">
        <ele>278.43</ele>
        <time>2020-03-15T12:22:43.000Z</time>
      </trkpt>
      <trkpt lat="45.26114" lon="5.86502">
        <ele>279.24</ele>
        <time>2020-03-15T12:22:48.000Z</time>
      </trkpt>
      <trkpt lat="45.26098" lon="5.86508">
        <ele>279.7</ele>
        <time>2020-03-15T12:22:53.000Z</time>
      </trkpt>
      <trkpt lat="45.26078" lon="5.86513">
        <ele>282.55</ele>
        <time>2020-03-15T12:22:58.000Z</time>
      </trkpt>
      <trkpt lat="45.26057" lon="5.8652">
        <ele>283.88</ele>
        <time>2020-03-15T12:23:03.000Z</time>
      </trkpt>
      <trkpt lat="45.26036" lon="5.86526">
        <ele>283.48</ele>
        <time>2020-03-15T12:23:08.000Z</time>
      </trkpt>
      <trkpt lat="45.26016" lon="5.86531">
        <ele>285.54</ele>
        <time>2020-03-15T12:23:13.000Z</time>
      </trkpt>
      <trkpt lat="45.25994" lon="5.86537">
        <ele>286.61</ele>
        <time>2020-03-15T12:23:18.000Z</time>
      </trkpt>
      <trkpt lat="45.2597" lon="5.86549">
        <ele>285.7</ele>
        <time>2020-03-15T12:23:23.000Z</time>
      </trkpt>
      <trkpt lat="45.25949" lon="5.8655">
        <ele>282.91</ele>
        <time>2020-03-15T12:23:28.000Z</time>
      </trkpt>
      <trkpt lat="45.25926" lon="5.86546">
        <ele>282.2</ele>
        <time>2020-03-15T12:23:33.000Z</time>
      </trkpt>
      <trkpt lat="45.25902" lon="5.86546">
        <ele>283.25</ele>
        <time>2020-03-15T12:23:38.000Z</time>
      </trkpt>
      <trkpt lat="45.25882" lon="5.86542">
        <ele>284.6</ele>
        <time>2020-03-15T12:23:43.000Z</time>
      </trkpt>
      <trkpt lat="45.25863" lon="5.86533">
        <ele>284.48</ele>
        <time>2020-03-15T12:23:48.000Z</time>
      </trkpt>
      <trkpt lat="45.25845" lon="5.86528">
        <ele>286.07</ele>
        <time>2020-03-15T12:23:53.000Z</time>
      </trkpt>
      <trkpt lat="45.25823" lon="5.8652">
        <ele>291.02</ele>
        <time>2020-03-15T12:23:58.000Z</time>
      </trkpt>
      <trkpt lat="45.25801" lon="5.86518">
        <ele>295.13</ele>
        <time>2020-03-15T12:24:03.000Z</time>
      </trkpt>
      <trkpt lat="45.25781" lon="5.8651">
        <ele>296</ele>
        <time>2020-03-15T12:24:08.000Z</time>
      </trkpt>
      <trkpt lat="45.25763" lon="5.86495">
        <ele>295.02</ele>
        <time>2020-03-15T12:24:13.000Z</time>
      </trkpt>
      <trkpt lat="45.25748" lon="5.86477">
        <ele>294.67</ele>
        <time>2020-03-15T12:24:18.000Z</time>
      </trkpt>
      <trkpt lat="45.25733" lon="5.86457">
        <ele>295.14</ele>
        <time>2020-03-15T12:24:23.000Z</time>
      </trkpt>
      <trkpt lat="45.25712" lon="5.86441">
        <ele>298.54</ele>
        <time>2020-03-15T12:24:28.000Z</time>
      </trkpt>
      <trkpt lat="45.25689" lon="5.86429">
        <ele>298.21</ele>
        <time>2020-03-15T12:24:33.000Z</time>
      </trkpt>
      <trkpt lat="45.25668" lon="5.86419">
        <ele>300.45</ele>
        <time>2020-03-15T12:24:38.000Z</time>
      </trkpt>
      <trkpt lat="45.25647" lon="5.8641">
        <ele>302.53</ele>
        <time>2020-03-15T12:24:43.000Z</time>
      </trkpt>
      <trkpt lat="45.25627" lon="5.86402">
        <ele>305.89</ele>
        <time>2020-03-15T12:24:48.000Z</time>
      </trkpt>
      <trkpt lat="45.25602" lon="5.86395">
        <ele>305.14</ele>
        <time>2020-03-15T12:24:53.000Z</time>
      </trkpt>
      <trkpt lat="45.25572" lon="5.86395">
        <ele>305.59</ele>
        <time>2020-03-15T12:24:58.000Z</time>
      </trkpt>
      <trkpt lat="45.2555" lon="5.86397">
        <ele>302.83</ele>
        <time>2020-03-15T12:25:03.000Z</time>
      </trkpt>
      <trkpt lat="45.2553" lon="5.86394">
        <ele>300.43</ele>
        <time>2020-03-15T12:25:08.000Z</time>
      </trkpt>
      <trkpt lat="45.25513" lon="5.86399">
        <ele>303.74</ele>
        <time>2020-03-15T12:25:13.000Z</time>
      </trkpt>
      <trkpt lat="45.25502" lon="5.86398">
        <ele>305.15</ele>
        <time>2020-03-15T12:25:18.000Z</time>
      </trkpt>
      <trkpt lat="45.2549" lon="5.86392">
        <ele>302.19</ele>
        <time>2020-03-15T12:25:23.000Z</time>
      </trkpt>
      <trkpt lat="45.25476" lon="5.8638">
        <ele>297.45</ele>
        <time>2020-03-15T12:25:28.000Z</time>
      </trkpt>
      <trkpt lat="45.2546" lon="5.86375">
        <ele>293.12</ele>
        <time>2020-03-15T12:25:33.000Z</time>
      </trkpt>
      <trkpt lat="45.25446" lon="5.8637">
        <ele>290.31</ele>
        <time>2020-03-15T12:25:38.000Z</time>
      </trkpt>
      <trkpt lat="45.25436" lon="5.86359">
        <ele>289.52</ele>
        <time>2020-03-15T12:25:43.000Z</time>
      </trkpt>
      <trkpt lat="45.25424" lon="5.86347">
        <ele>289.61</ele>
        <time>2020-03-15T12:25:48.000Z</time>
      </trkpt>
      <trkpt lat="45.2541" lon="5.86328">
        <ele>291.07</ele>
        <time>2020-03-15T12:25:53.000Z</time>
      </trkpt>
      <trkpt lat="45.25397" lon="5.86319">
        <ele>291.11</ele>
        <time>2020-03-15T12:25:58.000Z</time>
      </trkpt>
      <trkpt lat="45.25383" lon="5.86308">
        <ele>289.52</ele>
        <time>2020-03-15T12:26:03.000Z</time>
      </trkpt>
      <trkpt lat="45.25372" lon="5.86292">
        <ele>287.85</ele>
        <time>2020-03-15T12:26:08.000Z</time>
      </trkpt>
      <trkpt lat="45.25358" lon="5.86278">
        <ele>289.64</ele>
        <time>2020-03-15T12:26:13.000Z</time>
      </trkpt>
      <trkpt lat="45.25347" lon="5.86258">
        <ele>288.15</ele>
        <time>2020-03-15T12:26:18.000Z</time>
      </trkpt>
      <trkpt lat="45.25329" lon="5.86228">
        <ele>291.74</ele>
        <time>2020-03-15T12:26:23.000Z</time>
      </trkpt>
      <trkpt lat="45.25328" lon="5.86211">
        <ele>288.1</ele>
        <time>2020-03-15T12:26:28.000Z</time>
      </trkpt>
      <trkpt lat="45.25322" lon="5.86186">
        <ele>290.73</ele>
        <time>2020-03-15T12:26:33.000Z</time>
      </trkpt>
      <trkpt lat="45.25321" lon="5.86154">
        <ele>287.32</ele>
        <time>2020-03-15T12:26:38.000Z</time>
      </trkpt>
      <trkpt lat="45.25311" lon="5.8612">
        <ele>290.81</ele>
        <time>2020-03-15T12:26:43.000Z</time>
      </trkpt>
      <trkpt lat="45.25301" lon="5.86092">
        <ele>290.86</ele>
        <time>2020-03-15T12:26:48.000Z</time>
      </trkpt>
      <trkpt lat="45.25293" lon="5.86072">
        <ele>288.58</ele>
        <time>2020-03-15T12:26:53.000Z</time>
      </trkpt>
      <trkpt lat="45.25285" lon="5.86055">
        <ele>289.17</ele>
        <time>2020-03-15T12:26:58.000Z</time>
      </trkpt>
      <trkpt lat="45.25268" lon="5.86037">
        <ele>289.86</ele>
        <time>2020-03-15T12:27:03.000Z</time>
      </trkpt>
      <trkpt lat="45.25253" lon="5.86009">
        <ele>287.92</ele>
        <time>2020-03-15T12:27:08.000Z</time>
      </trkpt>
      <trkpt lat="45.25242" lon="5.85983">
        <ele>288.48</ele>
        <time>2020-03-15T12:27:13.000Z</time>
      </trkpt>
      <trkpt lat="45.25224" lon="5.85955">
        <ele>293.17</ele>
        <time>2020-03-15T12:27:18.000Z</time>
      </trkpt>
      <trkpt lat="45.25205" lon="5.8593">
        <ele>294.41</ele>
        <time>2020-03-15T12:27:23.000Z</time>
      </trkpt>
      <trkpt lat="45.25192" lon="5.859">
        <ele>289.31</ele>
        <time>2020-03-15T12:27:28.000Z</time>
      </trkpt>
      <trkpt lat="45.2518" lon="5.85874">
        <ele>291.35</ele>
        <time>2020-03-15T12:27:33.000Z</time>
      </trkpt>
      <trkpt lat="45.25176" lon="5.85847">
        <ele>291.74</ele>
        <time>2020-03-15T12:27:38.000Z</time>
      </trkpt>
      <trkpt lat="45.25171" lon="5.8582">
        <ele>291.21</ele>
        <time>2020-03-15T12:27:43.000Z</time>
      </trkpt>
      <trkpt lat="45.25163" lon="5.85791">
        <ele>289.59</ele>
        <time>2020-03-15T12:27:48.000Z</time>
      </trkpt>
      <trkpt lat="45.25156" lon="5.85764">
        <ele>293.05</ele>
        <time>2020-03-15T12:27:53.000Z</time>
      </trkpt>
      <trkpt lat="45.25154" lon="5.85737">
        <ele>292.53</ele>
        <time>2020-03-15T12:27:58.000Z</time>
      </trkpt>
      <trkpt lat="45.2515" lon="5.85709">
        <ele>295.19</ele>
        <time>2020-03-15T12:28:03.000Z</time>
      </trkpt>
      <trkpt lat="45.25131" lon="5.85673">
        <ele>299.01</ele>
        <time>2020-03-15T12:28:08.000Z</time>
      </trkpt>
      <trkpt lat="45.25126" lon="5.85655">
        <ele>302.02</ele>
        <time>2020-03-15T12:28:13.000Z</time>
      </trkpt>
      <trkpt lat="45.25124" lon="5.85631">
        <ele>302.09</ele>
        <time>2020-03-15T12:28:18.000Z</time>
      </trkpt>
      <trkpt lat="45.25118" lon="5.85602">
        <ele>303.93</ele>
        <time>2020-03-15T12:28:23.000Z</time>
      </trkpt>
      <trkpt lat="45.25108" lon="5.85575">
        <ele>301.45</ele>
        <time>2020-03-15T12:28:28.000Z</time>
      </trkpt>
      <trkpt lat="45.25102" lon="5.85557">
        <ele>301.03</ele>
        <time>2020-03-15T12:28:33.000Z</time>
      </trkpt>
      <trkpt lat="45.25088" lon="5.85535">
        <ele>300.9</ele>
        <time>2020-03-15T12:28:38.000Z</time>
      </trkpt>
      <trkpt lat="45.25087" lon="5.85508">
        <ele>303.15</ele>
        <time>2020-03-15T12:28:43.000Z</time>
      </trkpt>
      <trkpt lat="45.25102" lon="5.85498">
        <ele>306.71</ele>
        <time>2020-03-15T12:28:48.000Z</time>
      </trkpt>
      <trkpt lat="45.25118" lon="5.85495">
        <ele>308.03</ele>
        <time>2020-03-15T12:28:53.000Z</time>
      </trkpt>
      <trkpt lat="45.25136" lon="5.85487">
        <ele>309.3</ele>
        <time>2020-03-15T12:28:58.000Z</time>
      </trkpt>
      <trkpt lat="45.2515" lon="5.85477">
        <ele>312.27</ele>
        <time>2020-03-15T12:29:03.000Z</time>
      </trkpt>
      <trkpt lat="45.25169" lon="5.85463">
        <ele>314.15</ele>
        <time>2020-03-15T12:29:08.000Z</time>
      </trkpt>
      <trkpt lat="45.2518" lon="5.85461">
        <ele>314.17</ele>
        <time>2020-03-15T12:29:13.000Z</time>
      </trkpt>
      <trkpt lat="45.25193" lon="5.85451">
        <ele>317.1</ele>
        <time>2020-03-15T12:29:18.000Z</time>
      </trkpt>
      <trkpt lat="45.25208" lon="5.8544">
        <ele>318.51</ele>
        <time>2020-03-15T12:29:23.000Z</time>
      </trkpt>
      <trkpt lat="45.25223" lon="5.85426">
        <ele>319.95</ele>
        <time>2020-03-15T12:29:28.000Z</time>
      </trkpt>
      <trkpt lat="45.25226" lon="5.85413">
        <ele>319.14</ele>
        <time>2020-03-15T12:29:43.000Z</time>
      </trkpt>
      <trkpt lat="45.25236" lon="5.8541">
        <ele>323.92</ele>
        <time>2020-03-15T12:29:48.000Z</time>
      </trkpt>
      <trkpt lat="45.25249" lon="5.85401">
        <ele>323.4</ele>
        <time>2020-03-15T12:29:53.000Z</time>
      </trkpt>
      <trkpt lat="45.25264" lon="5.85385">
        <ele>323.01</ele>
        <time>2020-03-15T12:29:58.000Z</time>
      </trkpt>
      <trkpt lat="45.25278" lon="5.85371">
        <ele>325.29</ele>
        <time>2020-03-15T12:30:03.000Z</time>
      </trkpt>
      <trkpt lat="45.25289" lon="5.85359">
        <ele>325.98</ele>
        <time>2020-03-15T12:30:08.000Z</time>
      </trkpt>
      <trkpt lat="45.253" lon="5.8535">
        <ele>326.11</ele>
        <time>2020-03-15T12:30:13.000Z</time>
      </trkpt>
      <trkpt lat="45.25312" lon="5.85345">
        <ele>325.77</ele>
        <time>2020-03-15T12:30:18.000Z</time>
      </trkpt>
      <trkpt lat="45.25326" lon="5.85335">
        <ele>325.03</ele>
        <time>2020-03-15T12:30:23.000Z</time>
      </trkpt>
      <trkpt lat="45.25338" lon="5.85325">
        <ele>327.12</ele>
        <time>2020-03-15T12:30:28.000Z</time>
      </trkpt>
      <trkpt lat="45.25347" lon="5.85317">
        <ele>325.5</ele>
        <time>2020-03-15T12:30:33.000Z</time>
      </trkpt>
      <trkpt lat="45.25355" lon="5.85304">
        <ele>326.53</ele>
        <time>2020-03-15T12:30:38.000Z</time>
      </trkpt>
      <trkpt lat="45.25364" lon="5.85282">
        <ele>326.84</ele>
        <time>2020-03-15T12:30:43.000Z</time>
      </trkpt>
      <trkpt lat="45.25377" lon="5.85251">
        <ele>325.28</ele>
        <time>2020-03-15T12:30:48.000Z</time>
      </trkpt>
      <trkpt lat="45.25389" lon="5.85229">
        <ele>325.73</ele>
        <time>2020-03-15T12:30:53.000Z</time>
      </trkpt>
      <trkpt lat="45.25397" lon="5.85203">
        <ele>326.54</ele>
        <time>2020-03-15T12:30:58.000Z</time>
      </trkpt>
      <trkpt lat="45.25401" lon="5.85181">
        <ele>326.63</ele>
        <time>2020-03-15T12:31:03.000Z</time>
      </trkpt>
      <trkpt lat="45.254" lon="5.85162">
        <ele>326.42</ele>
        <time>2020-03-15T12:31:08.000Z</time>
      </trkpt>
      <trkpt lat="45.25397" lon="5.85142">
        <ele>323.46</ele>
        <time>2020-03-15T12:31:13.000Z</time>
      </trkpt>
      <trkpt lat="45.25371" lon="5.85109">
        <ele>322.22</ele>
        <time>2020-03-15T12:31:18.000Z</time>
      </trkpt>
      <trkpt lat="45.25346" lon="5.85078">
        <ele>317.99</ele>
        <time>2020-03-15T12:31:23.000Z</time>
      </trkpt>
      <trkpt lat="45.25331" lon="5.8504">
        <ele>316.4</ele>
        <time>2020-03-15T12:31:28.000Z</time>
      </trkpt>
      <trkpt lat="45.25324" lon="5.85005">
        <ele>316</ele>
        <time>2020-03-15T12:31:33.000Z</time>
      </trkpt>
      <trkpt lat="45.25334" lon="5.84972">
        <ele>313.63</ele>
        <time>2020-03-15T12:31:38.000Z</time>
      </trkpt>
      <trkpt lat="45.25344" lon="5.84945">
        <ele>316.15</ele>
        <time>2020-03-15T12:31:43.000Z</time>
      </trkpt>
      <trkpt lat="45.25356" lon="5.84914">
        <ele>316.96</ele>
        <time>2020-03-15T12:31:48.000Z</time>
      </trkpt>
      <trkpt lat="45.25366" lon="5.84881">
        <ele>317.17</ele>
        <time>2020-03-15T12:31:53.000Z</time>
      </trkpt>
      <trkpt lat="45.25376" lon="5.84862">
        <ele>318.87</ele>
        <time>2020-03-15T12:31:58.000Z</time>
      </trkpt>
      <trkpt lat="45.25391" lon="5.84834">
        <ele>318.15</ele>
        <time>2020-03-15T12:32:03.000Z</time>
      </trkpt>
      <trkpt lat="45.25405" lon="5.84821">
        <ele>319.42</ele>
        <time>2020-03-15T12:32:08.000Z</time>
      </trkpt>
      <trkpt lat="45.25422" lon="5.84816">
        <ele>319.9</ele>
        <time>2020-03-15T12:32:13.000Z</time>
      </trkpt>
      <trkpt lat="45.25442" lon="5.84822">
        <ele>326.56</ele>
        <time>2020-03-15T12:32:18.000Z</time>
      </trkpt>
      <trkpt lat="45.25461" lon="5.84828">
        <ele>328.06</ele>
        <time>2020-03-15T12:32:23.000Z</time>
      </trkpt>
      <trkpt lat="45.25479" lon="5.84832">
        <ele>329.05</ele>
        <time>2020-03-15T12:32:28.000Z</time>
      </trkpt>
      <trkpt lat="45.25496" lon="5.84839">
        <ele>329.82</ele>
        <time>2020-03-15T12:32:33.000Z</time>
      </trkpt>
      <trkpt lat="45.25507" lon="5.84837">
        <ele>334.8</ele>
        <time>2020-03-15T12:32:43.000Z</time>
      </trkpt>
      <trkpt lat="45.25524" lon="5.84826">
        <ele>334.77</ele>
        <time>2020-03-15T12:32:48.000Z</time>
      </trkpt>
      <trkpt lat="45.25542" lon="5.84813">
        <ele>335.28</ele>
        <time>2020-03-15T12:32:53.000Z</time>
      </trkpt>
      <trkpt lat="45.25559" lon="5.84802">
        <ele>336.61</ele>
        <time>2020-03-15T12:32:58.000Z</time>
      </trkpt>
      <trkpt lat="45.25575" lon="5.84785">
        <ele>336.57</ele>
        <time>2020-03-15T12:33:03.000Z</time>
      </trkpt>
      <trkpt lat="45.25595" lon="5.84771">
        <ele>337.43</ele>
        <time>2020-03-15T12:33:08.000Z</time>
      </trkpt>
      <trkpt lat="45.25612" lon="5.84761">
        <ele>337.38</ele>
        <time>2020-03-15T12:33:13.000Z</time>
      </trkpt>
      <trkpt lat="45.25629" lon="5.84754">
        <ele>338.93</ele>
        <time>2020-03-15T12:33:18.000Z</time>
      </trkpt>
      <trkpt lat="45.25633" lon="5.8474">
        <ele>340.01</ele>
        <time>2020-03-15T12:33:23.000Z</time>
      </trkpt>
      <trkpt lat="45.25625" lon="5.84722">
        <ele>343.76</ele>
        <time>2020-03-15T12:33:28.000Z</time>
      </trkpt>
      <trkpt lat="45.25625" lon="5.84714">
        <ele>352.37</ele>
        <time>2020-03-15T12:33:48.000Z</time>
      </trkpt>
    </trkseg>
  </trk>
</gpx>